<?xml version="1.0" encoding="UTF-8" standalone="no" ?>
<gpx xmlns="http://www.topografix.com/GPX/1/1" xmlns:xsi="http://www.w3.org/2001/XMLSchema-instance" xsi:schemaLocation="http://www.topografix.com/GPX/1/1 http://www.topografix.com/GPX/1/1/gpx.xsd" version="1.1" creator="VisuGPX - https://www.visugpx.com">
  <metadata>
    <name>Tuc de L'Etang depuis le Mourtis version longue</name>
  </metadata>
  <wpt lat="42.9128" lon="0.771">
    <ele>1424.8</ele>
    <name><![CDATA[Depart]]></name>
    <desc><![CDATA[]]></desc>
  </wpt>
  <wpt lat="42.90351" lon="0.78839">
    <ele>1459.4</ele>
    <name><![CDATA[Route forestiere]]></name>
    <desc><![CDATA[]]></desc>
  </wpt>
  <wpt lat="42.88885" lon="0.78768">
    <ele>1365.7</ele>
    <name><![CDATA[Col d Artigascou]]></name>
    <desc><![CDATA[]]></desc>
  </wpt>
  <wpt lat="42.89484" lon="0.77753">
    <ele>1730.8</ele>
    <name><![CDATA[Mont Sijol]]></name>
    <desc><![CDATA[]]></desc>
  </wpt>
  <wpt lat="42.90199" lon="0.7657">
    <ele>1767.9</ele>
    <name><![CDATA[Tuc de l Etang]]></name>
    <desc><![CDATA[]]></desc>
  </wpt>
  <wpt lat="42.89841" lon="0.75432">
    <ele>1695.5</ele>
    <name><![CDATA[Tuc de Pan]]></name>
    <desc><![CDATA[]]></desc>
  </wpt>
  <wpt lat="42.9012" lon="0.72855">
    <ele>1346.5</ele>
    <name><![CDATA[Bifurcation ]]></name>
    <desc><![CDATA[]]></desc>
  </wpt>
  <trk>
    <name><![CDATA[cretes-mourtis]]></name>
    <trkseg>
      <trkpt lat="42.9128" lon="0.771">
        <ele>1287</ele>
        <time>2020-02-22T08:50:17Z</time>
      </trkpt>
      <trkpt lat="42.91278" lon="0.77111">
        <ele>1287.9</ele>
        <time>2020-02-22T08:50:29Z</time>
      </trkpt>
      <trkpt lat="42.91278" lon="0.77125">
        <ele>1288.6</ele>
        <time>2020-02-22T08:50:39Z</time>
      </trkpt>
      <trkpt lat="42.91275" lon="0.77139">
        <ele>1289.4</ele>
        <time>2020-02-22T08:50:50Z</time>
      </trkpt>
      <trkpt lat="42.91272" lon="0.77151">
        <ele>1290.3</ele>
        <time>2020-02-22T08:51:01Z</time>
      </trkpt>
      <trkpt lat="42.91271" lon="0.77165">
        <ele>1291</ele>
        <time>2020-02-22T08:51:11Z</time>
      </trkpt>
      <trkpt lat="42.91268" lon="0.77176">
        <ele>1291.6</ele>
        <time>2020-02-22T08:51:20Z</time>
      </trkpt>
      <trkpt lat="42.91263" lon="0.77187">
        <ele>1292.4</ele>
        <time>2020-02-22T08:51:30Z</time>
      </trkpt>
      <trkpt lat="42.9126" lon="0.772">
        <ele>1293</ele>
        <time>2020-02-22T08:51:39Z</time>
      </trkpt>
      <trkpt lat="42.91259" lon="0.77214">
        <ele>1293.6</ele>
        <time>2020-02-22T08:51:48Z</time>
      </trkpt>
      <trkpt lat="42.91254" lon="0.77226">
        <ele>1296.8</ele>
        <time>2020-02-22T08:51:59Z</time>
      </trkpt>
      <trkpt lat="42.9125" lon="0.77239">
        <ele>1297.5</ele>
        <time>2020-02-22T08:52:08Z</time>
      </trkpt>
      <trkpt lat="42.91241" lon="0.77242">
        <ele>1298.1</ele>
        <time>2020-02-22T08:52:17Z</time>
      </trkpt>
      <trkpt lat="42.91233" lon="0.77236">
        <ele>1298.8</ele>
        <time>2020-02-22T08:52:26Z</time>
      </trkpt>
      <trkpt lat="42.91223" lon="0.77229">
        <ele>1300.4</ele>
        <time>2020-02-22T08:52:36Z</time>
      </trkpt>
      <trkpt lat="42.91214" lon="0.77225">
        <ele>1302.9</ele>
        <time>2020-02-22T08:52:47Z</time>
      </trkpt>
      <trkpt lat="42.91204" lon="0.7722">
        <ele>1304.4</ele>
        <time>2020-02-22T08:52:58Z</time>
      </trkpt>
      <trkpt lat="42.91194" lon="0.77216">
        <ele>1307.7</ele>
        <time>2020-02-22T08:53:11Z</time>
      </trkpt>
      <trkpt lat="42.91185" lon="0.77209">
        <ele>1309.2</ele>
        <time>2020-02-22T08:53:22Z</time>
      </trkpt>
      <trkpt lat="42.91176" lon="0.77208">
        <ele>1312.2</ele>
        <time>2020-02-22T08:53:33Z</time>
      </trkpt>
      <trkpt lat="42.91168" lon="0.77214">
        <ele>1312.7</ele>
        <time>2020-02-22T08:53:43Z</time>
      </trkpt>
      <trkpt lat="42.91164" lon="0.77225">
        <ele>1313.4</ele>
        <time>2020-02-22T08:53:54Z</time>
      </trkpt>
      <trkpt lat="42.91158" lon="0.77235">
        <ele>1310.7</ele>
        <time>2020-02-22T08:54:06Z</time>
      </trkpt>
      <trkpt lat="42.91148" lon="0.77241">
        <ele>1309.7</ele>
        <time>2020-02-22T08:54:17Z</time>
      </trkpt>
      <trkpt lat="42.91139" lon="0.77247">
        <ele>1307.8</ele>
        <time>2020-02-22T08:54:27Z</time>
      </trkpt>
      <trkpt lat="42.91129" lon="0.77251">
        <ele>1305.6</ele>
        <time>2020-02-22T08:54:38Z</time>
      </trkpt>
      <trkpt lat="42.91119" lon="0.77254">
        <ele>1305.1</ele>
        <time>2020-02-22T08:54:47Z</time>
      </trkpt>
      <trkpt lat="42.9111" lon="0.77256">
        <ele>1302.1</ele>
        <time>2020-02-22T08:54:58Z</time>
      </trkpt>
      <trkpt lat="42.911" lon="0.77259">
        <ele>1300.8</ele>
        <time>2020-02-22T08:55:08Z</time>
      </trkpt>
      <trkpt lat="42.91089" lon="0.77268">
        <ele>1299.6</ele>
        <time>2020-02-22T08:55:17Z</time>
      </trkpt>
      <trkpt lat="42.9108" lon="0.77276">
        <ele>1298.5</ele>
        <time>2020-02-22T08:55:28Z</time>
      </trkpt>
      <trkpt lat="42.91075" lon="0.77287">
        <ele>1296.1</ele>
        <time>2020-02-22T08:55:37Z</time>
      </trkpt>
      <trkpt lat="42.9107" lon="0.773">
        <ele>1292.9</ele>
        <time>2020-02-22T08:55:48Z</time>
      </trkpt>
      <trkpt lat="42.91066" lon="0.77312">
        <ele>1291.5</ele>
        <time>2020-02-22T08:55:56Z</time>
      </trkpt>
      <trkpt lat="42.91064" lon="0.77326">
        <ele>1290.7</ele>
        <time>2020-02-22T08:56:09Z</time>
      </trkpt>
      <trkpt lat="42.91058" lon="0.7734">
        <ele>1289.3</ele>
        <time>2020-02-22T08:56:18Z</time>
      </trkpt>
      <trkpt lat="42.91052" lon="0.77351">
        <ele>1288.2</ele>
        <time>2020-02-22T08:56:27Z</time>
      </trkpt>
      <trkpt lat="42.91046" lon="0.77362">
        <ele>1286.3</ele>
        <time>2020-02-22T08:56:36Z</time>
      </trkpt>
      <trkpt lat="42.91041" lon="0.77373">
        <ele>1284.9</ele>
        <time>2020-02-22T08:56:45Z</time>
      </trkpt>
      <trkpt lat="42.91035" lon="0.77383">
        <ele>1283.7</ele>
        <time>2020-02-22T08:56:54Z</time>
      </trkpt>
      <trkpt lat="42.91029" lon="0.77392">
        <ele>1283.5</ele>
        <time>2020-02-22T08:57:03Z</time>
      </trkpt>
      <trkpt lat="42.91022" lon="0.774">
        <ele>1282.3</ele>
        <time>2020-02-22T08:57:12Z</time>
      </trkpt>
      <trkpt lat="42.91014" lon="0.77407">
        <ele>1282</ele>
        <time>2020-02-22T08:57:21Z</time>
      </trkpt>
      <trkpt lat="42.91006" lon="0.77412">
        <ele>1280.8</ele>
        <time>2020-02-22T08:57:29Z</time>
      </trkpt>
      <trkpt lat="42.90997" lon="0.77415">
        <ele>1279.6</ele>
        <time>2020-02-22T08:57:37Z</time>
      </trkpt>
      <trkpt lat="42.90988" lon="0.77418">
        <ele>1279.3</ele>
        <time>2020-02-22T08:57:45Z</time>
      </trkpt>
      <trkpt lat="42.90979" lon="0.77421">
        <ele>1279</ele>
        <time>2020-02-22T08:57:54Z</time>
      </trkpt>
      <trkpt lat="42.90971" lon="0.77426">
        <ele>1279.5</ele>
        <time>2020-02-22T08:58:02Z</time>
      </trkpt>
      <trkpt lat="42.90963" lon="0.77431">
        <ele>1280</ele>
        <time>2020-02-22T08:58:11Z</time>
      </trkpt>
      <trkpt lat="42.90954" lon="0.77437">
        <ele>1280.5</ele>
        <time>2020-02-22T08:58:21Z</time>
      </trkpt>
      <trkpt lat="42.90943" lon="0.7744">
        <ele>1281.1</ele>
        <time>2020-02-22T08:58:31Z</time>
      </trkpt>
      <trkpt lat="42.90933" lon="0.77443">
        <ele>1284.9</ele>
        <time>2020-02-22T08:58:41Z</time>
      </trkpt>
      <trkpt lat="42.90923" lon="0.77444">
        <ele>1288.7</ele>
        <time>2020-02-22T08:58:53Z</time>
      </trkpt>
      <trkpt lat="42.90914" lon="0.7744">
        <ele>1290.2</ele>
        <time>2020-02-22T08:59:06Z</time>
      </trkpt>
      <trkpt lat="42.90905" lon="0.77435">
        <ele>1293.7</ele>
        <time>2020-02-22T08:59:17Z</time>
      </trkpt>
      <trkpt lat="42.90895" lon="0.77432">
        <ele>1295.1</ele>
        <time>2020-02-22T08:59:27Z</time>
      </trkpt>
      <trkpt lat="42.90887" lon="0.77431">
        <ele>1297.3</ele>
        <time>2020-02-22T08:59:37Z</time>
      </trkpt>
      <trkpt lat="42.90878" lon="0.77424">
        <ele>1300.3</ele>
        <time>2020-02-22T08:59:48Z</time>
      </trkpt>
      <trkpt lat="42.90872" lon="0.77413">
        <ele>1302.6</ele>
        <time>2020-02-22T08:59:57Z</time>
      </trkpt>
      <trkpt lat="42.90862" lon="0.77406">
        <ele>1306</ele>
        <time>2020-02-22T09:00:10Z</time>
      </trkpt>
      <trkpt lat="42.90853" lon="0.77411">
        <ele>1308.5</ele>
        <time>2020-02-22T09:00:20Z</time>
      </trkpt>
      <trkpt lat="42.90845" lon="0.77418">
        <ele>1309.7</ele>
        <time>2020-02-22T09:00:30Z</time>
      </trkpt>
      <trkpt lat="42.90838" lon="0.77426">
        <ele>1311.9</ele>
        <time>2020-02-22T09:00:41Z</time>
      </trkpt>
      <trkpt lat="42.90831" lon="0.77434">
        <ele>1314.8</ele>
        <time>2020-02-22T09:00:51Z</time>
      </trkpt>
      <trkpt lat="42.90823" lon="0.77444">
        <ele>1315.2</ele>
        <time>2020-02-22T09:01:00Z</time>
      </trkpt>
      <trkpt lat="42.90818" lon="0.77453">
        <ele>1318.3</ele>
        <time>2020-02-22T09:01:11Z</time>
      </trkpt>
      <trkpt lat="42.90811" lon="0.77464">
        <ele>1321.7</ele>
        <time>2020-02-22T09:01:22Z</time>
      </trkpt>
      <trkpt lat="42.90805" lon="0.77476">
        <ele>1324</ele>
        <time>2020-02-22T09:01:32Z</time>
      </trkpt>
      <trkpt lat="42.90798" lon="0.77487">
        <ele>1324.4</ele>
        <time>2020-02-22T09:01:41Z</time>
      </trkpt>
      <trkpt lat="42.90791" lon="0.77496">
        <ele>1324.8</ele>
        <time>2020-02-22T09:01:49Z</time>
      </trkpt>
      <trkpt lat="42.9079" lon="0.77508">
        <ele>1325.3</ele>
        <time>2020-02-22T09:01:58Z</time>
      </trkpt>
      <trkpt lat="42.90788" lon="0.77521">
        <ele>1326.5</ele>
        <time>2020-02-22T09:02:06Z</time>
      </trkpt>
      <trkpt lat="42.90784" lon="0.77534">
        <ele>1327.8</ele>
        <time>2020-02-22T09:02:14Z</time>
      </trkpt>
      <trkpt lat="42.90782" lon="0.77546">
        <ele>1328.9</ele>
        <time>2020-02-22T09:02:22Z</time>
      </trkpt>
      <trkpt lat="42.90779" lon="0.77558">
        <ele>1330.2</ele>
        <time>2020-02-22T09:02:31Z</time>
      </trkpt>
      <trkpt lat="42.90773" lon="0.77569">
        <ele>1331.6</ele>
        <time>2020-02-22T09:02:40Z</time>
      </trkpt>
      <trkpt lat="42.90771" lon="0.77582">
        <ele>1332.9</ele>
        <time>2020-02-22T09:02:49Z</time>
      </trkpt>
      <trkpt lat="42.90768" lon="0.77594">
        <ele>1333.3</ele>
        <time>2020-02-22T09:02:58Z</time>
      </trkpt>
      <trkpt lat="42.90764" lon="0.77606">
        <ele>1333.7</ele>
        <time>2020-02-22T09:03:06Z</time>
      </trkpt>
      <trkpt lat="42.9076" lon="0.77619">
        <ele>1334.8</ele>
        <time>2020-02-22T09:03:14Z</time>
      </trkpt>
      <trkpt lat="42.90757" lon="0.7763">
        <ele>1338.1</ele>
        <time>2020-02-22T09:03:25Z</time>
      </trkpt>
      <trkpt lat="42.90755" lon="0.77641">
        <ele>1342.4</ele>
        <time>2020-02-22T09:03:38Z</time>
      </trkpt>
      <trkpt lat="42.90756" lon="0.77652">
        <ele>1345.7</ele>
        <time>2020-02-22T09:03:53Z</time>
      </trkpt>
      <trkpt lat="42.90756" lon="0.77663">
        <ele>1349.7</ele>
        <time>2020-02-22T09:04:07Z</time>
      </trkpt>
      <trkpt lat="42.90753" lon="0.77676">
        <ele>1354.3</ele>
        <time>2020-02-22T09:04:24Z</time>
      </trkpt>
      <trkpt lat="42.9075" lon="0.77686">
        <ele>1357.8</ele>
        <time>2020-02-22T09:04:39Z</time>
      </trkpt>
      <trkpt lat="42.90749" lon="0.77698">
        <ele>1361.2</ele>
        <time>2020-02-22T09:04:53Z</time>
      </trkpt>
      <trkpt lat="42.90744" lon="0.77709">
        <ele>1365.6</ele>
        <time>2020-02-22T09:05:12Z</time>
      </trkpt>
      <trkpt lat="42.90738" lon="0.7772">
        <ele>1368.7</ele>
        <time>2020-02-22T09:05:28Z</time>
      </trkpt>
      <trkpt lat="42.90733" lon="0.77731">
        <ele>1372.7</ele>
        <time>2020-02-22T09:05:46Z</time>
      </trkpt>
      <trkpt lat="42.90728" lon="0.77742">
        <ele>1376.7</ele>
        <time>2020-02-22T09:06:03Z</time>
      </trkpt>
      <trkpt lat="42.90721" lon="0.77749">
        <ele>1380.2</ele>
        <time>2020-02-22T09:06:19Z</time>
      </trkpt>
      <trkpt lat="42.90718" lon="0.77762">
        <ele>1384.3</ele>
        <time>2020-02-22T09:06:35Z</time>
      </trkpt>
      <trkpt lat="42.9072" lon="0.77773">
        <ele>1388.4</ele>
        <time>2020-02-22T09:06:52Z</time>
      </trkpt>
      <trkpt lat="42.90725" lon="0.77785">
        <ele>1394</ele>
        <time>2020-02-22T09:07:10Z</time>
      </trkpt>
      <trkpt lat="42.9073" lon="0.77801">
        <ele>1397.5</ele>
        <time>2020-02-22T09:07:27Z</time>
      </trkpt>
      <trkpt lat="42.90733" lon="0.77814">
        <ele>1400.9</ele>
        <time>2020-02-22T09:07:44Z</time>
      </trkpt>
      <trkpt lat="42.9074" lon="0.77824">
        <ele>1405.1</ele>
        <time>2020-02-22T09:08:00Z</time>
      </trkpt>
      <trkpt lat="42.90746" lon="0.77834">
        <ele>1409.2</ele>
        <time>2020-02-22T09:08:15Z</time>
      </trkpt>
      <trkpt lat="42.90752" lon="0.77845">
        <ele>1412.2</ele>
        <time>2020-02-22T09:08:29Z</time>
      </trkpt>
      <trkpt lat="42.90756" lon="0.77858">
        <ele>1415.4</ele>
        <time>2020-02-22T09:08:43Z</time>
      </trkpt>
      <trkpt lat="42.90757" lon="0.77864">
        <ele>1419</ele>
        <time>2020-02-22T09:09:14Z</time>
      </trkpt>
      <trkpt lat="42.90757" lon="0.7788">
        <ele>1422.3</ele>
        <time>2020-02-22T09:09:26Z</time>
      </trkpt>
      <trkpt lat="42.90758" lon="0.77895">
        <ele>1424.6</ele>
        <time>2020-02-22T09:09:36Z</time>
      </trkpt>
      <trkpt lat="42.9076" lon="0.77908">
        <ele>1427.4</ele>
        <time>2020-02-22T09:09:46Z</time>
      </trkpt>
      <trkpt lat="42.9076" lon="0.77921">
        <ele>1430.4</ele>
        <time>2020-02-22T09:09:59Z</time>
      </trkpt>
      <trkpt lat="42.90761" lon="0.77933">
        <ele>1434.2</ele>
        <time>2020-02-22T09:10:51Z</time>
      </trkpt>
      <trkpt lat="42.90758" lon="0.77945">
        <ele>1436.4</ele>
        <time>2020-02-22T09:11:05Z</time>
      </trkpt>
      <trkpt lat="42.90755" lon="0.77957">
        <ele>1438.5</ele>
        <time>2020-02-22T09:11:17Z</time>
      </trkpt>
      <trkpt lat="42.90754" lon="0.7797">
        <ele>1441.4</ele>
        <time>2020-02-22T09:11:27Z</time>
      </trkpt>
      <trkpt lat="42.90753" lon="0.77983">
        <ele>1441.8</ele>
        <time>2020-02-22T09:11:38Z</time>
      </trkpt>
      <trkpt lat="42.90752" lon="0.77997">
        <ele>1442.3</ele>
        <time>2020-02-22T09:11:49Z</time>
      </trkpt>
      <trkpt lat="42.90746" lon="0.78007">
        <ele>1443.7</ele>
        <time>2020-02-22T09:12:07Z</time>
      </trkpt>
      <trkpt lat="42.90735" lon="0.7802">
        <ele>1448.1</ele>
        <time>2020-02-22T09:12:26Z</time>
      </trkpt>
      <trkpt lat="42.90725" lon="0.78034">
        <ele>1448.6</ele>
        <time>2020-02-22T09:12:44Z</time>
      </trkpt>
      <trkpt lat="42.90715" lon="0.78047">
        <ele>1450.8</ele>
        <time>2020-02-22T09:13:00Z</time>
      </trkpt>
      <trkpt lat="42.9071" lon="0.78056">
        <ele>1452.1</ele>
        <time>2020-02-22T09:13:17Z</time>
      </trkpt>
      <trkpt lat="42.90699" lon="0.78067">
        <ele>1456</ele>
        <time>2020-02-22T09:13:36Z</time>
      </trkpt>
      <trkpt lat="42.90693" lon="0.78088">
        <ele>1457.2</ele>
        <time>2020-02-22T09:13:53Z</time>
      </trkpt>
      <trkpt lat="42.9069" lon="0.78101">
        <ele>1457.6</ele>
        <time>2020-02-22T09:14:05Z</time>
      </trkpt>
      <trkpt lat="42.90683" lon="0.78117">
        <ele>1458</ele>
        <time>2020-02-22T09:14:20Z</time>
      </trkpt>
      <trkpt lat="42.90675" lon="0.78133">
        <ele>1458.7</ele>
        <time>2020-02-22T09:14:39Z</time>
      </trkpt>
      <trkpt lat="42.90669" lon="0.78153">
        <ele>1456.1</ele>
        <time>2020-02-22T09:14:56Z</time>
      </trkpt>
      <trkpt lat="42.90665" lon="0.78166">
        <ele>1455.7</ele>
        <time>2020-02-22T09:15:12Z</time>
      </trkpt>
      <trkpt lat="42.90658" lon="0.78184">
        <ele>1456.1</ele>
        <time>2020-02-22T09:15:25Z</time>
      </trkpt>
      <trkpt lat="42.90655" lon="0.78199">
        <ele>1456.4</ele>
        <time>2020-02-22T09:15:36Z</time>
      </trkpt>
      <trkpt lat="42.90646" lon="0.78208">
        <ele>1458.2</ele>
        <time>2020-02-22T09:15:50Z</time>
      </trkpt>
      <trkpt lat="42.9064" lon="0.78229">
        <ele>1458.6</ele>
        <time>2020-02-22T09:16:02Z</time>
      </trkpt>
      <trkpt lat="42.90636" lon="0.78245">
        <ele>1456.6</ele>
        <time>2020-02-22T09:16:13Z</time>
      </trkpt>
      <trkpt lat="42.90629" lon="0.78259">
        <ele>1456.1</ele>
        <time>2020-02-22T09:16:26Z</time>
      </trkpt>
      <trkpt lat="42.90623" lon="0.78276">
        <ele>1456.4</ele>
        <time>2020-02-22T09:16:38Z</time>
      </trkpt>
      <trkpt lat="42.90617" lon="0.78292">
        <ele>1455.9</ele>
        <time>2020-02-22T09:16:50Z</time>
      </trkpt>
      <trkpt lat="42.90611" lon="0.78309">
        <ele>1456.1</ele>
        <time>2020-02-22T09:17:01Z</time>
      </trkpt>
      <trkpt lat="42.90609" lon="0.78325">
        <ele>1455.6</ele>
        <time>2020-02-22T09:17:13Z</time>
      </trkpt>
      <trkpt lat="42.90602" lon="0.78342">
        <ele>1455.9</ele>
        <time>2020-02-22T09:17:26Z</time>
      </trkpt>
      <trkpt lat="42.90597" lon="0.78361">
        <ele>1456.2</ele>
        <time>2020-02-22T09:17:39Z</time>
      </trkpt>
      <trkpt lat="42.90593" lon="0.7838">
        <ele>1456.5</ele>
        <time>2020-02-22T09:17:52Z</time>
      </trkpt>
      <trkpt lat="42.90588" lon="0.78399">
        <ele>1456.8</ele>
        <time>2020-02-22T09:18:05Z</time>
      </trkpt>
      <trkpt lat="42.90591" lon="0.7842">
        <ele>1458.2</ele>
        <time>2020-02-22T09:19:04Z</time>
      </trkpt>
      <trkpt lat="42.90601" lon="0.78422">
        <ele>1458.5</ele>
        <time>2020-02-22T09:19:18Z</time>
      </trkpt>
      <trkpt lat="42.906" lon="0.78443">
        <ele>1458.3</ele>
        <time>2020-02-22T09:19:37Z</time>
      </trkpt>
      <trkpt lat="42.90597" lon="0.78463">
        <ele>1458.6</ele>
        <time>2020-02-22T09:19:47Z</time>
      </trkpt>
      <trkpt lat="42.90594" lon="0.78481">
        <ele>1458.1</ele>
        <time>2020-02-22T09:19:58Z</time>
      </trkpt>
      <trkpt lat="42.90594" lon="0.78494">
        <ele>1456.5</ele>
        <time>2020-02-22T09:20:07Z</time>
      </trkpt>
      <trkpt lat="42.90596" lon="0.78509">
        <ele>1454.8</ele>
        <time>2020-02-22T09:20:17Z</time>
      </trkpt>
      <trkpt lat="42.90599" lon="0.78524">
        <ele>1452.2</ele>
        <time>2020-02-22T09:20:27Z</time>
      </trkpt>
      <trkpt lat="42.90603" lon="0.78536">
        <ele>1449.9</ele>
        <time>2020-02-22T09:20:36Z</time>
      </trkpt>
      <trkpt lat="42.90606" lon="0.78551">
        <ele>1448.3</ele>
        <time>2020-02-22T09:20:46Z</time>
      </trkpt>
      <trkpt lat="42.90606" lon="0.78567">
        <ele>1446</ele>
        <time>2020-02-22T09:20:56Z</time>
      </trkpt>
      <trkpt lat="42.90602" lon="0.78581">
        <ele>1446.4</ele>
        <time>2020-02-22T09:21:06Z</time>
      </trkpt>
      <trkpt lat="42.90604" lon="0.78596">
        <ele>1444.8</ele>
        <time>2020-02-22T09:21:17Z</time>
      </trkpt>
      <trkpt lat="42.90609" lon="0.78612">
        <ele>1443.6</ele>
        <time>2020-02-22T09:21:28Z</time>
      </trkpt>
      <trkpt lat="42.90615" lon="0.78626">
        <ele>1439.7</ele>
        <time>2020-02-22T09:21:39Z</time>
      </trkpt>
      <trkpt lat="42.90621" lon="0.78639">
        <ele>1438.3</ele>
        <time>2020-02-22T09:21:48Z</time>
      </trkpt>
      <trkpt lat="42.90627" lon="0.78648">
        <ele>1434.7</ele>
        <time>2020-02-22T09:22:00Z</time>
      </trkpt>
      <trkpt lat="42.90635" lon="0.78662">
        <ele>1431.7</ele>
        <time>2020-02-22T09:22:14Z</time>
      </trkpt>
      <trkpt lat="42.90645" lon="0.78677">
        <ele>1429.3</ele>
        <time>2020-02-22T09:22:26Z</time>
      </trkpt>
      <trkpt lat="42.90654" lon="0.78688">
        <ele>1427.3</ele>
        <time>2020-02-22T09:22:37Z</time>
      </trkpt>
      <trkpt lat="42.90653" lon="0.78703">
        <ele>1425.7</ele>
        <time>2020-02-22T09:22:48Z</time>
      </trkpt>
      <trkpt lat="42.90645" lon="0.78721">
        <ele>1426.1</ele>
        <time>2020-02-22T09:23:00Z</time>
      </trkpt>
      <trkpt lat="42.90636" lon="0.78733">
        <ele>1426.4</ele>
        <time>2020-02-22T09:23:11Z</time>
      </trkpt>
      <trkpt lat="42.90625" lon="0.78741">
        <ele>1426.6</ele>
        <time>2020-02-22T09:23:23Z</time>
      </trkpt>
      <trkpt lat="42.90616" lon="0.78755">
        <ele>1426.9</ele>
        <time>2020-02-22T09:23:35Z</time>
      </trkpt>
      <trkpt lat="42.90605" lon="0.78762">
        <ele>1427.1</ele>
        <time>2020-02-22T09:23:45Z</time>
      </trkpt>
      <trkpt lat="42.90593" lon="0.78768">
        <ele>1427.3</ele>
        <time>2020-02-22T09:23:56Z</time>
      </trkpt>
      <trkpt lat="42.90588" lon="0.78783">
        <ele>1427.5</ele>
        <time>2020-02-22T09:24:13Z</time>
      </trkpt>
      <trkpt lat="42.90583" lon="0.78792">
        <ele>1427.9</ele>
        <time>2020-02-22T09:24:33Z</time>
      </trkpt>
      <trkpt lat="42.90585" lon="0.78788">
        <ele>1428.6</ele>
        <time>2020-02-22T09:25:07Z</time>
      </trkpt>
      <trkpt lat="42.90583" lon="0.78795">
        <ele>1429.3</ele>
        <time>2020-02-22T09:25:41Z</time>
      </trkpt>
      <trkpt lat="42.90575" lon="0.78798">
        <ele>1428.7</ele>
        <time>2020-02-22T09:25:52Z</time>
      </trkpt>
      <trkpt lat="42.90564" lon="0.78814">
        <ele>1426.1</ele>
        <time>2020-02-22T09:26:04Z</time>
      </trkpt>
      <trkpt lat="42.90555" lon="0.78825">
        <ele>1422.8</ele>
        <time>2020-02-22T09:26:15Z</time>
      </trkpt>
      <trkpt lat="42.90546" lon="0.78832">
        <ele>1420.4</ele>
        <time>2020-02-22T09:26:26Z</time>
      </trkpt>
      <trkpt lat="42.90536" lon="0.78842">
        <ele>1416.9</ele>
        <time>2020-02-22T09:26:37Z</time>
      </trkpt>
      <trkpt lat="42.90526" lon="0.78861">
        <ele>1414.2</ele>
        <time>2020-02-22T09:26:47Z</time>
      </trkpt>
      <trkpt lat="42.90519" lon="0.78876">
        <ele>1411.4</ele>
        <time>2020-02-22T09:26:56Z</time>
      </trkpt>
      <trkpt lat="42.90508" lon="0.78882">
        <ele>1408.7</ele>
        <time>2020-02-22T09:27:06Z</time>
      </trkpt>
      <trkpt lat="42.90499" lon="0.7888">
        <ele>1405.6</ele>
        <time>2020-02-22T09:27:20Z</time>
      </trkpt>
      <trkpt lat="42.90488" lon="0.7887">
        <ele>1402.2</ele>
        <time>2020-02-22T09:27:33Z</time>
      </trkpt>
      <trkpt lat="42.90476" lon="0.78862">
        <ele>1400.5</ele>
        <time>2020-02-22T09:27:42Z</time>
      </trkpt>
      <trkpt lat="42.90465" lon="0.78858">
        <ele>1397</ele>
        <time>2020-02-22T09:27:51Z</time>
      </trkpt>
      <trkpt lat="42.90455" lon="0.78852">
        <ele>1393.5</ele>
        <time>2020-02-22T09:28:01Z</time>
      </trkpt>
      <trkpt lat="42.90445" lon="0.78848">
        <ele>1391.8</ele>
        <time>2020-02-22T09:28:11Z</time>
      </trkpt>
      <trkpt lat="42.90436" lon="0.78847">
        <ele>1389.6</ele>
        <time>2020-02-22T09:28:22Z</time>
      </trkpt>
      <trkpt lat="42.90423" lon="0.7884">
        <ele>1388</ele>
        <time>2020-02-22T09:28:32Z</time>
      </trkpt>
      <trkpt lat="42.90411" lon="0.78829">
        <ele>1386.4</ele>
        <time>2020-02-22T09:28:42Z</time>
      </trkpt>
      <trkpt lat="42.90397" lon="0.78826">
        <ele>1382.8</ele>
        <time>2020-02-22T09:28:52Z</time>
      </trkpt>
      <trkpt lat="42.90383" lon="0.78825">
        <ele>1380.2</ele>
        <time>2020-02-22T09:29:01Z</time>
      </trkpt>
      <trkpt lat="42.90369" lon="0.78825">
        <ele>1379.6</ele>
        <time>2020-02-22T09:29:12Z</time>
      </trkpt>
      <trkpt lat="42.90357" lon="0.78825">
        <ele>1379.1</ele>
        <time>2020-02-22T09:29:20Z</time>
      </trkpt>
      <trkpt lat="42.90351" lon="0.78839">
        <ele>1377.4</ele>
        <time>2020-02-22T09:29:28Z</time>
      </trkpt>
      <trkpt lat="42.90344" lon="0.78852">
        <ele>1375.7</ele>
        <time>2020-02-22T09:29:37Z</time>
      </trkpt>
      <trkpt lat="42.90338" lon="0.78853">
        <ele>1375.6</ele>
        <time>2020-02-22T09:29:56Z</time>
      </trkpt>
      <trkpt lat="42.90334" lon="0.78863">
        <ele>1376.8</ele>
        <time>2020-02-22T09:30:43Z</time>
      </trkpt>
      <trkpt lat="42.90327" lon="0.7887">
        <ele>1377.1</ele>
        <time>2020-02-22T09:30:53Z</time>
      </trkpt>
      <trkpt lat="42.90319" lon="0.78874">
        <ele>1376.6</ele>
        <time>2020-02-22T09:31:03Z</time>
      </trkpt>
      <trkpt lat="42.90309" lon="0.78881">
        <ele>1376</ele>
        <time>2020-02-22T09:31:14Z</time>
      </trkpt>
      <trkpt lat="42.90298" lon="0.78882">
        <ele>1376.9</ele>
        <time>2020-02-22T09:31:43Z</time>
      </trkpt>
      <trkpt lat="42.9029" lon="0.78875">
        <ele>1377.5</ele>
        <time>2020-02-22T09:32:07Z</time>
      </trkpt>
      <trkpt lat="42.90284" lon="0.78869">
        <ele>1372.8</ele>
        <time>2020-02-22T09:32:21Z</time>
      </trkpt>
      <trkpt lat="42.90278" lon="0.78874">
        <ele>1368.1</ele>
        <time>2020-02-22T09:32:40Z</time>
      </trkpt>
      <trkpt lat="42.9027" lon="0.78877">
        <ele>1363.7</ele>
        <time>2020-02-22T09:32:56Z</time>
      </trkpt>
      <trkpt lat="42.90263" lon="0.7887">
        <ele>1364.3</ele>
        <time>2020-02-22T09:33:11Z</time>
      </trkpt>
      <trkpt lat="42.90255" lon="0.78858">
        <ele>1364</ele>
        <time>2020-02-22T09:33:31Z</time>
      </trkpt>
      <trkpt lat="42.90251" lon="0.78834">
        <ele>1364.4</ele>
        <time>2020-02-22T09:33:45Z</time>
      </trkpt>
      <trkpt lat="42.90242" lon="0.78818">
        <ele>1363.1</ele>
        <time>2020-02-22T09:34:00Z</time>
      </trkpt>
      <trkpt lat="42.9024" lon="0.78802">
        <ele>1361.2</ele>
        <time>2020-02-22T09:34:17Z</time>
      </trkpt>
      <trkpt lat="42.90234" lon="0.78782">
        <ele>1360.3</ele>
        <time>2020-02-22T09:34:32Z</time>
      </trkpt>
      <trkpt lat="42.90229" lon="0.7876">
        <ele>1357.9</ele>
        <time>2020-02-22T09:34:44Z</time>
      </trkpt>
      <trkpt lat="42.90216" lon="0.78738">
        <ele>1354.5</ele>
        <time>2020-02-22T09:34:59Z</time>
      </trkpt>
      <trkpt lat="42.90212" lon="0.7872">
        <ele>1351.5</ele>
        <time>2020-02-22T09:35:16Z</time>
      </trkpt>
      <trkpt lat="42.90197" lon="0.78709">
        <ele>1350.1</ele>
        <time>2020-02-22T09:35:28Z</time>
      </trkpt>
      <trkpt lat="42.90187" lon="0.78702">
        <ele>1348.6</ele>
        <time>2020-02-22T09:35:38Z</time>
      </trkpt>
      <trkpt lat="42.90179" lon="0.78695">
        <ele>1346.4</ele>
        <time>2020-02-22T09:35:50Z</time>
      </trkpt>
      <trkpt lat="42.90168" lon="0.78681">
        <ele>1344.2</ele>
        <time>2020-02-22T09:36:05Z</time>
      </trkpt>
      <trkpt lat="42.90159" lon="0.78668">
        <ele>1343</ele>
        <time>2020-02-22T09:36:20Z</time>
      </trkpt>
      <trkpt lat="42.90148" lon="0.78651">
        <ele>1339.8</ele>
        <time>2020-02-22T09:36:34Z</time>
      </trkpt>
      <trkpt lat="42.9014" lon="0.78636">
        <ele>1339.2</ele>
        <time>2020-02-22T09:36:45Z</time>
      </trkpt>
      <trkpt lat="42.90131" lon="0.78627">
        <ele>1336.6</ele>
        <time>2020-02-22T09:36:59Z</time>
      </trkpt>
      <trkpt lat="42.90125" lon="0.78613">
        <ele>1335.2</ele>
        <time>2020-02-22T09:37:13Z</time>
      </trkpt>
      <trkpt lat="42.90122" lon="0.786">
        <ele>1331.3</ele>
        <time>2020-02-22T09:37:30Z</time>
      </trkpt>
      <trkpt lat="42.90113" lon="0.78587">
        <ele>1330.9</ele>
        <time>2020-02-22T09:37:42Z</time>
      </trkpt>
      <trkpt lat="42.90106" lon="0.78569">
        <ele>1329.4</ele>
        <time>2020-02-22T09:37:56Z</time>
      </trkpt>
      <trkpt lat="42.90099" lon="0.78556">
        <ele>1327.8</ele>
        <time>2020-02-22T09:38:06Z</time>
      </trkpt>
      <trkpt lat="42.90095" lon="0.78541">
        <ele>1326.3</ele>
        <time>2020-02-22T09:38:17Z</time>
      </trkpt>
      <trkpt lat="42.9009" lon="0.78526">
        <ele>1325</ele>
        <time>2020-02-22T09:38:28Z</time>
      </trkpt>
      <trkpt lat="42.90087" lon="0.78513">
        <ele>1323.5</ele>
        <time>2020-02-22T09:38:39Z</time>
      </trkpt>
      <trkpt lat="42.90081" lon="0.78487">
        <ele>1322.2</ele>
        <time>2020-02-22T09:38:52Z</time>
      </trkpt>
      <trkpt lat="42.90071" lon="0.78489">
        <ele>1321.6</ele>
        <time>2020-02-22T09:39:07Z</time>
      </trkpt>
      <trkpt lat="42.90066" lon="0.785">
        <ele>1319.2</ele>
        <time>2020-02-22T09:39:19Z</time>
      </trkpt>
      <trkpt lat="42.90063" lon="0.78513">
        <ele>1316.8</ele>
        <time>2020-02-22T09:39:30Z</time>
      </trkpt>
      <trkpt lat="42.90059" lon="0.78524">
        <ele>1316.2</ele>
        <time>2020-02-22T09:39:45Z</time>
      </trkpt>
      <trkpt lat="42.90056" lon="0.78537">
        <ele>1315.5</ele>
        <time>2020-02-22T09:39:55Z</time>
      </trkpt>
      <trkpt lat="42.90048" lon="0.78554">
        <ele>1314.9</ele>
        <time>2020-02-22T09:40:07Z</time>
      </trkpt>
      <trkpt lat="42.90036" lon="0.78564">
        <ele>1315.2</ele>
        <time>2020-02-22T09:40:21Z</time>
      </trkpt>
      <trkpt lat="42.90026" lon="0.78574">
        <ele>1314.4</ele>
        <time>2020-02-22T09:40:32Z</time>
      </trkpt>
      <trkpt lat="42.90015" lon="0.78584">
        <ele>1312.7</ele>
        <time>2020-02-22T09:40:43Z</time>
      </trkpt>
      <trkpt lat="42.90008" lon="0.78598">
        <ele>1312.1</ele>
        <time>2020-02-22T09:40:57Z</time>
      </trkpt>
      <trkpt lat="42.89999" lon="0.78611">
        <ele>1311.4</ele>
        <time>2020-02-22T09:41:09Z</time>
      </trkpt>
      <trkpt lat="42.8999" lon="0.78624">
        <ele>1309.7</ele>
        <time>2020-02-22T09:41:22Z</time>
      </trkpt>
      <trkpt lat="42.89974" lon="0.78629">
        <ele>1309.1</ele>
        <time>2020-02-22T09:41:37Z</time>
      </trkpt>
      <trkpt lat="42.89965" lon="0.78627">
        <ele>1307.5</ele>
        <time>2020-02-22T09:41:47Z</time>
      </trkpt>
      <trkpt lat="42.89949" lon="0.7862">
        <ele>1303.8</ele>
        <time>2020-02-22T09:42:01Z</time>
      </trkpt>
      <trkpt lat="42.89931" lon="0.78625">
        <ele>1300.4</ele>
        <time>2020-02-22T09:42:16Z</time>
      </trkpt>
      <trkpt lat="42.89921" lon="0.78637">
        <ele>1297.3</ele>
        <time>2020-02-22T09:42:32Z</time>
      </trkpt>
      <trkpt lat="42.89927" lon="0.78645">
        <ele>1296.6</ele>
        <time>2020-02-22T09:42:44Z</time>
      </trkpt>
      <trkpt lat="42.89925" lon="0.78655">
        <ele>1295.8</ele>
        <time>2020-02-22T09:42:57Z</time>
      </trkpt>
      <trkpt lat="42.89923" lon="0.78667">
        <ele>1296</ele>
        <time>2020-02-22T09:43:12Z</time>
      </trkpt>
      <trkpt lat="42.8992" lon="0.78682">
        <ele>1296.2</ele>
        <time>2020-02-22T09:43:25Z</time>
      </trkpt>
      <trkpt lat="42.89913" lon="0.78697">
        <ele>1294</ele>
        <time>2020-02-22T09:43:38Z</time>
      </trkpt>
      <trkpt lat="42.89909" lon="0.78718">
        <ele>1294.2</ele>
        <time>2020-02-22T09:43:52Z</time>
      </trkpt>
      <trkpt lat="42.89904" lon="0.78734">
        <ele>1293.4</ele>
        <time>2020-02-22T09:44:04Z</time>
      </trkpt>
      <trkpt lat="42.89902" lon="0.78752">
        <ele>1293.6</ele>
        <time>2020-02-22T09:44:16Z</time>
      </trkpt>
      <trkpt lat="42.89896" lon="0.78766">
        <ele>1293.7</ele>
        <time>2020-02-22T09:44:27Z</time>
      </trkpt>
      <trkpt lat="42.89894" lon="0.78784">
        <ele>1293.8</ele>
        <time>2020-02-22T09:44:40Z</time>
      </trkpt>
      <trkpt lat="42.89891" lon="0.788">
        <ele>1293.9</ele>
        <time>2020-02-22T09:44:51Z</time>
      </trkpt>
      <trkpt lat="42.89885" lon="0.78817">
        <ele>1294</ele>
        <time>2020-02-22T09:45:03Z</time>
      </trkpt>
      <trkpt lat="42.89877" lon="0.78833">
        <ele>1292.5</ele>
        <time>2020-02-22T09:45:13Z</time>
      </trkpt>
      <trkpt lat="42.89874" lon="0.78846">
        <ele>1292.6</ele>
        <time>2020-02-22T09:45:22Z</time>
      </trkpt>
      <trkpt lat="42.89869" lon="0.78861">
        <ele>1291.9</ele>
        <time>2020-02-22T09:45:34Z</time>
      </trkpt>
      <trkpt lat="42.89863" lon="0.78877">
        <ele>1291.1</ele>
        <time>2020-02-22T09:45:44Z</time>
      </trkpt>
      <trkpt lat="42.89862" lon="0.78891">
        <ele>1291.2</ele>
        <time>2020-02-22T09:45:54Z</time>
      </trkpt>
      <trkpt lat="42.89867" lon="0.78908">
        <ele>1291.3</ele>
        <time>2020-02-22T09:46:05Z</time>
      </trkpt>
      <trkpt lat="42.8986" lon="0.78922">
        <ele>1290.6</ele>
        <time>2020-02-22T09:46:18Z</time>
      </trkpt>
      <trkpt lat="42.89847" lon="0.78936">
        <ele>1290.7</ele>
        <time>2020-02-22T09:46:32Z</time>
      </trkpt>
      <trkpt lat="42.89831" lon="0.78949">
        <ele>1289.1</ele>
        <time>2020-02-22T09:46:45Z</time>
      </trkpt>
      <trkpt lat="42.8982" lon="0.7896">
        <ele>1289.2</ele>
        <time>2020-02-22T09:46:56Z</time>
      </trkpt>
      <trkpt lat="42.89808" lon="0.78974">
        <ele>1289.3</ele>
        <time>2020-02-22T09:47:12Z</time>
      </trkpt>
      <trkpt lat="42.89803" lon="0.78991">
        <ele>1289.3</ele>
        <time>2020-02-22T09:47:24Z</time>
      </trkpt>
      <trkpt lat="42.89795" lon="0.79002">
        <ele>1286.5</ele>
        <time>2020-02-22T09:47:36Z</time>
      </trkpt>
      <trkpt lat="42.89784" lon="0.79013">
        <ele>1285</ele>
        <time>2020-02-22T09:47:48Z</time>
      </trkpt>
      <trkpt lat="42.89777" lon="0.79032">
        <ele>1285.1</ele>
        <time>2020-02-22T09:48:05Z</time>
      </trkpt>
      <trkpt lat="42.89768" lon="0.79051">
        <ele>1285.2</ele>
        <time>2020-02-22T09:48:21Z</time>
      </trkpt>
      <trkpt lat="42.89765" lon="0.79065">
        <ele>1285.2</ele>
        <time>2020-02-22T09:48:33Z</time>
      </trkpt>
      <trkpt lat="42.89757" lon="0.79085">
        <ele>1285.3</ele>
        <time>2020-02-22T09:48:48Z</time>
      </trkpt>
      <trkpt lat="42.89755" lon="0.79103">
        <ele>1285.3</ele>
        <time>2020-02-22T09:49:01Z</time>
      </trkpt>
      <trkpt lat="42.89748" lon="0.79122">
        <ele>1285.4</ele>
        <time>2020-02-22T09:49:14Z</time>
      </trkpt>
      <trkpt lat="42.89743" lon="0.79134">
        <ele>1285.4</ele>
        <time>2020-02-22T09:49:24Z</time>
      </trkpt>
      <trkpt lat="42.89736" lon="0.79147">
        <ele>1285.5</ele>
        <time>2020-02-22T09:49:35Z</time>
      </trkpt>
      <trkpt lat="42.89729" lon="0.79163">
        <ele>1285.6</ele>
        <time>2020-02-22T09:49:46Z</time>
      </trkpt>
      <trkpt lat="42.89723" lon="0.79176">
        <ele>1285.6</ele>
        <time>2020-02-22T09:49:56Z</time>
      </trkpt>
      <trkpt lat="42.89715" lon="0.79187">
        <ele>1285.7</ele>
        <time>2020-02-22T09:50:08Z</time>
      </trkpt>
      <trkpt lat="42.89715" lon="0.79205">
        <ele>1285.8</ele>
        <time>2020-02-22T09:50:20Z</time>
      </trkpt>
      <trkpt lat="42.8971" lon="0.79221">
        <ele>1285.9</ele>
        <time>2020-02-22T09:50:32Z</time>
      </trkpt>
      <trkpt lat="42.89703" lon="0.79235">
        <ele>1286</ele>
        <time>2020-02-22T09:50:45Z</time>
      </trkpt>
      <trkpt lat="42.89694" lon="0.79252">
        <ele>1286.1</ele>
        <time>2020-02-22T09:50:59Z</time>
      </trkpt>
      <trkpt lat="42.8969" lon="0.79268">
        <ele>1288.4</ele>
        <time>2020-02-22T09:51:10Z</time>
      </trkpt>
      <trkpt lat="42.89686" lon="0.79282">
        <ele>1289.3</ele>
        <time>2020-02-22T09:51:22Z</time>
      </trkpt>
      <trkpt lat="42.89685" lon="0.79298">
        <ele>1291</ele>
        <time>2020-02-22T09:51:33Z</time>
      </trkpt>
      <trkpt lat="42.89685" lon="0.79314">
        <ele>1293.7</ele>
        <time>2020-02-22T09:51:48Z</time>
      </trkpt>
      <trkpt lat="42.89682" lon="0.79332">
        <ele>1295.5</ele>
        <time>2020-02-22T09:52:03Z</time>
      </trkpt>
      <trkpt lat="42.89679" lon="0.79349">
        <ele>1296.3</ele>
        <time>2020-02-22T09:52:16Z</time>
      </trkpt>
      <trkpt lat="42.89676" lon="0.79365">
        <ele>1298</ele>
        <time>2020-02-22T09:52:30Z</time>
      </trkpt>
      <trkpt lat="42.8967" lon="0.79382">
        <ele>1299</ele>
        <time>2020-02-22T09:52:44Z</time>
      </trkpt>
      <trkpt lat="42.89665" lon="0.79399">
        <ele>1299.8</ele>
        <time>2020-02-22T09:52:56Z</time>
      </trkpt>
      <trkpt lat="42.89662" lon="0.79413">
        <ele>1300.7</ele>
        <time>2020-02-22T09:53:06Z</time>
      </trkpt>
      <trkpt lat="42.89657" lon="0.79428">
        <ele>1300.8</ele>
        <time>2020-02-22T09:53:17Z</time>
      </trkpt>
      <trkpt lat="42.89651" lon="0.79446">
        <ele>1317.7</ele>
        <time>2020-02-22T10:08:09Z</time>
      </trkpt>
      <trkpt lat="42.89649" lon="0.7946">
        <ele>1316.9</ele>
        <time>2020-02-22T10:08:17Z</time>
      </trkpt>
      <trkpt lat="42.89646" lon="0.79473">
        <ele>1316.2</ele>
        <time>2020-02-22T10:08:24Z</time>
      </trkpt>
      <trkpt lat="42.89638" lon="0.79484">
        <ele>1315.3</ele>
        <time>2020-02-22T10:08:33Z</time>
      </trkpt>
      <trkpt lat="42.89627" lon="0.79482">
        <ele>1314.7</ele>
        <time>2020-02-22T10:08:43Z</time>
      </trkpt>
      <trkpt lat="42.89616" lon="0.79476">
        <ele>1314</ele>
        <time>2020-02-22T10:08:52Z</time>
      </trkpt>
      <trkpt lat="42.89607" lon="0.79469">
        <ele>1313.3</ele>
        <time>2020-02-22T10:08:58Z</time>
      </trkpt>
      <trkpt lat="42.89598" lon="0.79464">
        <ele>1313.4</ele>
        <time>2020-02-22T10:09:05Z</time>
      </trkpt>
      <trkpt lat="42.89589" lon="0.79458">
        <ele>1312.5</ele>
        <time>2020-02-22T10:09:12Z</time>
      </trkpt>
      <trkpt lat="42.8958" lon="0.79456">
        <ele>1311.8</ele>
        <time>2020-02-22T10:09:19Z</time>
      </trkpt>
      <trkpt lat="42.89573" lon="0.79447">
        <ele>1312</ele>
        <time>2020-02-22T10:09:27Z</time>
      </trkpt>
      <trkpt lat="42.89565" lon="0.79439">
        <ele>1312.1</ele>
        <time>2020-02-22T10:09:34Z</time>
      </trkpt>
      <trkpt lat="42.89558" lon="0.79429">
        <ele>1311.3</ele>
        <time>2020-02-22T10:09:42Z</time>
      </trkpt>
      <trkpt lat="42.89551" lon="0.79422">
        <ele>1310.5</ele>
        <time>2020-02-22T10:09:49Z</time>
      </trkpt>
      <trkpt lat="42.89543" lon="0.79413">
        <ele>1309.8</ele>
        <time>2020-02-22T10:09:56Z</time>
      </trkpt>
      <trkpt lat="42.89534" lon="0.79407">
        <ele>1310</ele>
        <time>2020-02-22T10:10:04Z</time>
      </trkpt>
      <trkpt lat="42.89526" lon="0.79403">
        <ele>1309.2</ele>
        <time>2020-02-22T10:10:11Z</time>
      </trkpt>
      <trkpt lat="42.89516" lon="0.79399">
        <ele>1309.4</ele>
        <time>2020-02-22T10:10:20Z</time>
      </trkpt>
      <trkpt lat="42.89505" lon="0.79392">
        <ele>1308.8</ele>
        <time>2020-02-22T10:10:30Z</time>
      </trkpt>
      <trkpt lat="42.89496" lon="0.79384">
        <ele>1309</ele>
        <time>2020-02-22T10:10:38Z</time>
      </trkpt>
      <trkpt lat="42.89486" lon="0.79378">
        <ele>1309.1</ele>
        <time>2020-02-22T10:10:46Z</time>
      </trkpt>
      <trkpt lat="42.89475" lon="0.79374">
        <ele>1309.3</ele>
        <time>2020-02-22T10:10:55Z</time>
      </trkpt>
      <trkpt lat="42.89465" lon="0.79369">
        <ele>1309.5</ele>
        <time>2020-02-22T10:11:03Z</time>
      </trkpt>
      <trkpt lat="42.89456" lon="0.79357">
        <ele>1309.7</ele>
        <time>2020-02-22T10:11:10Z</time>
      </trkpt>
      <trkpt lat="42.89449" lon="0.79344">
        <ele>1309.8</ele>
        <time>2020-02-22T10:11:17Z</time>
      </trkpt>
      <trkpt lat="42.89444" lon="0.79332">
        <ele>1309.9</ele>
        <time>2020-02-22T10:11:24Z</time>
      </trkpt>
      <trkpt lat="42.89439" lon="0.7932">
        <ele>1310.1</ele>
        <time>2020-02-22T10:11:31Z</time>
      </trkpt>
      <trkpt lat="42.89431" lon="0.79311">
        <ele>1310.2</ele>
        <time>2020-02-22T10:11:38Z</time>
      </trkpt>
      <trkpt lat="42.89426" lon="0.79301">
        <ele>1310.2</ele>
        <time>2020-02-22T10:11:46Z</time>
      </trkpt>
      <trkpt lat="42.89417" lon="0.79291">
        <ele>1310.4</ele>
        <time>2020-02-22T10:11:54Z</time>
      </trkpt>
      <trkpt lat="42.89412" lon="0.79281">
        <ele>1310.5</ele>
        <time>2020-02-22T10:12:01Z</time>
      </trkpt>
      <trkpt lat="42.89406" lon="0.79271">
        <ele>1310.6</ele>
        <time>2020-02-22T10:12:10Z</time>
      </trkpt>
      <trkpt lat="42.89394" lon="0.79264">
        <ele>1312.3</ele>
        <time>2020-02-22T10:12:17Z</time>
      </trkpt>
      <trkpt lat="42.89383" lon="0.79261">
        <ele>1312.3</ele>
        <time>2020-02-22T10:12:24Z</time>
      </trkpt>
      <trkpt lat="42.89374" lon="0.79257">
        <ele>1312.5</ele>
        <time>2020-02-22T10:12:33Z</time>
      </trkpt>
      <trkpt lat="42.89363" lon="0.79252">
        <ele>1312.6</ele>
        <time>2020-02-22T10:12:41Z</time>
      </trkpt>
      <trkpt lat="42.89355" lon="0.79249">
        <ele>1312.7</ele>
        <time>2020-02-22T10:12:49Z</time>
      </trkpt>
      <trkpt lat="42.89347" lon="0.7924">
        <ele>1312.8</ele>
        <time>2020-02-22T10:12:57Z</time>
      </trkpt>
      <trkpt lat="42.89339" lon="0.79233">
        <ele>1312.9</ele>
        <time>2020-02-22T10:13:04Z</time>
      </trkpt>
      <trkpt lat="42.8933" lon="0.79227">
        <ele>1313</ele>
        <time>2020-02-22T10:13:12Z</time>
      </trkpt>
      <trkpt lat="42.8932" lon="0.7922">
        <ele>1313.1</ele>
        <time>2020-02-22T10:13:20Z</time>
      </trkpt>
      <trkpt lat="42.89313" lon="0.79213">
        <ele>1313.2</ele>
        <time>2020-02-22T10:13:27Z</time>
      </trkpt>
      <trkpt lat="42.89305" lon="0.79206">
        <ele>1313.3</ele>
        <time>2020-02-22T10:13:35Z</time>
      </trkpt>
      <trkpt lat="42.89297" lon="0.79199">
        <ele>1313.5</ele>
        <time>2020-02-22T10:13:45Z</time>
      </trkpt>
      <trkpt lat="42.89287" lon="0.79195">
        <ele>1314.5</ele>
        <time>2020-02-22T10:13:54Z</time>
      </trkpt>
      <trkpt lat="42.89278" lon="0.79188">
        <ele>1314.7</ele>
        <time>2020-02-22T10:14:03Z</time>
      </trkpt>
      <trkpt lat="42.89269" lon="0.79176">
        <ele>1315.6</ele>
        <time>2020-02-22T10:14:13Z</time>
      </trkpt>
      <trkpt lat="42.89262" lon="0.79165">
        <ele>1316.5</ele>
        <time>2020-02-22T10:14:22Z</time>
      </trkpt>
      <trkpt lat="42.89256" lon="0.79155">
        <ele>1316.7</ele>
        <time>2020-02-22T10:14:31Z</time>
      </trkpt>
      <trkpt lat="42.89246" lon="0.79148">
        <ele>1316.8</ele>
        <time>2020-02-22T10:14:42Z</time>
      </trkpt>
      <trkpt lat="42.89235" lon="0.79138">
        <ele>1316.9</ele>
        <time>2020-02-22T10:14:52Z</time>
      </trkpt>
      <trkpt lat="42.89226" lon="0.79132">
        <ele>1317</ele>
        <time>2020-02-22T10:15:01Z</time>
      </trkpt>
      <trkpt lat="42.89218" lon="0.7912">
        <ele>1317.9</ele>
        <time>2020-02-22T10:15:10Z</time>
      </trkpt>
      <trkpt lat="42.8921" lon="0.79112">
        <ele>1318.8</ele>
        <time>2020-02-22T10:15:17Z</time>
      </trkpt>
      <trkpt lat="42.89202" lon="0.79102">
        <ele>1318.9</ele>
        <time>2020-02-22T10:15:25Z</time>
      </trkpt>
      <trkpt lat="42.89196" lon="0.79093">
        <ele>1319.8</ele>
        <time>2020-02-22T10:15:32Z</time>
      </trkpt>
      <trkpt lat="42.89188" lon="0.79084">
        <ele>1319.8</ele>
        <time>2020-02-22T10:15:39Z</time>
      </trkpt>
      <trkpt lat="42.89181" lon="0.79073">
        <ele>1320.8</ele>
        <time>2020-02-22T10:15:47Z</time>
      </trkpt>
      <trkpt lat="42.89175" lon="0.79062">
        <ele>1320.9</ele>
        <time>2020-02-22T10:15:56Z</time>
      </trkpt>
      <trkpt lat="42.89169" lon="0.7905">
        <ele>1321.8</ele>
        <time>2020-02-22T10:16:04Z</time>
      </trkpt>
      <trkpt lat="42.89164" lon="0.79038">
        <ele>1322.7</ele>
        <time>2020-02-22T10:16:13Z</time>
      </trkpt>
      <trkpt lat="42.89158" lon="0.79028">
        <ele>1323.6</ele>
        <time>2020-02-22T10:16:21Z</time>
      </trkpt>
      <trkpt lat="42.89154" lon="0.79015">
        <ele>1323.7</ele>
        <time>2020-02-22T10:16:30Z</time>
      </trkpt>
      <trkpt lat="42.89148" lon="0.79004">
        <ele>1324.5</ele>
        <time>2020-02-22T10:16:38Z</time>
      </trkpt>
      <trkpt lat="42.89141" lon="0.78993">
        <ele>1324.6</ele>
        <time>2020-02-22T10:16:46Z</time>
      </trkpt>
      <trkpt lat="42.89133" lon="0.78987">
        <ele>1325.4</ele>
        <time>2020-02-22T10:16:54Z</time>
      </trkpt>
      <trkpt lat="42.89126" lon="0.78979">
        <ele>1326.4</ele>
        <time>2020-02-22T10:17:03Z</time>
      </trkpt>
      <trkpt lat="42.89118" lon="0.78971">
        <ele>1326.5</ele>
        <time>2020-02-22T10:17:12Z</time>
      </trkpt>
      <trkpt lat="42.89111" lon="0.78963">
        <ele>1327.3</ele>
        <time>2020-02-22T10:17:21Z</time>
      </trkpt>
      <trkpt lat="42.89101" lon="0.78958">
        <ele>1328.2</ele>
        <time>2020-02-22T10:17:31Z</time>
      </trkpt>
      <trkpt lat="42.89093" lon="0.78951">
        <ele>1329.2</ele>
        <time>2020-02-22T10:17:41Z</time>
      </trkpt>
      <trkpt lat="42.89082" lon="0.78948">
        <ele>1330.1</ele>
        <time>2020-02-22T10:17:51Z</time>
      </trkpt>
      <trkpt lat="42.89071" lon="0.78945">
        <ele>1331.9</ele>
        <time>2020-02-22T10:18:02Z</time>
      </trkpt>
      <trkpt lat="42.89061" lon="0.7894">
        <ele>1333.7</ele>
        <time>2020-02-22T10:18:12Z</time>
      </trkpt>
      <trkpt lat="42.89053" lon="0.78931">
        <ele>1334.6</ele>
        <time>2020-02-22T10:18:21Z</time>
      </trkpt>
      <trkpt lat="42.89045" lon="0.78922">
        <ele>1335.6</ele>
        <time>2020-02-22T10:18:29Z</time>
      </trkpt>
      <trkpt lat="42.89036" lon="0.78913">
        <ele>1336.4</ele>
        <time>2020-02-22T10:18:37Z</time>
      </trkpt>
      <trkpt lat="42.8903" lon="0.78903">
        <ele>1337.5</ele>
        <time>2020-02-22T10:18:46Z</time>
      </trkpt>
      <trkpt lat="42.8902" lon="0.78896">
        <ele>1338.5</ele>
        <time>2020-02-22T10:18:56Z</time>
      </trkpt>
      <trkpt lat="42.89012" lon="0.78889">
        <ele>1339.3</ele>
        <time>2020-02-22T10:19:04Z</time>
      </trkpt>
      <trkpt lat="42.89004" lon="0.78884">
        <ele>1339.4</ele>
        <time>2020-02-22T10:19:11Z</time>
      </trkpt>
      <trkpt lat="42.88996" lon="0.78876">
        <ele>1339.4</ele>
        <time>2020-02-22T10:19:18Z</time>
      </trkpt>
      <trkpt lat="42.88987" lon="0.78868">
        <ele>1339.5</ele>
        <time>2020-02-22T10:19:25Z</time>
      </trkpt>
      <trkpt lat="42.8898" lon="0.78859">
        <ele>1339.6</ele>
        <time>2020-02-22T10:19:32Z</time>
      </trkpt>
      <trkpt lat="42.88972" lon="0.78851">
        <ele>1339.7</ele>
        <time>2020-02-22T10:19:39Z</time>
      </trkpt>
      <trkpt lat="42.88964" lon="0.78842">
        <ele>1339.7</ele>
        <time>2020-02-22T10:19:47Z</time>
      </trkpt>
      <trkpt lat="42.88955" lon="0.78834">
        <ele>1339.8</ele>
        <time>2020-02-22T10:19:54Z</time>
      </trkpt>
      <trkpt lat="42.88946" lon="0.7883">
        <ele>1339.9</ele>
        <time>2020-02-22T10:20:00Z</time>
      </trkpt>
      <trkpt lat="42.88939" lon="0.78822">
        <ele>1339.9</ele>
        <time>2020-02-22T10:20:07Z</time>
      </trkpt>
      <trkpt lat="42.88931" lon="0.78815">
        <ele>1340</ele>
        <time>2020-02-22T10:20:14Z</time>
      </trkpt>
      <trkpt lat="42.88922" lon="0.78808">
        <ele>1340.9</ele>
        <time>2020-02-22T10:20:21Z</time>
      </trkpt>
      <trkpt lat="42.88913" lon="0.78802">
        <ele>1341</ele>
        <time>2020-02-22T10:20:29Z</time>
      </trkpt>
      <trkpt lat="42.88904" lon="0.78796">
        <ele>1341.1</ele>
        <time>2020-02-22T10:20:36Z</time>
      </trkpt>
      <trkpt lat="42.88896" lon="0.78789">
        <ele>1341.1</ele>
        <time>2020-02-22T10:20:43Z</time>
      </trkpt>
      <trkpt lat="42.8889" lon="0.78778">
        <ele>1341.2</ele>
        <time>2020-02-22T10:20:50Z</time>
      </trkpt>
      <trkpt lat="42.88885" lon="0.78768">
        <ele>1341.2</ele>
        <time>2020-02-22T10:20:58Z</time>
      </trkpt>
      <trkpt lat="42.88883" lon="0.78763">
        <ele>1343.3</ele>
        <time>2020-02-22T10:27:04Z</time>
      </trkpt>
      <trkpt lat="42.88891" lon="0.78762">
        <ele>1344.8</ele>
        <time>2020-02-22T10:29:10Z</time>
      </trkpt>
      <trkpt lat="42.889" lon="0.78757">
        <ele>1347.5</ele>
        <time>2020-02-22T10:29:23Z</time>
      </trkpt>
      <trkpt lat="42.88909" lon="0.78756">
        <ele>1350.9</ele>
        <time>2020-02-22T10:29:35Z</time>
      </trkpt>
      <trkpt lat="42.88919" lon="0.78753">
        <ele>1354.6</ele>
        <time>2020-02-22T10:29:50Z</time>
      </trkpt>
      <trkpt lat="42.88929" lon="0.78748">
        <ele>1356.7</ele>
        <time>2020-02-22T10:30:03Z</time>
      </trkpt>
      <trkpt lat="42.88939" lon="0.78745">
        <ele>1357.6</ele>
        <time>2020-02-22T10:30:15Z</time>
      </trkpt>
      <trkpt lat="42.88949" lon="0.78738">
        <ele>1359.4</ele>
        <time>2020-02-22T10:30:27Z</time>
      </trkpt>
      <trkpt lat="42.88956" lon="0.7873">
        <ele>1361.2</ele>
        <time>2020-02-22T10:30:41Z</time>
      </trkpt>
      <trkpt lat="42.88962" lon="0.78727">
        <ele>1363.1</ele>
        <time>2020-02-22T10:31:04Z</time>
      </trkpt>
      <trkpt lat="42.88971" lon="0.78725">
        <ele>1365.2</ele>
        <time>2020-02-22T10:31:44Z</time>
      </trkpt>
      <trkpt lat="42.8898" lon="0.7872">
        <ele>1369.6</ele>
        <time>2020-02-22T10:32:08Z</time>
      </trkpt>
      <trkpt lat="42.88989" lon="0.78713">
        <ele>1371.4</ele>
        <time>2020-02-22T10:32:21Z</time>
      </trkpt>
      <trkpt lat="42.88998" lon="0.78707">
        <ele>1375.1</ele>
        <time>2020-02-22T10:32:36Z</time>
      </trkpt>
      <trkpt lat="42.89008" lon="0.78704">
        <ele>1379.4</ele>
        <time>2020-02-22T10:32:53Z</time>
      </trkpt>
      <trkpt lat="42.89018" lon="0.78699">
        <ele>1381.2</ele>
        <time>2020-02-22T10:33:07Z</time>
      </trkpt>
      <trkpt lat="42.89028" lon="0.78691">
        <ele>1383.8</ele>
        <time>2020-02-22T10:33:22Z</time>
      </trkpt>
      <trkpt lat="42.89035" lon="0.78681">
        <ele>1386.9</ele>
        <time>2020-02-22T10:33:38Z</time>
      </trkpt>
      <trkpt lat="42.89044" lon="0.78673">
        <ele>1390.4</ele>
        <time>2020-02-22T10:33:52Z</time>
      </trkpt>
      <trkpt lat="42.89055" lon="0.78666">
        <ele>1392.2</ele>
        <time>2020-02-22T10:34:05Z</time>
      </trkpt>
      <trkpt lat="42.89063" lon="0.78659">
        <ele>1395</ele>
        <time>2020-02-22T10:34:20Z</time>
      </trkpt>
      <trkpt lat="42.89072" lon="0.78653">
        <ele>1399.8</ele>
        <time>2020-02-22T10:34:37Z</time>
      </trkpt>
      <trkpt lat="42.89082" lon="0.7865">
        <ele>1403.2</ele>
        <time>2020-02-22T10:34:56Z</time>
      </trkpt>
      <trkpt lat="42.89087" lon="0.78642">
        <ele>1406.6</ele>
        <time>2020-02-22T10:35:12Z</time>
      </trkpt>
      <trkpt lat="42.89091" lon="0.78632">
        <ele>1411.3</ele>
        <time>2020-02-22T10:35:32Z</time>
      </trkpt>
      <trkpt lat="42.89098" lon="0.78622">
        <ele>1416.4</ele>
        <time>2020-02-22T10:36:00Z</time>
      </trkpt>
      <trkpt lat="42.89102" lon="0.78607">
        <ele>1420.9</ele>
        <time>2020-02-22T10:36:19Z</time>
      </trkpt>
      <trkpt lat="42.89105" lon="0.78595">
        <ele>1425</ele>
        <time>2020-02-22T10:36:40Z</time>
      </trkpt>
      <trkpt lat="42.89109" lon="0.78579">
        <ele>1428.3</ele>
        <time>2020-02-22T10:36:58Z</time>
      </trkpt>
      <trkpt lat="42.89112" lon="0.78564">
        <ele>1431.5</ele>
        <time>2020-02-22T10:37:17Z</time>
      </trkpt>
      <trkpt lat="42.89116" lon="0.78547">
        <ele>1434.8</ele>
        <time>2020-02-22T10:37:35Z</time>
      </trkpt>
      <trkpt lat="42.89115" lon="0.78533">
        <ele>1439</ele>
        <time>2020-02-22T10:37:52Z</time>
      </trkpt>
      <trkpt lat="42.89119" lon="0.78521">
        <ele>1441.4</ele>
        <time>2020-02-22T10:38:07Z</time>
      </trkpt>
      <trkpt lat="42.89119" lon="0.78503">
        <ele>1443.8</ele>
        <time>2020-02-22T10:38:25Z</time>
      </trkpt>
      <trkpt lat="42.89122" lon="0.78487">
        <ele>1447.9</ele>
        <time>2020-02-22T10:38:44Z</time>
      </trkpt>
      <trkpt lat="42.89125" lon="0.78473">
        <ele>1450.4</ele>
        <time>2020-02-22T10:38:59Z</time>
      </trkpt>
      <trkpt lat="42.89128" lon="0.78459">
        <ele>1452.9</ele>
        <time>2020-02-22T10:39:12Z</time>
      </trkpt>
      <trkpt lat="42.89126" lon="0.78444">
        <ele>1455.2</ele>
        <time>2020-02-22T10:39:27Z</time>
      </trkpt>
      <trkpt lat="42.89125" lon="0.78429">
        <ele>1457.2</ele>
        <time>2020-02-22T10:39:43Z</time>
      </trkpt>
      <trkpt lat="42.89129" lon="0.78416">
        <ele>1459.5</ele>
        <time>2020-02-22T10:39:56Z</time>
      </trkpt>
      <trkpt lat="42.89128" lon="0.784">
        <ele>1460.9</ele>
        <time>2020-02-22T10:40:09Z</time>
      </trkpt>
      <trkpt lat="42.89126" lon="0.78384">
        <ele>1462.6</ele>
        <time>2020-02-22T10:40:24Z</time>
      </trkpt>
      <trkpt lat="42.89121" lon="0.78365">
        <ele>1464.9</ele>
        <time>2020-02-22T10:40:39Z</time>
      </trkpt>
      <trkpt lat="42.8912" lon="0.78351">
        <ele>1467.1</ele>
        <time>2020-02-22T10:40:58Z</time>
      </trkpt>
      <trkpt lat="42.89121" lon="0.78338">
        <ele>1470.3</ele>
        <time>2020-02-22T10:41:18Z</time>
      </trkpt>
      <trkpt lat="42.89118" lon="0.78322">
        <ele>1473.8</ele>
        <time>2020-02-22T10:41:35Z</time>
      </trkpt>
      <trkpt lat="42.89114" lon="0.78306">
        <ele>1477.2</ele>
        <time>2020-02-22T10:41:52Z</time>
      </trkpt>
      <trkpt lat="42.89112" lon="0.78291">
        <ele>1479.5</ele>
        <time>2020-02-22T10:42:05Z</time>
      </trkpt>
      <trkpt lat="42.8911" lon="0.78274">
        <ele>1483.1</ele>
        <time>2020-02-22T10:42:22Z</time>
      </trkpt>
      <trkpt lat="42.89114" lon="0.78261">
        <ele>1487</ele>
        <time>2020-02-22T10:42:44Z</time>
      </trkpt>
      <trkpt lat="42.89119" lon="0.78248">
        <ele>1489.6</ele>
        <time>2020-02-22T10:43:00Z</time>
      </trkpt>
      <trkpt lat="42.89122" lon="0.78235">
        <ele>1493.7</ele>
        <time>2020-02-22T10:43:17Z</time>
      </trkpt>
      <trkpt lat="42.89125" lon="0.78223">
        <ele>1496</ele>
        <time>2020-02-22T10:43:31Z</time>
      </trkpt>
      <trkpt lat="42.89124" lon="0.78208">
        <ele>1497.7</ele>
        <time>2020-02-22T10:43:45Z</time>
      </trkpt>
      <trkpt lat="42.89125" lon="0.78201">
        <ele>1500.2</ele>
        <time>2020-02-22T10:44:16Z</time>
      </trkpt>
      <trkpt lat="42.89129" lon="0.78202">
        <ele>1502.1</ele>
        <time>2020-02-22T10:48:46Z</time>
      </trkpt>
      <trkpt lat="42.89136" lon="0.78212">
        <ele>1503.7</ele>
        <time>2020-02-22T10:49:04Z</time>
      </trkpt>
      <trkpt lat="42.89141" lon="0.78224">
        <ele>1505.5</ele>
        <time>2020-02-22T10:49:18Z</time>
      </trkpt>
      <trkpt lat="42.89146" lon="0.78235">
        <ele>1508.8</ele>
        <time>2020-02-22T10:49:33Z</time>
      </trkpt>
      <trkpt lat="42.89153" lon="0.78244">
        <ele>1513.5</ele>
        <time>2020-02-22T10:49:55Z</time>
      </trkpt>
      <trkpt lat="42.89157" lon="0.78254">
        <ele>1518.2</ele>
        <time>2020-02-22T10:50:13Z</time>
      </trkpt>
      <trkpt lat="42.89161" lon="0.78267">
        <ele>1519.8</ele>
        <time>2020-02-22T10:50:28Z</time>
      </trkpt>
      <trkpt lat="42.89165" lon="0.78277">
        <ele>1522.2</ele>
        <time>2020-02-22T10:50:47Z</time>
      </trkpt>
      <trkpt lat="42.8917" lon="0.78287">
        <ele>1525.2</ele>
        <time>2020-02-22T10:51:15Z</time>
      </trkpt>
      <trkpt lat="42.89175" lon="0.78298">
        <ele>1528.6</ele>
        <time>2020-02-22T10:51:29Z</time>
      </trkpt>
      <trkpt lat="42.8918" lon="0.7831">
        <ele>1531.1</ele>
        <time>2020-02-22T10:51:44Z</time>
      </trkpt>
      <trkpt lat="42.89184" lon="0.78323">
        <ele>1532.8</ele>
        <time>2020-02-22T10:51:58Z</time>
      </trkpt>
      <trkpt lat="42.89189" lon="0.78336">
        <ele>1534.6</ele>
        <time>2020-02-22T10:52:13Z</time>
      </trkpt>
      <trkpt lat="42.89196" lon="0.78347">
        <ele>1537.2</ele>
        <time>2020-02-22T10:52:29Z</time>
      </trkpt>
      <trkpt lat="42.89203" lon="0.78355">
        <ele>1541.6</ele>
        <time>2020-02-22T10:52:47Z</time>
      </trkpt>
      <trkpt lat="42.89208" lon="0.78368">
        <ele>1544.5</ele>
        <time>2020-02-22T10:53:02Z</time>
      </trkpt>
      <trkpt lat="42.89214" lon="0.78379">
        <ele>1546.2</ele>
        <time>2020-02-22T10:53:17Z</time>
      </trkpt>
      <trkpt lat="42.8922" lon="0.78389">
        <ele>1548.7</ele>
        <time>2020-02-22T10:53:29Z</time>
      </trkpt>
      <trkpt lat="42.89225" lon="0.784">
        <ele>1550.5</ele>
        <time>2020-02-22T10:53:42Z</time>
      </trkpt>
      <trkpt lat="42.8923" lon="0.78413">
        <ele>1552.3</ele>
        <time>2020-02-22T10:53:56Z</time>
      </trkpt>
      <trkpt lat="42.89232" lon="0.78424">
        <ele>1553.7</ele>
        <time>2020-02-22T10:54:07Z</time>
      </trkpt>
      <trkpt lat="42.89236" lon="0.78436">
        <ele>1553.8</ele>
        <time>2020-02-22T10:54:22Z</time>
      </trkpt>
      <trkpt lat="42.89243" lon="0.78445">
        <ele>1556.5</ele>
        <time>2020-02-22T10:54:38Z</time>
      </trkpt>
      <trkpt lat="42.89247" lon="0.78456">
        <ele>1558.3</ele>
        <time>2020-02-22T10:54:51Z</time>
      </trkpt>
      <trkpt lat="42.89251" lon="0.78467">
        <ele>1559.9</ele>
        <time>2020-02-22T10:55:04Z</time>
      </trkpt>
      <trkpt lat="42.89258" lon="0.78477">
        <ele>1562</ele>
        <time>2020-02-22T10:55:18Z</time>
      </trkpt>
      <trkpt lat="42.89264" lon="0.78486">
        <ele>1564.6</ele>
        <time>2020-02-22T10:55:32Z</time>
      </trkpt>
      <trkpt lat="42.8927" lon="0.78496">
        <ele>1566.5</ele>
        <time>2020-02-22T10:55:45Z</time>
      </trkpt>
      <trkpt lat="42.89276" lon="0.78506">
        <ele>1569.7</ele>
        <time>2020-02-22T10:55:59Z</time>
      </trkpt>
      <trkpt lat="42.89282" lon="0.78517">
        <ele>1572.3</ele>
        <time>2020-02-22T10:56:15Z</time>
      </trkpt>
      <trkpt lat="42.89289" lon="0.78527">
        <ele>1575</ele>
        <time>2020-02-22T10:56:30Z</time>
      </trkpt>
      <trkpt lat="42.89295" lon="0.78536">
        <ele>1576</ele>
        <time>2020-02-22T10:56:42Z</time>
      </trkpt>
      <trkpt lat="42.89304" lon="0.78543">
        <ele>1579.3</ele>
        <time>2020-02-22T10:56:59Z</time>
      </trkpt>
      <trkpt lat="42.89312" lon="0.78552">
        <ele>1581.1</ele>
        <time>2020-02-22T10:57:13Z</time>
      </trkpt>
      <trkpt lat="42.89319" lon="0.7856">
        <ele>1583.6</ele>
        <time>2020-02-22T10:57:26Z</time>
      </trkpt>
      <trkpt lat="42.89326" lon="0.78568">
        <ele>1586.2</ele>
        <time>2020-02-22T10:57:41Z</time>
      </trkpt>
      <trkpt lat="42.89334" lon="0.78577">
        <ele>1589.5</ele>
        <time>2020-02-22T10:57:58Z</time>
      </trkpt>
      <trkpt lat="42.89341" lon="0.78587">
        <ele>1592</ele>
        <time>2020-02-22T10:58:13Z</time>
      </trkpt>
      <trkpt lat="42.89347" lon="0.78595">
        <ele>1596.3</ele>
        <time>2020-02-22T10:58:28Z</time>
      </trkpt>
      <trkpt lat="42.89354" lon="0.78605">
        <ele>1598.8</ele>
        <time>2020-02-22T10:58:43Z</time>
      </trkpt>
      <trkpt lat="42.89361" lon="0.78614">
        <ele>1601.3</ele>
        <time>2020-02-22T10:58:56Z</time>
      </trkpt>
      <trkpt lat="42.89367" lon="0.78623">
        <ele>1603.1</ele>
        <time>2020-02-22T10:59:10Z</time>
      </trkpt>
      <trkpt lat="42.89374" lon="0.78633">
        <ele>1606.4</ele>
        <time>2020-02-22T10:59:27Z</time>
      </trkpt>
      <trkpt lat="42.89375" lon="0.78622">
        <ele>1609.6</ele>
        <time>2020-02-22T11:02:35Z</time>
      </trkpt>
      <trkpt lat="42.89379" lon="0.7861">
        <ele>1612.1</ele>
        <time>2020-02-22T11:02:53Z</time>
      </trkpt>
      <trkpt lat="42.89382" lon="0.78598">
        <ele>1615.3</ele>
        <time>2020-02-22T11:03:09Z</time>
      </trkpt>
      <trkpt lat="42.89386" lon="0.78586">
        <ele>1617.1</ele>
        <time>2020-02-22T11:03:25Z</time>
      </trkpt>
      <trkpt lat="42.89389" lon="0.78574">
        <ele>1618.7</ele>
        <time>2020-02-22T11:03:40Z</time>
      </trkpt>
      <trkpt lat="42.89393" lon="0.78562">
        <ele>1620.4</ele>
        <time>2020-02-22T11:03:53Z</time>
      </trkpt>
      <trkpt lat="42.89396" lon="0.7855">
        <ele>1622.1</ele>
        <time>2020-02-22T11:04:06Z</time>
      </trkpt>
      <trkpt lat="42.89398" lon="0.78538">
        <ele>1623.6</ele>
        <time>2020-02-22T11:04:18Z</time>
      </trkpt>
      <trkpt lat="42.894" lon="0.78525">
        <ele>1625.2</ele>
        <time>2020-02-22T11:04:31Z</time>
      </trkpt>
      <trkpt lat="42.89404" lon="0.78515">
        <ele>1627.8</ele>
        <time>2020-02-22T11:04:43Z</time>
      </trkpt>
      <trkpt lat="42.89407" lon="0.78504">
        <ele>1628.6</ele>
        <time>2020-02-22T11:04:55Z</time>
      </trkpt>
      <trkpt lat="42.8941" lon="0.78493">
        <ele>1629.5</ele>
        <time>2020-02-22T11:05:06Z</time>
      </trkpt>
      <trkpt lat="42.89414" lon="0.7848">
        <ele>1631.2</ele>
        <time>2020-02-22T11:05:19Z</time>
      </trkpt>
      <trkpt lat="42.89416" lon="0.78467">
        <ele>1632.9</ele>
        <time>2020-02-22T11:05:32Z</time>
      </trkpt>
      <trkpt lat="42.89418" lon="0.78455">
        <ele>1635.2</ele>
        <time>2020-02-22T11:05:47Z</time>
      </trkpt>
      <trkpt lat="42.89416" lon="0.78442">
        <ele>1636.2</ele>
        <time>2020-02-22T11:05:59Z</time>
      </trkpt>
      <trkpt lat="42.89416" lon="0.78429">
        <ele>1636.2</ele>
        <time>2020-02-22T11:06:09Z</time>
      </trkpt>
      <trkpt lat="42.89416" lon="0.78416">
        <ele>1637</ele>
        <time>2020-02-22T11:06:20Z</time>
      </trkpt>
      <trkpt lat="42.89414" lon="0.78403">
        <ele>1637.8</ele>
        <time>2020-02-22T11:06:31Z</time>
      </trkpt>
      <trkpt lat="42.89411" lon="0.7839">
        <ele>1638.7</ele>
        <time>2020-02-22T11:06:58Z</time>
      </trkpt>
      <trkpt lat="42.89409" lon="0.78378">
        <ele>1641.2</ele>
        <time>2020-02-22T11:07:12Z</time>
      </trkpt>
      <trkpt lat="42.89406" lon="0.78366">
        <ele>1642.2</ele>
        <time>2020-02-22T11:07:25Z</time>
      </trkpt>
      <trkpt lat="42.89405" lon="0.78354">
        <ele>1644.1</ele>
        <time>2020-02-22T11:07:38Z</time>
      </trkpt>
      <trkpt lat="42.89403" lon="0.78342">
        <ele>1646.5</ele>
        <time>2020-02-22T11:07:51Z</time>
      </trkpt>
      <trkpt lat="42.89401" lon="0.7833">
        <ele>1648.2</ele>
        <time>2020-02-22T11:08:04Z</time>
      </trkpt>
      <trkpt lat="42.894" lon="0.78318">
        <ele>1651.2</ele>
        <time>2020-02-22T11:08:21Z</time>
      </trkpt>
      <trkpt lat="42.89398" lon="0.78305">
        <ele>1654.1</ele>
        <time>2020-02-22T11:08:38Z</time>
      </trkpt>
      <trkpt lat="42.89396" lon="0.78292">
        <ele>1656</ele>
        <time>2020-02-22T11:08:53Z</time>
      </trkpt>
      <trkpt lat="42.89397" lon="0.7828">
        <ele>1659</ele>
        <time>2020-02-22T11:09:09Z</time>
      </trkpt>
      <trkpt lat="42.894" lon="0.78268">
        <ele>1661.3</ele>
        <time>2020-02-22T11:09:25Z</time>
      </trkpt>
      <trkpt lat="42.89405" lon="0.78258">
        <ele>1664.1</ele>
        <time>2020-02-22T11:09:42Z</time>
      </trkpt>
      <trkpt lat="42.8941" lon="0.78246">
        <ele>1666.7</ele>
        <time>2020-02-22T11:09:59Z</time>
      </trkpt>
      <trkpt lat="42.89417" lon="0.78237">
        <ele>1670.5</ele>
        <time>2020-02-22T11:10:17Z</time>
      </trkpt>
      <trkpt lat="42.89427" lon="0.78238">
        <ele>1672.3</ele>
        <time>2020-02-22T11:10:31Z</time>
      </trkpt>
      <trkpt lat="42.89437" lon="0.7824">
        <ele>1675</ele>
        <time>2020-02-22T11:10:46Z</time>
      </trkpt>
      <trkpt lat="42.89446" lon="0.78241">
        <ele>1678.4</ele>
        <time>2020-02-22T11:11:00Z</time>
      </trkpt>
      <trkpt lat="42.89455" lon="0.7824">
        <ele>1680.2</ele>
        <time>2020-02-22T11:11:16Z</time>
      </trkpt>
      <trkpt lat="42.89458" lon="0.7823">
        <ele>1680.9</ele>
        <time>2020-02-22T11:11:33Z</time>
      </trkpt>
      <trkpt lat="42.89457" lon="0.78218">
        <ele>1683.5</ele>
        <time>2020-02-22T11:11:49Z</time>
      </trkpt>
      <trkpt lat="42.89455" lon="0.78205">
        <ele>1686.4</ele>
        <time>2020-02-22T11:12:04Z</time>
      </trkpt>
      <trkpt lat="42.89456" lon="0.78194">
        <ele>1690</ele>
        <time>2020-02-22T11:12:21Z</time>
      </trkpt>
      <trkpt lat="42.8945" lon="0.78186">
        <ele>1692.6</ele>
        <time>2020-02-22T11:12:36Z</time>
      </trkpt>
      <trkpt lat="42.89443" lon="0.78177">
        <ele>1694.2</ele>
        <time>2020-02-22T11:12:49Z</time>
      </trkpt>
      <trkpt lat="42.89439" lon="0.78164">
        <ele>1697.6</ele>
        <time>2020-02-22T11:13:05Z</time>
      </trkpt>
      <trkpt lat="42.89435" lon="0.78153">
        <ele>1699.3</ele>
        <time>2020-02-22T11:13:19Z</time>
      </trkpt>
      <trkpt lat="42.89431" lon="0.7814">
        <ele>1701.9</ele>
        <time>2020-02-22T11:13:33Z</time>
      </trkpt>
      <trkpt lat="42.89429" lon="0.78128">
        <ele>1703.9</ele>
        <time>2020-02-22T11:13:47Z</time>
      </trkpt>
      <trkpt lat="42.89429" lon="0.78116">
        <ele>1707.2</ele>
        <time>2020-02-22T11:14:02Z</time>
      </trkpt>
      <trkpt lat="42.89429" lon="0.78103">
        <ele>1709.7</ele>
        <time>2020-02-22T11:14:19Z</time>
      </trkpt>
      <trkpt lat="42.89435" lon="0.78101">
        <ele>1712.3</ele>
        <time>2020-02-22T11:14:36Z</time>
      </trkpt>
      <trkpt lat="42.89445" lon="0.78103">
        <ele>1715.9</ele>
        <time>2020-02-22T11:14:52Z</time>
      </trkpt>
      <trkpt lat="42.89454" lon="0.78103">
        <ele>1717.5</ele>
        <time>2020-02-22T11:15:08Z</time>
      </trkpt>
      <trkpt lat="42.89464" lon="0.78101">
        <ele>1720.1</ele>
        <time>2020-02-22T11:15:23Z</time>
      </trkpt>
      <trkpt lat="42.8947" lon="0.78097">
        <ele>1722.5</ele>
        <time>2020-02-22T11:16:46Z</time>
      </trkpt>
      <trkpt lat="42.8947" lon="0.78092">
        <ele>1723.9</ele>
        <time>2020-02-22T11:20:52Z</time>
      </trkpt>
      <trkpt lat="42.89473" lon="0.78081">
        <ele>1726.7</ele>
        <time>2020-02-22T11:21:10Z</time>
      </trkpt>
      <trkpt lat="42.89479" lon="0.78071">
        <ele>1729.6</ele>
        <time>2020-02-22T11:21:24Z</time>
      </trkpt>
      <trkpt lat="42.89484" lon="0.78061">
        <ele>1731.6</ele>
        <time>2020-02-22T11:21:37Z</time>
      </trkpt>
      <trkpt lat="42.89488" lon="0.78051">
        <ele>1733.2</ele>
        <time>2020-02-22T11:21:51Z</time>
      </trkpt>
      <trkpt lat="42.89492" lon="0.78041">
        <ele>1734.9</ele>
        <time>2020-02-22T11:22:33Z</time>
      </trkpt>
      <trkpt lat="42.89489" lon="0.78031">
        <ele>1737</ele>
        <time>2020-02-22T11:22:50Z</time>
      </trkpt>
      <trkpt lat="42.89491" lon="0.7802">
        <ele>1738.7</ele>
        <time>2020-02-22T11:23:02Z</time>
      </trkpt>
      <trkpt lat="42.89489" lon="0.78008">
        <ele>1741</ele>
        <time>2020-02-22T11:23:25Z</time>
      </trkpt>
      <trkpt lat="42.89481" lon="0.78002">
        <ele>1742.8</ele>
        <time>2020-02-22T11:23:37Z</time>
      </trkpt>
      <trkpt lat="42.89474" lon="0.77994">
        <ele>1744.5</ele>
        <time>2020-02-22T11:23:49Z</time>
      </trkpt>
      <trkpt lat="42.89471" lon="0.77983">
        <ele>1746.2</ele>
        <time>2020-02-22T11:24:00Z</time>
      </trkpt>
      <trkpt lat="42.89468" lon="0.77971">
        <ele>1748.1</ele>
        <time>2020-02-22T11:24:11Z</time>
      </trkpt>
      <trkpt lat="42.89468" lon="0.77959">
        <ele>1750.6</ele>
        <time>2020-02-22T11:24:25Z</time>
      </trkpt>
      <trkpt lat="42.89468" lon="0.77946">
        <ele>1752.3</ele>
        <time>2020-02-22T11:24:39Z</time>
      </trkpt>
      <trkpt lat="42.89468" lon="0.77933">
        <ele>1754.8</ele>
        <time>2020-02-22T11:24:52Z</time>
      </trkpt>
      <trkpt lat="42.89468" lon="0.77919">
        <ele>1757.5</ele>
        <time>2020-02-22T11:25:05Z</time>
      </trkpt>
      <trkpt lat="42.89469" lon="0.77906">
        <ele>1759.3</ele>
        <time>2020-02-22T11:25:20Z</time>
      </trkpt>
      <trkpt lat="42.8947" lon="0.77893">
        <ele>1761.7</ele>
        <time>2020-02-22T11:25:33Z</time>
      </trkpt>
      <trkpt lat="42.89471" lon="0.7788">
        <ele>1765.5</ele>
        <time>2020-02-22T11:25:48Z</time>
      </trkpt>
      <trkpt lat="42.89472" lon="0.77867">
        <ele>1768.2</ele>
        <time>2020-02-22T11:26:04Z</time>
      </trkpt>
      <trkpt lat="42.89471" lon="0.77854">
        <ele>1771.4</ele>
        <time>2020-02-22T11:26:21Z</time>
      </trkpt>
      <trkpt lat="42.8947" lon="0.77841">
        <ele>1773.4</ele>
        <time>2020-02-22T11:26:37Z</time>
      </trkpt>
      <trkpt lat="42.8947" lon="0.77828">
        <ele>1776.9</ele>
        <time>2020-02-22T11:26:52Z</time>
      </trkpt>
      <trkpt lat="42.8947" lon="0.77815">
        <ele>1779.4</ele>
        <time>2020-02-22T11:27:07Z</time>
      </trkpt>
      <trkpt lat="42.89472" lon="0.77802">
        <ele>1781.1</ele>
        <time>2020-02-22T11:27:20Z</time>
      </trkpt>
      <trkpt lat="42.89477" lon="0.7779">
        <ele>1781.9</ele>
        <time>2020-02-22T11:27:32Z</time>
      </trkpt>
      <trkpt lat="42.8948" lon="0.77778">
        <ele>1782.7</ele>
        <time>2020-02-22T11:27:43Z</time>
      </trkpt>
      <trkpt lat="42.89482" lon="0.77765">
        <ele>1782.7</ele>
        <time>2020-02-22T11:27:55Z</time>
      </trkpt>
      <trkpt lat="42.89484" lon="0.77753">
        <ele>1783.5</ele>
        <time>2020-02-22T11:28:08Z</time>
      </trkpt>
      <trkpt lat="42.89486" lon="0.7774">
        <ele>1783.5</ele>
        <time>2020-02-22T11:28:23Z</time>
      </trkpt>
      <trkpt lat="42.89482" lon="0.77736">
        <ele>1784.5</ele>
        <time>2020-02-22T11:31:41Z</time>
      </trkpt>
      <trkpt lat="42.89483" lon="0.77726">
        <ele>1785.3</ele>
        <time>2020-02-22T11:32:49Z</time>
      </trkpt>
      <trkpt lat="42.89484" lon="0.77719">
        <ele>1785.3</ele>
        <time>2020-02-22T11:33:54Z</time>
      </trkpt>
      <trkpt lat="42.89488" lon="0.77709">
        <ele>1782.9</ele>
        <time>2020-02-22T11:34:08Z</time>
      </trkpt>
      <trkpt lat="42.89488" lon="0.77696">
        <ele>1780.5</ele>
        <time>2020-02-22T11:34:28Z</time>
      </trkpt>
      <trkpt lat="42.89491" lon="0.77682">
        <ele>1778.9</ele>
        <time>2020-02-22T11:34:40Z</time>
      </trkpt>
      <trkpt lat="42.89496" lon="0.77671">
        <ele>1777.2</ele>
        <time>2020-02-22T11:34:50Z</time>
      </trkpt>
      <trkpt lat="42.895" lon="0.77659">
        <ele>1776.3</ele>
        <time>2020-02-22T11:35:00Z</time>
      </trkpt>
      <trkpt lat="42.89504" lon="0.77646">
        <ele>1775.6</ele>
        <time>2020-02-22T11:35:10Z</time>
      </trkpt>
      <trkpt lat="42.89508" lon="0.77634">
        <ele>1774.8</ele>
        <time>2020-02-22T11:35:20Z</time>
      </trkpt>
      <trkpt lat="42.89512" lon="0.77623">
        <ele>1774</ele>
        <time>2020-02-22T11:35:29Z</time>
      </trkpt>
      <trkpt lat="42.89518" lon="0.77613">
        <ele>1774</ele>
        <time>2020-02-22T11:35:39Z</time>
      </trkpt>
      <trkpt lat="42.89524" lon="0.77601">
        <ele>1774</ele>
        <time>2020-02-22T11:35:49Z</time>
      </trkpt>
      <trkpt lat="42.89528" lon="0.77589">
        <ele>1774</ele>
        <time>2020-02-22T11:35:58Z</time>
      </trkpt>
      <trkpt lat="42.89532" lon="0.77577">
        <ele>1774</ele>
        <time>2020-02-22T11:36:07Z</time>
      </trkpt>
      <trkpt lat="42.89538" lon="0.77567">
        <ele>1776.2</ele>
        <time>2020-02-22T11:36:17Z</time>
      </trkpt>
      <trkpt lat="42.89544" lon="0.77556">
        <ele>1777.9</ele>
        <time>2020-02-22T11:36:27Z</time>
      </trkpt>
      <trkpt lat="42.89549" lon="0.77545">
        <ele>1779.7</ele>
        <time>2020-02-22T11:36:37Z</time>
      </trkpt>
      <trkpt lat="42.89556" lon="0.77537">
        <ele>1780.5</ele>
        <time>2020-02-22T11:36:46Z</time>
      </trkpt>
      <trkpt lat="42.89563" lon="0.7753">
        <ele>1780.5</ele>
        <time>2020-02-22T11:36:54Z</time>
      </trkpt>
      <trkpt lat="42.8957" lon="0.77523">
        <ele>1780.5</ele>
        <time>2020-02-22T11:37:02Z</time>
      </trkpt>
      <trkpt lat="42.89578" lon="0.77516">
        <ele>1780.5</ele>
        <time>2020-02-22T11:37:10Z</time>
      </trkpt>
      <trkpt lat="42.89586" lon="0.77508">
        <ele>1780.5</ele>
        <time>2020-02-22T11:37:20Z</time>
      </trkpt>
      <trkpt lat="42.89593" lon="0.77499">
        <ele>1781.4</ele>
        <time>2020-02-22T11:37:29Z</time>
      </trkpt>
      <trkpt lat="42.89601" lon="0.77492">
        <ele>1781.4</ele>
        <time>2020-02-22T11:37:38Z</time>
      </trkpt>
      <trkpt lat="42.89607" lon="0.77483">
        <ele>1781.4</ele>
        <time>2020-02-22T11:37:46Z</time>
      </trkpt>
      <trkpt lat="42.89615" lon="0.77476">
        <ele>1779</ele>
        <time>2020-02-22T11:37:54Z</time>
      </trkpt>
      <trkpt lat="42.89623" lon="0.77469">
        <ele>1779.1</ele>
        <time>2020-02-22T11:38:03Z</time>
      </trkpt>
      <trkpt lat="42.89632" lon="0.77464">
        <ele>1779</ele>
        <time>2020-02-22T11:38:12Z</time>
      </trkpt>
      <trkpt lat="42.8964" lon="0.77458">
        <ele>1778.3</ele>
        <time>2020-02-22T11:38:21Z</time>
      </trkpt>
      <trkpt lat="42.89645" lon="0.77449">
        <ele>1775.5</ele>
        <time>2020-02-22T11:38:30Z</time>
      </trkpt>
      <trkpt lat="42.89653" lon="0.77444">
        <ele>1772.4</ele>
        <time>2020-02-22T11:38:39Z</time>
      </trkpt>
      <trkpt lat="42.89662" lon="0.7744">
        <ele>1769.8</ele>
        <time>2020-02-22T11:38:49Z</time>
      </trkpt>
      <trkpt lat="42.89671" lon="0.77434">
        <ele>1767.3</ele>
        <time>2020-02-22T11:38:58Z</time>
      </trkpt>
      <trkpt lat="42.89679" lon="0.77429">
        <ele>1765.7</ele>
        <time>2020-02-22T11:39:07Z</time>
      </trkpt>
      <trkpt lat="42.89688" lon="0.77423">
        <ele>1764.8</ele>
        <time>2020-02-22T11:39:16Z</time>
      </trkpt>
      <trkpt lat="42.89697" lon="0.7742">
        <ele>1764</ele>
        <time>2020-02-22T11:39:25Z</time>
      </trkpt>
      <trkpt lat="42.89707" lon="0.77416">
        <ele>1762.4</ele>
        <time>2020-02-22T11:39:34Z</time>
      </trkpt>
      <trkpt lat="42.89716" lon="0.77412">
        <ele>1762.4</ele>
        <time>2020-02-22T11:39:43Z</time>
      </trkpt>
      <trkpt lat="42.89726" lon="0.77407">
        <ele>1762.4</ele>
        <time>2020-02-22T11:39:52Z</time>
      </trkpt>
      <trkpt lat="42.89735" lon="0.77407">
        <ele>1762.4</ele>
        <time>2020-02-22T11:40:00Z</time>
      </trkpt>
      <trkpt lat="42.89744" lon="0.77403">
        <ele>1762.4</ele>
        <time>2020-02-22T11:40:09Z</time>
      </trkpt>
      <trkpt lat="42.89752" lon="0.77397">
        <ele>1764.7</ele>
        <time>2020-02-22T11:40:18Z</time>
      </trkpt>
      <trkpt lat="42.89762" lon="0.77391">
        <ele>1765.5</ele>
        <time>2020-02-22T11:40:28Z</time>
      </trkpt>
      <trkpt lat="42.89771" lon="0.77387">
        <ele>1766.3</ele>
        <time>2020-02-22T11:40:38Z</time>
      </trkpt>
      <trkpt lat="42.89781" lon="0.77387">
        <ele>1767</ele>
        <time>2020-02-22T11:40:49Z</time>
      </trkpt>
      <trkpt lat="42.89791" lon="0.77387">
        <ele>1767.8</ele>
        <time>2020-02-22T11:40:58Z</time>
      </trkpt>
      <trkpt lat="42.89801" lon="0.77386">
        <ele>1768.6</ele>
        <time>2020-02-22T11:41:07Z</time>
      </trkpt>
      <trkpt lat="42.89811" lon="0.77386">
        <ele>1769.4</ele>
        <time>2020-02-22T11:41:16Z</time>
      </trkpt>
      <trkpt lat="42.89821" lon="0.77387">
        <ele>1769.4</ele>
        <time>2020-02-22T11:41:25Z</time>
      </trkpt>
      <trkpt lat="42.89831" lon="0.77389">
        <ele>1769.4</ele>
        <time>2020-02-22T11:41:34Z</time>
      </trkpt>
      <trkpt lat="42.8984" lon="0.7739">
        <ele>1769.3</ele>
        <time>2020-02-22T11:41:42Z</time>
      </trkpt>
      <trkpt lat="42.89849" lon="0.77391">
        <ele>1769.3</ele>
        <time>2020-02-22T11:41:50Z</time>
      </trkpt>
      <trkpt lat="42.89859" lon="0.77388">
        <ele>1769.3</ele>
        <time>2020-02-22T11:41:58Z</time>
      </trkpt>
      <trkpt lat="42.89868" lon="0.77386">
        <ele>1769.3</ele>
        <time>2020-02-22T11:42:06Z</time>
      </trkpt>
      <trkpt lat="42.89878" lon="0.77383">
        <ele>1770.2</ele>
        <time>2020-02-22T11:42:15Z</time>
      </trkpt>
      <trkpt lat="42.89887" lon="0.7738">
        <ele>1771</ele>
        <time>2020-02-22T11:42:24Z</time>
      </trkpt>
      <trkpt lat="42.89895" lon="0.77374">
        <ele>1770.9</ele>
        <time>2020-02-22T11:43:05Z</time>
      </trkpt>
      <trkpt lat="42.89905" lon="0.77371">
        <ele>1770.9</ele>
        <time>2020-02-22T11:43:14Z</time>
      </trkpt>
      <trkpt lat="42.89914" lon="0.77369">
        <ele>1771</ele>
        <time>2020-02-22T11:43:22Z</time>
      </trkpt>
      <trkpt lat="42.89923" lon="0.77365">
        <ele>1771.8</ele>
        <time>2020-02-22T11:43:30Z</time>
      </trkpt>
      <trkpt lat="42.89932" lon="0.7736">
        <ele>1771.8</ele>
        <time>2020-02-22T11:43:38Z</time>
      </trkpt>
      <trkpt lat="42.8994" lon="0.77354">
        <ele>1771.7</ele>
        <time>2020-02-22T11:43:46Z</time>
      </trkpt>
      <trkpt lat="42.89948" lon="0.77348">
        <ele>1771.7</ele>
        <time>2020-02-22T11:43:54Z</time>
      </trkpt>
      <trkpt lat="42.89957" lon="0.7734">
        <ele>1771.7</ele>
        <time>2020-02-22T11:44:03Z</time>
      </trkpt>
      <trkpt lat="42.89965" lon="0.77335">
        <ele>1771.7</ele>
        <time>2020-02-22T11:44:12Z</time>
      </trkpt>
      <trkpt lat="42.89972" lon="0.77326">
        <ele>1772.7</ele>
        <time>2020-02-22T11:44:21Z</time>
      </trkpt>
      <trkpt lat="42.89979" lon="0.77318">
        <ele>1772.6</ele>
        <time>2020-02-22T11:44:30Z</time>
      </trkpt>
      <trkpt lat="42.89988" lon="0.7731">
        <ele>1773.5</ele>
        <time>2020-02-22T11:44:39Z</time>
      </trkpt>
      <trkpt lat="42.89995" lon="0.773">
        <ele>1773.5</ele>
        <time>2020-02-22T11:44:48Z</time>
      </trkpt>
      <trkpt lat="42.9" lon="0.77289">
        <ele>1773.4</ele>
        <time>2020-02-22T11:44:56Z</time>
      </trkpt>
      <trkpt lat="42.90007" lon="0.77279">
        <ele>1773.4</ele>
        <time>2020-02-22T11:45:05Z</time>
      </trkpt>
      <trkpt lat="42.90012" lon="0.77269">
        <ele>1774.2</ele>
        <time>2020-02-22T11:45:13Z</time>
      </trkpt>
      <trkpt lat="42.90017" lon="0.77257">
        <ele>1774.2</ele>
        <time>2020-02-22T11:45:22Z</time>
      </trkpt>
      <trkpt lat="42.90021" lon="0.77246">
        <ele>1775</ele>
        <time>2020-02-22T11:45:30Z</time>
      </trkpt>
      <trkpt lat="42.90025" lon="0.77234">
        <ele>1774.9</ele>
        <time>2020-02-22T11:45:39Z</time>
      </trkpt>
      <trkpt lat="42.9003" lon="0.77222">
        <ele>1774.9</ele>
        <time>2020-02-22T11:45:48Z</time>
      </trkpt>
      <trkpt lat="42.90035" lon="0.7721">
        <ele>1774.9</ele>
        <time>2020-02-22T11:45:57Z</time>
      </trkpt>
      <trkpt lat="42.90039" lon="0.77198">
        <ele>1774.9</ele>
        <time>2020-02-22T11:46:05Z</time>
      </trkpt>
      <trkpt lat="42.90043" lon="0.77186">
        <ele>1774.8</ele>
        <time>2020-02-22T11:46:14Z</time>
      </trkpt>
      <trkpt lat="42.90048" lon="0.77175">
        <ele>1774.8</ele>
        <time>2020-02-22T11:46:22Z</time>
      </trkpt>
      <trkpt lat="42.90053" lon="0.77163">
        <ele>1774.7</ele>
        <time>2020-02-22T11:46:30Z</time>
      </trkpt>
      <trkpt lat="42.90058" lon="0.77153">
        <ele>1771.5</ele>
        <time>2020-02-22T11:46:38Z</time>
      </trkpt>
      <trkpt lat="42.90065" lon="0.77144">
        <ele>1771.5</ele>
        <time>2020-02-22T11:46:46Z</time>
      </trkpt>
      <trkpt lat="42.90071" lon="0.77136">
        <ele>1770.5</ele>
        <time>2020-02-22T11:46:54Z</time>
      </trkpt>
      <trkpt lat="42.90077" lon="0.77126">
        <ele>1769.7</ele>
        <time>2020-02-22T11:47:02Z</time>
      </trkpt>
      <trkpt lat="42.90082" lon="0.77115">
        <ele>1768.7</ele>
        <time>2020-02-22T11:47:10Z</time>
      </trkpt>
      <trkpt lat="42.90087" lon="0.77104">
        <ele>1768.7</ele>
        <time>2020-02-22T11:47:19Z</time>
      </trkpt>
      <trkpt lat="42.90094" lon="0.77096">
        <ele>1768.7</ele>
        <time>2020-02-22T11:47:28Z</time>
      </trkpt>
      <trkpt lat="42.90098" lon="0.77083">
        <ele>1768.7</ele>
        <time>2020-02-22T11:47:36Z</time>
      </trkpt>
      <trkpt lat="42.90101" lon="0.77072">
        <ele>1768.6</ele>
        <time>2020-02-22T11:47:44Z</time>
      </trkpt>
      <trkpt lat="42.90105" lon="0.77059">
        <ele>1767.9</ele>
        <time>2020-02-22T11:47:52Z</time>
      </trkpt>
      <trkpt lat="42.90109" lon="0.77047">
        <ele>1767.1</ele>
        <time>2020-02-22T11:48:00Z</time>
      </trkpt>
      <trkpt lat="42.90113" lon="0.77036">
        <ele>1767.1</ele>
        <time>2020-02-22T11:48:08Z</time>
      </trkpt>
      <trkpt lat="42.90118" lon="0.77025">
        <ele>1767.1</ele>
        <time>2020-02-22T11:48:17Z</time>
      </trkpt>
      <trkpt lat="42.90122" lon="0.77012">
        <ele>1767.1</ele>
        <time>2020-02-22T11:48:27Z</time>
      </trkpt>
      <trkpt lat="42.90127" lon="0.77">
        <ele>1767.1</ele>
        <time>2020-02-22T11:48:37Z</time>
      </trkpt>
      <trkpt lat="42.90133" lon="0.76991">
        <ele>1769.5</ele>
        <time>2020-02-22T11:48:46Z</time>
      </trkpt>
      <trkpt lat="42.90141" lon="0.76987">
        <ele>1770.2</ele>
        <time>2020-02-22T11:48:55Z</time>
      </trkpt>
      <trkpt lat="42.9015" lon="0.76984">
        <ele>1772.2</ele>
        <time>2020-02-22T11:49:12Z</time>
      </trkpt>
      <trkpt lat="42.90154" lon="0.76972">
        <ele>1772.2</ele>
        <time>2020-02-22T11:49:22Z</time>
      </trkpt>
      <trkpt lat="42.90156" lon="0.76959">
        <ele>1772.1</ele>
        <time>2020-02-22T11:49:30Z</time>
      </trkpt>
      <trkpt lat="42.90158" lon="0.76947">
        <ele>1772.9</ele>
        <time>2020-02-22T11:49:39Z</time>
      </trkpt>
      <trkpt lat="42.90163" lon="0.76936">
        <ele>1773.8</ele>
        <time>2020-02-22T11:49:49Z</time>
      </trkpt>
      <trkpt lat="42.90168" lon="0.76925">
        <ele>1774.5</ele>
        <time>2020-02-22T11:50:01Z</time>
      </trkpt>
      <trkpt lat="42.90174" lon="0.76914">
        <ele>1775.4</ele>
        <time>2020-02-22T11:50:13Z</time>
      </trkpt>
      <trkpt lat="42.90178" lon="0.76901">
        <ele>1776.2</ele>
        <time>2020-02-22T11:50:27Z</time>
      </trkpt>
      <trkpt lat="42.90184" lon="0.7689">
        <ele>1778.9</ele>
        <time>2020-02-22T11:50:41Z</time>
      </trkpt>
      <trkpt lat="42.90189" lon="0.76877">
        <ele>1780.7</ele>
        <time>2020-02-22T11:50:54Z</time>
      </trkpt>
      <trkpt lat="42.90194" lon="0.76865">
        <ele>1783</ele>
        <time>2020-02-22T11:51:05Z</time>
      </trkpt>
      <trkpt lat="42.90201" lon="0.76855">
        <ele>1784.6</ele>
        <time>2020-02-22T11:51:16Z</time>
      </trkpt>
      <trkpt lat="42.90208" lon="0.76845">
        <ele>1786.3</ele>
        <time>2020-02-22T11:51:28Z</time>
      </trkpt>
      <trkpt lat="42.90214" lon="0.76835">
        <ele>1787.9</ele>
        <time>2020-02-22T11:51:40Z</time>
      </trkpt>
      <trkpt lat="42.90217" lon="0.76823">
        <ele>1790.4</ele>
        <time>2020-02-22T11:51:51Z</time>
      </trkpt>
      <trkpt lat="42.90219" lon="0.76811">
        <ele>1792.1</ele>
        <time>2020-02-22T11:52:06Z</time>
      </trkpt>
      <trkpt lat="42.9022" lon="0.76798">
        <ele>1793.8</ele>
        <time>2020-02-22T11:52:17Z</time>
      </trkpt>
      <trkpt lat="42.90221" lon="0.76785">
        <ele>1794.6</ele>
        <time>2020-02-22T11:52:28Z</time>
      </trkpt>
      <trkpt lat="42.90223" lon="0.76772">
        <ele>1794.5</ele>
        <time>2020-02-22T11:52:38Z</time>
      </trkpt>
      <trkpt lat="42.90226" lon="0.76759">
        <ele>1795.3</ele>
        <time>2020-02-22T11:52:49Z</time>
      </trkpt>
      <trkpt lat="42.9023" lon="0.76749">
        <ele>1795.3</ele>
        <time>2020-02-22T11:53:01Z</time>
      </trkpt>
      <trkpt lat="42.90229" lon="0.7674">
        <ele>1796</ele>
        <time>2020-02-22T11:53:16Z</time>
      </trkpt>
      <trkpt lat="42.90223" lon="0.7673">
        <ele>1796.1</ele>
        <time>2020-02-22T11:53:26Z</time>
      </trkpt>
      <trkpt lat="42.90219" lon="0.76719">
        <ele>1796.8</ele>
        <time>2020-02-22T11:53:35Z</time>
      </trkpt>
      <trkpt lat="42.90216" lon="0.76705">
        <ele>1798.3</ele>
        <time>2020-02-22T11:53:45Z</time>
      </trkpt>
      <trkpt lat="42.90214" lon="0.76693">
        <ele>1800.2</ele>
        <time>2020-02-22T11:53:54Z</time>
      </trkpt>
      <trkpt lat="42.90212" lon="0.7668">
        <ele>1801</ele>
        <time>2020-02-22T11:54:03Z</time>
      </trkpt>
      <trkpt lat="42.90209" lon="0.76668">
        <ele>1802.8</ele>
        <time>2020-02-22T11:54:13Z</time>
      </trkpt>
      <trkpt lat="42.90204" lon="0.76658">
        <ele>1805.3</ele>
        <time>2020-02-22T11:54:24Z</time>
      </trkpt>
      <trkpt lat="42.902" lon="0.76647">
        <ele>1807.6</ele>
        <time>2020-02-22T11:54:35Z</time>
      </trkpt>
      <trkpt lat="42.902" lon="0.76634">
        <ele>1808.4</ele>
        <time>2020-02-22T11:54:45Z</time>
      </trkpt>
      <trkpt lat="42.90199" lon="0.76621">
        <ele>1810</ele>
        <time>2020-02-22T11:54:57Z</time>
      </trkpt>
      <trkpt lat="42.902" lon="0.76615">
        <ele>1812.3</ele>
        <time>2020-02-22T12:53:31Z</time>
      </trkpt>
      <trkpt lat="42.902" lon="0.76605">
        <ele>1812.9</ele>
        <time>2020-02-22T12:56:17Z</time>
      </trkpt>
      <trkpt lat="42.902" lon="0.76593">
        <ele>1812.8</ele>
        <time>2020-02-22T12:57:07Z</time>
      </trkpt>
      <trkpt lat="42.90196" lon="0.76582">
        <ele>1810.3</ele>
        <time>2020-02-22T12:57:17Z</time>
      </trkpt>
      <trkpt lat="42.90199" lon="0.7657">
        <ele>1808.4</ele>
        <time>2020-02-22T12:57:30Z</time>
      </trkpt>
      <trkpt lat="42.90197" lon="0.76557">
        <ele>1807.6</ele>
        <time>2020-02-22T12:57:42Z</time>
      </trkpt>
      <trkpt lat="42.90198" lon="0.76545">
        <ele>1806.6</ele>
        <time>2020-02-22T12:57:54Z</time>
      </trkpt>
      <trkpt lat="42.90198" lon="0.76533">
        <ele>1805.7</ele>
        <time>2020-02-22T12:58:07Z</time>
      </trkpt>
      <trkpt lat="42.90197" lon="0.76521">
        <ele>1803.2</ele>
        <time>2020-02-22T12:58:24Z</time>
      </trkpt>
      <trkpt lat="42.90196" lon="0.76508">
        <ele>1801.5</ele>
        <time>2020-02-22T12:58:35Z</time>
      </trkpt>
      <trkpt lat="42.90195" lon="0.76496">
        <ele>1799.7</ele>
        <time>2020-02-22T12:58:46Z</time>
      </trkpt>
      <trkpt lat="42.90195" lon="0.76483">
        <ele>1797.9</ele>
        <time>2020-02-22T12:58:59Z</time>
      </trkpt>
      <trkpt lat="42.90194" lon="0.76471">
        <ele>1794.4</ele>
        <time>2020-02-22T12:59:12Z</time>
      </trkpt>
      <trkpt lat="42.90193" lon="0.76457">
        <ele>1791.5</ele>
        <time>2020-02-22T12:59:24Z</time>
      </trkpt>
      <trkpt lat="42.90193" lon="0.76445">
        <ele>1787.9</ele>
        <time>2020-02-22T12:59:43Z</time>
      </trkpt>
      <trkpt lat="42.90191" lon="0.76435">
        <ele>1785.2</ele>
        <time>2020-02-22T13:00:12Z</time>
      </trkpt>
      <trkpt lat="42.9019" lon="0.76422">
        <ele>1781.3</ele>
        <time>2020-02-22T13:00:24Z</time>
      </trkpt>
      <trkpt lat="42.9019" lon="0.76409">
        <ele>1778.3</ele>
        <time>2020-02-22T13:00:35Z</time>
      </trkpt>
      <trkpt lat="42.90186" lon="0.76396">
        <ele>1775.7</ele>
        <time>2020-02-22T13:00:46Z</time>
      </trkpt>
      <trkpt lat="42.90182" lon="0.76383">
        <ele>1772.9</ele>
        <time>2020-02-22T13:00:58Z</time>
      </trkpt>
      <trkpt lat="42.9018" lon="0.76372">
        <ele>1770.2</ele>
        <time>2020-02-22T13:01:20Z</time>
      </trkpt>
      <trkpt lat="42.90177" lon="0.7636">
        <ele>1768.4</ele>
        <time>2020-02-22T13:01:31Z</time>
      </trkpt>
      <trkpt lat="42.90176" lon="0.76346">
        <ele>1767.7</ele>
        <time>2020-02-22T13:01:43Z</time>
      </trkpt>
      <trkpt lat="42.90176" lon="0.76334">
        <ele>1766.9</ele>
        <time>2020-02-22T13:01:52Z</time>
      </trkpt>
      <trkpt lat="42.90175" lon="0.76321">
        <ele>1764.9</ele>
        <time>2020-02-22T13:02:01Z</time>
      </trkpt>
      <trkpt lat="42.90174" lon="0.76308">
        <ele>1765</ele>
        <time>2020-02-22T13:02:11Z</time>
      </trkpt>
      <trkpt lat="42.90173" lon="0.76295">
        <ele>1765</ele>
        <time>2020-02-22T13:02:22Z</time>
      </trkpt>
      <trkpt lat="42.90171" lon="0.76281">
        <ele>1765</ele>
        <time>2020-02-22T13:02:34Z</time>
      </trkpt>
      <trkpt lat="42.9017" lon="0.76269">
        <ele>1768.2</ele>
        <time>2020-02-22T13:02:46Z</time>
      </trkpt>
      <trkpt lat="42.90168" lon="0.76257">
        <ele>1768.8</ele>
        <time>2020-02-22T13:03:06Z</time>
      </trkpt>
      <trkpt lat="42.90168" lon="0.76247">
        <ele>1769.7</ele>
        <time>2020-02-22T13:03:19Z</time>
      </trkpt>
      <trkpt lat="42.90165" lon="0.76245">
        <ele>1770.4</ele>
        <time>2020-02-22T13:04:23Z</time>
      </trkpt>
      <trkpt lat="42.90161" lon="0.76235">
        <ele>1771.3</ele>
        <time>2020-02-22T13:04:40Z</time>
      </trkpt>
      <trkpt lat="42.90158" lon="0.76223">
        <ele>1772.9</ele>
        <time>2020-02-22T13:04:52Z</time>
      </trkpt>
      <trkpt lat="42.90158" lon="0.76208">
        <ele>1776.8</ele>
        <time>2020-02-22T13:05:07Z</time>
      </trkpt>
      <trkpt lat="42.90158" lon="0.76195">
        <ele>1778.7</ele>
        <time>2020-02-22T13:05:20Z</time>
      </trkpt>
      <trkpt lat="42.9016" lon="0.76183">
        <ele>1779.4</ele>
        <time>2020-02-22T13:05:31Z</time>
      </trkpt>
      <trkpt lat="42.90159" lon="0.76169">
        <ele>1779.2</ele>
        <time>2020-02-22T13:05:42Z</time>
      </trkpt>
      <trkpt lat="42.90155" lon="0.76159">
        <ele>1780</ele>
        <time>2020-02-22T13:05:59Z</time>
      </trkpt>
      <trkpt lat="42.90148" lon="0.76152">
        <ele>1777.5</ele>
        <time>2020-02-22T13:06:12Z</time>
      </trkpt>
      <trkpt lat="42.90142" lon="0.76142">
        <ele>1776.7</ele>
        <time>2020-02-22T13:06:23Z</time>
      </trkpt>
      <trkpt lat="42.90136" lon="0.76131">
        <ele>1776.7</ele>
        <time>2020-02-22T13:06:33Z</time>
      </trkpt>
      <trkpt lat="42.9013" lon="0.76122">
        <ele>1776</ele>
        <time>2020-02-22T13:06:43Z</time>
      </trkpt>
      <trkpt lat="42.90124" lon="0.76112">
        <ele>1775.9</ele>
        <time>2020-02-22T13:06:53Z</time>
      </trkpt>
      <trkpt lat="42.90118" lon="0.76103">
        <ele>1775.9</ele>
        <time>2020-02-22T13:07:02Z</time>
      </trkpt>
      <trkpt lat="42.90111" lon="0.76093">
        <ele>1775.9</ele>
        <time>2020-02-22T13:07:13Z</time>
      </trkpt>
      <trkpt lat="42.90104" lon="0.76083">
        <ele>1775</ele>
        <time>2020-02-22T13:07:23Z</time>
      </trkpt>
      <trkpt lat="42.90095" lon="0.76077">
        <ele>1775</ele>
        <time>2020-02-22T13:07:35Z</time>
      </trkpt>
      <trkpt lat="42.90088" lon="0.76069">
        <ele>1777.9</ele>
        <time>2020-02-22T13:10:14Z</time>
      </trkpt>
      <trkpt lat="42.90088" lon="0.76058">
        <ele>1775.5</ele>
        <time>2020-02-22T13:10:27Z</time>
      </trkpt>
      <trkpt lat="42.90088" lon="0.76046">
        <ele>1772.3</ele>
        <time>2020-02-22T13:10:42Z</time>
      </trkpt>
      <trkpt lat="42.90088" lon="0.76033">
        <ele>1768.7</ele>
        <time>2020-02-22T13:10:55Z</time>
      </trkpt>
      <trkpt lat="42.90088" lon="0.76021">
        <ele>1766</ele>
        <time>2020-02-22T13:11:06Z</time>
      </trkpt>
      <trkpt lat="42.90085" lon="0.76008">
        <ele>1762.6</ele>
        <time>2020-02-22T13:11:17Z</time>
      </trkpt>
      <trkpt lat="42.90082" lon="0.75996">
        <ele>1758.7</ele>
        <time>2020-02-22T13:11:28Z</time>
      </trkpt>
      <trkpt lat="42.90079" lon="0.75985">
        <ele>1754.9</ele>
        <time>2020-02-22T13:11:40Z</time>
      </trkpt>
      <trkpt lat="42.90073" lon="0.75974">
        <ele>1751.3</ele>
        <time>2020-02-22T13:11:52Z</time>
      </trkpt>
      <trkpt lat="42.90069" lon="0.75963">
        <ele>1748.4</ele>
        <time>2020-02-22T13:12:04Z</time>
      </trkpt>
      <trkpt lat="42.90067" lon="0.7595">
        <ele>1744.8</ele>
        <time>2020-02-22T13:12:17Z</time>
      </trkpt>
      <trkpt lat="42.90062" lon="0.75938">
        <ele>1740.4</ele>
        <time>2020-02-22T13:12:32Z</time>
      </trkpt>
      <trkpt lat="42.90057" lon="0.75926">
        <ele>1737.2</ele>
        <time>2020-02-22T13:12:45Z</time>
      </trkpt>
      <trkpt lat="42.90051" lon="0.75915">
        <ele>1734.5</ele>
        <time>2020-02-22T13:12:57Z</time>
      </trkpt>
      <trkpt lat="42.90044" lon="0.75906">
        <ele>1732.7</ele>
        <time>2020-02-22T13:13:08Z</time>
      </trkpt>
      <trkpt lat="42.90042" lon="0.75895">
        <ele>1729.3</ele>
        <time>2020-02-22T13:13:21Z</time>
      </trkpt>
      <trkpt lat="42.90041" lon="0.75882">
        <ele>1726.9</ele>
        <time>2020-02-22T13:13:40Z</time>
      </trkpt>
      <trkpt lat="42.90037" lon="0.7587">
        <ele>1723.4</ele>
        <time>2020-02-22T13:13:53Z</time>
      </trkpt>
      <trkpt lat="42.90034" lon="0.75859">
        <ele>1719.7</ele>
        <time>2020-02-22T13:14:06Z</time>
      </trkpt>
      <trkpt lat="42.90027" lon="0.75851">
        <ele>1716.1</ele>
        <time>2020-02-22T13:14:19Z</time>
      </trkpt>
      <trkpt lat="42.9002" lon="0.75843">
        <ele>1712.8</ele>
        <time>2020-02-22T13:14:33Z</time>
      </trkpt>
      <trkpt lat="42.90014" lon="0.75834">
        <ele>1708.9</ele>
        <time>2020-02-22T13:14:52Z</time>
      </trkpt>
      <trkpt lat="42.9001" lon="0.7582">
        <ele>1705.4</ele>
        <time>2020-02-22T13:15:04Z</time>
      </trkpt>
      <trkpt lat="42.90004" lon="0.75809">
        <ele>1702.6</ele>
        <time>2020-02-22T13:15:15Z</time>
      </trkpt>
      <trkpt lat="42.89999" lon="0.75799">
        <ele>1700.2</ele>
        <time>2020-02-22T13:15:33Z</time>
      </trkpt>
      <trkpt lat="42.89995" lon="0.75788">
        <ele>1699.3</ele>
        <time>2020-02-22T13:15:47Z</time>
      </trkpt>
      <trkpt lat="42.89988" lon="0.75779">
        <ele>1696.6</ele>
        <time>2020-02-22T13:15:58Z</time>
      </trkpt>
      <trkpt lat="42.89981" lon="0.7577">
        <ele>1695.7</ele>
        <time>2020-02-22T13:16:08Z</time>
      </trkpt>
      <trkpt lat="42.89975" lon="0.75758">
        <ele>1694</ele>
        <time>2020-02-22T13:16:18Z</time>
      </trkpt>
      <trkpt lat="42.89969" lon="0.75748">
        <ele>1693.2</ele>
        <time>2020-02-22T13:16:27Z</time>
      </trkpt>
      <trkpt lat="42.89962" lon="0.75737">
        <ele>1693.2</ele>
        <time>2020-02-22T13:16:36Z</time>
      </trkpt>
      <trkpt lat="42.89958" lon="0.75725">
        <ele>1693.1</ele>
        <time>2020-02-22T13:17:33Z</time>
      </trkpt>
      <trkpt lat="42.89953" lon="0.75715">
        <ele>1693.1</ele>
        <time>2020-02-22T13:18:06Z</time>
      </trkpt>
      <trkpt lat="42.89946" lon="0.75707">
        <ele>1693</ele>
        <time>2020-02-22T13:18:16Z</time>
      </trkpt>
      <trkpt lat="42.89939" lon="0.75698">
        <ele>1693</ele>
        <time>2020-02-22T13:18:26Z</time>
      </trkpt>
      <trkpt lat="42.89932" lon="0.75688">
        <ele>1693</ele>
        <time>2020-02-22T13:18:35Z</time>
      </trkpt>
      <trkpt lat="42.89926" lon="0.75679">
        <ele>1693</ele>
        <time>2020-02-22T13:18:44Z</time>
      </trkpt>
      <trkpt lat="42.89921" lon="0.75669">
        <ele>1692.9</ele>
        <time>2020-02-22T13:18:54Z</time>
      </trkpt>
      <trkpt lat="42.89918" lon="0.75656">
        <ele>1695.4</ele>
        <time>2020-02-22T13:19:06Z</time>
      </trkpt>
      <trkpt lat="42.89914" lon="0.75644">
        <ele>1696.3</ele>
        <time>2020-02-22T13:19:16Z</time>
      </trkpt>
      <trkpt lat="42.89914" lon="0.75632">
        <ele>1699.5</ele>
        <time>2020-02-22T13:19:28Z</time>
      </trkpt>
      <trkpt lat="42.89912" lon="0.75619">
        <ele>1700.2</ele>
        <time>2020-02-22T13:19:38Z</time>
      </trkpt>
      <trkpt lat="42.89907" lon="0.75606">
        <ele>1702.1</ele>
        <time>2020-02-22T13:19:50Z</time>
      </trkpt>
      <trkpt lat="42.89901" lon="0.75596">
        <ele>1702.8</ele>
        <time>2020-02-22T13:19:59Z</time>
      </trkpt>
      <trkpt lat="42.89894" lon="0.75587">
        <ele>1704.5</ele>
        <time>2020-02-22T13:20:08Z</time>
      </trkpt>
      <trkpt lat="42.89888" lon="0.75576">
        <ele>1706.2</ele>
        <time>2020-02-22T13:20:20Z</time>
      </trkpt>
      <trkpt lat="42.89883" lon="0.75565">
        <ele>1709.2</ele>
        <time>2020-02-22T13:20:32Z</time>
      </trkpt>
      <trkpt lat="42.89875" lon="0.75555">
        <ele>1710.8</ele>
        <time>2020-02-22T13:20:43Z</time>
      </trkpt>
      <trkpt lat="42.8987" lon="0.75545">
        <ele>1712.4</ele>
        <time>2020-02-22T13:20:53Z</time>
      </trkpt>
      <trkpt lat="42.89863" lon="0.75536">
        <ele>1714</ele>
        <time>2020-02-22T13:21:03Z</time>
      </trkpt>
      <trkpt lat="42.89857" lon="0.75526">
        <ele>1714.8</ele>
        <time>2020-02-22T13:21:14Z</time>
      </trkpt>
      <trkpt lat="42.8985" lon="0.75516">
        <ele>1716.6</ele>
        <time>2020-02-22T13:21:24Z</time>
      </trkpt>
      <trkpt lat="42.89845" lon="0.75506">
        <ele>1718.2</ele>
        <time>2020-02-22T13:21:35Z</time>
      </trkpt>
      <trkpt lat="42.89846" lon="0.75493">
        <ele>1721</ele>
        <time>2020-02-22T13:21:48Z</time>
      </trkpt>
      <trkpt lat="42.8984" lon="0.7548">
        <ele>1723.9</ele>
        <time>2020-02-22T13:22:02Z</time>
      </trkpt>
      <trkpt lat="42.89835" lon="0.75469">
        <ele>1726.6</ele>
        <time>2020-02-22T13:22:14Z</time>
      </trkpt>
      <trkpt lat="42.89835" lon="0.75457">
        <ele>1727.4</ele>
        <time>2020-02-22T13:22:27Z</time>
      </trkpt>
      <trkpt lat="42.89838" lon="0.75445">
        <ele>1729.2</ele>
        <time>2020-02-22T13:22:39Z</time>
      </trkpt>
      <trkpt lat="42.89841" lon="0.75432">
        <ele>1730.1</ele>
        <time>2020-02-22T13:22:52Z</time>
      </trkpt>
      <trkpt lat="42.89842" lon="0.7542">
        <ele>1730.1</ele>
        <time>2020-02-22T13:23:07Z</time>
      </trkpt>
      <trkpt lat="42.89843" lon="0.75407">
        <ele>1730.1</ele>
        <time>2020-02-22T13:23:19Z</time>
      </trkpt>
      <trkpt lat="42.89848" lon="0.75403">
        <ele>1726.7</ele>
        <time>2020-02-22T13:25:31Z</time>
      </trkpt>
      <trkpt lat="42.89855" lon="0.75395">
        <ele>1724.7</ele>
        <time>2020-02-22T13:25:40Z</time>
      </trkpt>
      <trkpt lat="42.89861" lon="0.75383">
        <ele>1723</ele>
        <time>2020-02-22T13:25:49Z</time>
      </trkpt>
      <trkpt lat="42.89866" lon="0.75371">
        <ele>1722.2</ele>
        <time>2020-02-22T13:25:58Z</time>
      </trkpt>
      <trkpt lat="42.89872" lon="0.75362">
        <ele>1720.3</ele>
        <time>2020-02-22T13:26:06Z</time>
      </trkpt>
      <trkpt lat="42.89878" lon="0.75352">
        <ele>1718.6</ele>
        <time>2020-02-22T13:26:14Z</time>
      </trkpt>
      <trkpt lat="42.89883" lon="0.75341">
        <ele>1716.7</ele>
        <time>2020-02-22T13:26:23Z</time>
      </trkpt>
      <trkpt lat="42.89889" lon="0.75331">
        <ele>1713.2</ele>
        <time>2020-02-22T13:26:31Z</time>
      </trkpt>
      <trkpt lat="42.89894" lon="0.75319">
        <ele>1710.4</ele>
        <time>2020-02-22T13:26:39Z</time>
      </trkpt>
      <trkpt lat="42.89898" lon="0.75308">
        <ele>1708.8</ele>
        <time>2020-02-22T13:26:47Z</time>
      </trkpt>
      <trkpt lat="42.89901" lon="0.75297">
        <ele>1707.3</ele>
        <time>2020-02-22T13:26:55Z</time>
      </trkpt>
      <trkpt lat="42.89905" lon="0.75285">
        <ele>1704.7</ele>
        <time>2020-02-22T13:27:05Z</time>
      </trkpt>
      <trkpt lat="42.89909" lon="0.75273">
        <ele>1702.9</ele>
        <time>2020-02-22T13:27:14Z</time>
      </trkpt>
      <trkpt lat="42.89912" lon="0.75261">
        <ele>1700.9</ele>
        <time>2020-02-22T13:27:23Z</time>
      </trkpt>
      <trkpt lat="42.89916" lon="0.7525">
        <ele>1698.3</ele>
        <time>2020-02-22T13:27:32Z</time>
      </trkpt>
      <trkpt lat="42.89921" lon="0.75239">
        <ele>1695.5</ele>
        <time>2020-02-22T13:27:42Z</time>
      </trkpt>
      <trkpt lat="42.89924" lon="0.75226">
        <ele>1693.6</ele>
        <time>2020-02-22T13:27:51Z</time>
      </trkpt>
      <trkpt lat="42.89926" lon="0.75214">
        <ele>1690.3</ele>
        <time>2020-02-22T13:28:02Z</time>
      </trkpt>
      <trkpt lat="42.89925" lon="0.752">
        <ele>1686.7</ele>
        <time>2020-02-22T13:28:14Z</time>
      </trkpt>
      <trkpt lat="42.89923" lon="0.75185">
        <ele>1682.6</ele>
        <time>2020-02-22T13:28:24Z</time>
      </trkpt>
      <trkpt lat="42.89922" lon="0.75171">
        <ele>1678.4</ele>
        <time>2020-02-22T13:28:34Z</time>
      </trkpt>
      <trkpt lat="42.89922" lon="0.75157">
        <ele>1673.8</ele>
        <time>2020-02-22T13:28:44Z</time>
      </trkpt>
      <trkpt lat="42.89922" lon="0.75143">
        <ele>1670.8</ele>
        <time>2020-02-22T13:28:53Z</time>
      </trkpt>
      <trkpt lat="42.89923" lon="0.7513">
        <ele>1667.8</ele>
        <time>2020-02-22T13:29:01Z</time>
      </trkpt>
      <trkpt lat="42.89923" lon="0.75116">
        <ele>1664.1</ele>
        <time>2020-02-22T13:29:10Z</time>
      </trkpt>
      <trkpt lat="42.89924" lon="0.75102">
        <ele>1660.9</ele>
        <time>2020-02-22T13:29:19Z</time>
      </trkpt>
      <trkpt lat="42.89925" lon="0.7509">
        <ele>1659.4</ele>
        <time>2020-02-22T13:29:36Z</time>
      </trkpt>
      <trkpt lat="42.89927" lon="0.75077">
        <ele>1658.6</ele>
        <time>2020-02-22T13:29:44Z</time>
      </trkpt>
      <trkpt lat="42.89929" lon="0.75065">
        <ele>1655.7</ele>
        <time>2020-02-22T13:29:53Z</time>
      </trkpt>
      <trkpt lat="42.89931" lon="0.75053">
        <ele>1651.9</ele>
        <time>2020-02-22T13:30:01Z</time>
      </trkpt>
      <trkpt lat="42.89932" lon="0.75039">
        <ele>1648.1</ele>
        <time>2020-02-22T13:30:10Z</time>
      </trkpt>
      <trkpt lat="42.89931" lon="0.75026">
        <ele>1644.9</ele>
        <time>2020-02-22T13:30:19Z</time>
      </trkpt>
      <trkpt lat="42.8993" lon="0.75013">
        <ele>1640.3</ele>
        <time>2020-02-22T13:30:28Z</time>
      </trkpt>
      <trkpt lat="42.8993" lon="0.74999">
        <ele>1635.8</ele>
        <time>2020-02-22T13:30:37Z</time>
      </trkpt>
      <trkpt lat="42.89929" lon="0.74985">
        <ele>1630.4</ele>
        <time>2020-02-22T13:30:45Z</time>
      </trkpt>
      <trkpt lat="42.89929" lon="0.74972">
        <ele>1626.2</ele>
        <time>2020-02-22T13:30:52Z</time>
      </trkpt>
      <trkpt lat="42.8993" lon="0.74957">
        <ele>1622.8</ele>
        <time>2020-02-22T13:30:59Z</time>
      </trkpt>
      <trkpt lat="42.8993" lon="0.74942">
        <ele>1618.6</ele>
        <time>2020-02-22T13:31:06Z</time>
      </trkpt>
      <trkpt lat="42.89929" lon="0.74929">
        <ele>1616.2</ele>
        <time>2020-02-22T13:31:12Z</time>
      </trkpt>
      <trkpt lat="42.89929" lon="0.74915">
        <ele>1612.6</ele>
        <time>2020-02-22T13:31:19Z</time>
      </trkpt>
      <trkpt lat="42.89929" lon="0.74901">
        <ele>1610.8</ele>
        <time>2020-02-22T13:31:26Z</time>
      </trkpt>
      <trkpt lat="42.89929" lon="0.74888">
        <ele>1609.1</ele>
        <time>2020-02-22T13:31:35Z</time>
      </trkpt>
      <trkpt lat="42.89929" lon="0.74884">
        <ele>1607.2</ele>
        <time>2020-02-22T13:34:17Z</time>
      </trkpt>
      <trkpt lat="42.89933" lon="0.74871">
        <ele>1606.2</ele>
        <time>2020-02-22T13:34:25Z</time>
      </trkpt>
      <trkpt lat="42.89939" lon="0.74861">
        <ele>1604.3</ele>
        <time>2020-02-22T13:34:34Z</time>
      </trkpt>
      <trkpt lat="42.89944" lon="0.74848">
        <ele>1601.7</ele>
        <time>2020-02-22T13:34:46Z</time>
      </trkpt>
      <trkpt lat="42.89951" lon="0.74833">
        <ele>1598.3</ele>
        <time>2020-02-22T13:34:58Z</time>
      </trkpt>
      <trkpt lat="42.89957" lon="0.74814">
        <ele>1595.5</ele>
        <time>2020-02-22T13:35:10Z</time>
      </trkpt>
      <trkpt lat="42.89962" lon="0.74799">
        <ele>1592.9</ele>
        <time>2020-02-22T13:35:22Z</time>
      </trkpt>
      <trkpt lat="42.89958" lon="0.74781">
        <ele>1592.1</ele>
        <time>2020-02-22T13:35:35Z</time>
      </trkpt>
      <trkpt lat="42.89964" lon="0.74768">
        <ele>1590</ele>
        <time>2020-02-22T13:35:48Z</time>
      </trkpt>
      <trkpt lat="42.89968" lon="0.74752">
        <ele>1589.1</ele>
        <time>2020-02-22T13:35:56Z</time>
      </trkpt>
      <trkpt lat="42.89974" lon="0.74733">
        <ele>1589</ele>
        <time>2020-02-22T13:36:06Z</time>
      </trkpt>
      <trkpt lat="42.89979" lon="0.74717">
        <ele>1588.2</ele>
        <time>2020-02-22T13:36:17Z</time>
      </trkpt>
      <trkpt lat="42.89985" lon="0.74702">
        <ele>1588.1</ele>
        <time>2020-02-22T13:36:27Z</time>
      </trkpt>
      <trkpt lat="42.89991" lon="0.74688">
        <ele>1588</ele>
        <time>2020-02-22T13:36:36Z</time>
      </trkpt>
      <trkpt lat="42.89995" lon="0.74671">
        <ele>1587.9</ele>
        <time>2020-02-22T13:36:46Z</time>
      </trkpt>
      <trkpt lat="42.90001" lon="0.74655">
        <ele>1587.9</ele>
        <time>2020-02-22T13:36:57Z</time>
      </trkpt>
      <trkpt lat="42.90005" lon="0.7464">
        <ele>1586.1</ele>
        <time>2020-02-22T13:37:07Z</time>
      </trkpt>
      <trkpt lat="42.9001" lon="0.74624">
        <ele>1585.3</ele>
        <time>2020-02-22T13:37:18Z</time>
      </trkpt>
      <trkpt lat="42.90014" lon="0.74607">
        <ele>1582.2</ele>
        <time>2020-02-22T13:37:29Z</time>
      </trkpt>
      <trkpt lat="42.90017" lon="0.74591">
        <ele>1579.5</ele>
        <time>2020-02-22T13:37:40Z</time>
      </trkpt>
      <trkpt lat="42.90019" lon="0.74576">
        <ele>1575.5</ele>
        <time>2020-02-22T13:37:53Z</time>
      </trkpt>
      <trkpt lat="42.90022" lon="0.7456">
        <ele>1572</ele>
        <time>2020-02-22T13:38:06Z</time>
      </trkpt>
      <trkpt lat="42.90019" lon="0.74541">
        <ele>1568</ele>
        <time>2020-02-22T13:38:19Z</time>
      </trkpt>
      <trkpt lat="42.90014" lon="0.74528">
        <ele>1565.4</ele>
        <time>2020-02-22T13:38:33Z</time>
      </trkpt>
      <trkpt lat="42.90015" lon="0.74506">
        <ele>1560.8</ele>
        <time>2020-02-22T13:38:47Z</time>
      </trkpt>
      <trkpt lat="42.90014" lon="0.74485">
        <ele>1557.9</ele>
        <time>2020-02-22T13:38:59Z</time>
      </trkpt>
      <trkpt lat="42.90015" lon="0.74468">
        <ele>1554.2</ele>
        <time>2020-02-22T13:39:13Z</time>
      </trkpt>
      <trkpt lat="42.90018" lon="0.74451">
        <ele>1550.4</ele>
        <time>2020-02-22T13:39:27Z</time>
      </trkpt>
      <trkpt lat="42.90024" lon="0.7443">
        <ele>1546.8</ele>
        <time>2020-02-22T13:39:42Z</time>
      </trkpt>
      <trkpt lat="42.90018" lon="0.74413">
        <ele>1545.9</ele>
        <time>2020-02-22T13:39:58Z</time>
      </trkpt>
      <trkpt lat="42.90017" lon="0.74397">
        <ele>1542.4</ele>
        <time>2020-02-22T13:40:14Z</time>
      </trkpt>
      <trkpt lat="42.90017" lon="0.74381">
        <ele>1539.7</ele>
        <time>2020-02-22T13:40:25Z</time>
      </trkpt>
      <trkpt lat="42.9002" lon="0.74364">
        <ele>1538.7</ele>
        <time>2020-02-22T13:40:36Z</time>
      </trkpt>
      <trkpt lat="42.90019" lon="0.74347">
        <ele>1537</ele>
        <time>2020-02-22T13:40:47Z</time>
      </trkpt>
      <trkpt lat="42.90017" lon="0.74324">
        <ele>1535</ele>
        <time>2020-02-22T13:40:59Z</time>
      </trkpt>
      <trkpt lat="42.90019" lon="0.74305">
        <ele>1532.9</ele>
        <time>2020-02-22T13:41:11Z</time>
      </trkpt>
      <trkpt lat="42.9002" lon="0.74285">
        <ele>1531.2</ele>
        <time>2020-02-22T13:41:21Z</time>
      </trkpt>
      <trkpt lat="42.90019" lon="0.74264">
        <ele>1530.1</ele>
        <time>2020-02-22T13:41:33Z</time>
      </trkpt>
      <trkpt lat="42.90023" lon="0.74245">
        <ele>1527.4</ele>
        <time>2020-02-22T13:41:46Z</time>
      </trkpt>
      <trkpt lat="42.90019" lon="0.74223">
        <ele>1524.1</ele>
        <time>2020-02-22T13:42:02Z</time>
      </trkpt>
      <trkpt lat="42.90014" lon="0.74211">
        <ele>1522.1</ele>
        <time>2020-02-22T13:42:14Z</time>
      </trkpt>
      <trkpt lat="42.90012" lon="0.74177">
        <ele>1518.8</ele>
        <time>2020-02-22T13:44:06Z</time>
      </trkpt>
      <trkpt lat="42.90005" lon="0.7417">
        <ele>1518.8</ele>
        <time>2020-02-22T13:44:56Z</time>
      </trkpt>
      <trkpt lat="42.89994" lon="0.7416">
        <ele>1517.9</ele>
        <time>2020-02-22T13:45:09Z</time>
      </trkpt>
      <trkpt lat="42.89984" lon="0.74152">
        <ele>1515.1</ele>
        <time>2020-02-22T13:45:20Z</time>
      </trkpt>
      <trkpt lat="42.89975" lon="0.74142">
        <ele>1513.4</ele>
        <time>2020-02-22T13:45:31Z</time>
      </trkpt>
      <trkpt lat="42.89967" lon="0.74129">
        <ele>1511.8</ele>
        <time>2020-02-22T13:45:41Z</time>
      </trkpt>
      <trkpt lat="42.89961" lon="0.74118">
        <ele>1511</ele>
        <time>2020-02-22T13:45:50Z</time>
      </trkpt>
      <trkpt lat="42.89952" lon="0.74104">
        <ele>1508.1</ele>
        <time>2020-02-22T13:46:03Z</time>
      </trkpt>
      <trkpt lat="42.89942" lon="0.7409">
        <ele>1505.5</ele>
        <time>2020-02-22T13:46:15Z</time>
      </trkpt>
      <trkpt lat="42.89936" lon="0.74074">
        <ele>1502.1</ele>
        <time>2020-02-22T13:46:26Z</time>
      </trkpt>
      <trkpt lat="42.89933" lon="0.7406">
        <ele>1500.3</ele>
        <time>2020-02-22T13:46:36Z</time>
      </trkpt>
      <trkpt lat="42.8993" lon="0.74044">
        <ele>1496.4</ele>
        <time>2020-02-22T13:46:47Z</time>
      </trkpt>
      <trkpt lat="42.89929" lon="0.74025">
        <ele>1494.6</ele>
        <time>2020-02-22T13:46:58Z</time>
      </trkpt>
      <trkpt lat="42.89926" lon="0.74008">
        <ele>1491.8</ele>
        <time>2020-02-22T13:47:10Z</time>
      </trkpt>
      <trkpt lat="42.89925" lon="0.73989">
        <ele>1489.4</ele>
        <time>2020-02-22T13:47:22Z</time>
      </trkpt>
      <trkpt lat="42.89921" lon="0.73974">
        <ele>1486.4</ele>
        <time>2020-02-22T13:47:32Z</time>
      </trkpt>
      <trkpt lat="42.89919" lon="0.73958">
        <ele>1483.9</ele>
        <time>2020-02-22T13:47:43Z</time>
      </trkpt>
      <trkpt lat="42.89918" lon="0.73941">
        <ele>1480.4</ele>
        <time>2020-02-22T13:47:54Z</time>
      </trkpt>
      <trkpt lat="42.89918" lon="0.73924">
        <ele>1477.9</ele>
        <time>2020-02-22T13:48:05Z</time>
      </trkpt>
      <trkpt lat="42.89917" lon="0.73905">
        <ele>1474.9</ele>
        <time>2020-02-22T13:48:16Z</time>
      </trkpt>
      <trkpt lat="42.89916" lon="0.73889">
        <ele>1471.9</ele>
        <time>2020-02-22T13:48:27Z</time>
      </trkpt>
      <trkpt lat="42.89914" lon="0.73874">
        <ele>1468.2</ele>
        <time>2020-02-22T13:48:39Z</time>
      </trkpt>
      <trkpt lat="42.89909" lon="0.7386">
        <ele>1464.7</ele>
        <time>2020-02-22T13:48:52Z</time>
      </trkpt>
      <trkpt lat="42.89903" lon="0.73841">
        <ele>1460</ele>
        <time>2020-02-22T13:49:05Z</time>
      </trkpt>
      <trkpt lat="42.89899" lon="0.73824">
        <ele>1457</ele>
        <time>2020-02-22T13:49:15Z</time>
      </trkpt>
      <trkpt lat="42.89899" lon="0.73806">
        <ele>1454.1</ele>
        <time>2020-02-22T13:49:24Z</time>
      </trkpt>
      <trkpt lat="42.89897" lon="0.73789">
        <ele>1452.5</ele>
        <time>2020-02-22T13:49:33Z</time>
      </trkpt>
      <trkpt lat="42.89896" lon="0.73773">
        <ele>1450.7</ele>
        <time>2020-02-22T13:49:41Z</time>
      </trkpt>
      <trkpt lat="42.89895" lon="0.73759">
        <ele>1449.9</ele>
        <time>2020-02-22T13:49:49Z</time>
      </trkpt>
      <trkpt lat="42.89893" lon="0.73742">
        <ele>1446.3</ele>
        <time>2020-02-22T13:49:59Z</time>
      </trkpt>
      <trkpt lat="42.89888" lon="0.73727">
        <ele>1443.5</ele>
        <time>2020-02-22T13:50:08Z</time>
      </trkpt>
      <trkpt lat="42.89886" lon="0.73713">
        <ele>1441.8</ele>
        <time>2020-02-22T13:50:16Z</time>
      </trkpt>
      <trkpt lat="42.89885" lon="0.73699">
        <ele>1440.2</ele>
        <time>2020-02-22T13:50:24Z</time>
      </trkpt>
      <trkpt lat="42.89885" lon="0.73684">
        <ele>1438.2</ele>
        <time>2020-02-22T13:50:33Z</time>
      </trkpt>
      <trkpt lat="42.89884" lon="0.73669">
        <ele>1436.4</ele>
        <time>2020-02-22T13:50:42Z</time>
      </trkpt>
      <trkpt lat="42.89886" lon="0.73654">
        <ele>1434.7</ele>
        <time>2020-02-22T13:50:51Z</time>
      </trkpt>
      <trkpt lat="42.8989" lon="0.7364">
        <ele>1432.4</ele>
        <time>2020-02-22T13:51:03Z</time>
      </trkpt>
      <trkpt lat="42.89892" lon="0.73624">
        <ele>1430.7</ele>
        <time>2020-02-22T13:51:13Z</time>
      </trkpt>
      <trkpt lat="42.89892" lon="0.73609">
        <ele>1427.9</ele>
        <time>2020-02-22T13:51:21Z</time>
      </trkpt>
      <trkpt lat="42.89892" lon="0.73593">
        <ele>1425.9</ele>
        <time>2020-02-22T13:51:30Z</time>
      </trkpt>
      <trkpt lat="42.89892" lon="0.73578">
        <ele>1422.8</ele>
        <time>2020-02-22T13:51:39Z</time>
      </trkpt>
      <trkpt lat="42.89892" lon="0.73565">
        <ele>1421</ele>
        <time>2020-02-22T13:51:48Z</time>
      </trkpt>
      <trkpt lat="42.89893" lon="0.73552">
        <ele>1419.1</ele>
        <time>2020-02-22T13:51:57Z</time>
      </trkpt>
      <trkpt lat="42.89894" lon="0.73538">
        <ele>1416.2</ele>
        <time>2020-02-22T13:52:06Z</time>
      </trkpt>
      <trkpt lat="42.89897" lon="0.73526">
        <ele>1413.8</ele>
        <time>2020-02-22T13:52:15Z</time>
      </trkpt>
      <trkpt lat="42.89903" lon="0.73514">
        <ele>1411</ele>
        <time>2020-02-22T13:52:25Z</time>
      </trkpt>
      <trkpt lat="42.89907" lon="0.735">
        <ele>1408.4</ele>
        <time>2020-02-22T13:52:36Z</time>
      </trkpt>
      <trkpt lat="42.89909" lon="0.73487">
        <ele>1405.5</ele>
        <time>2020-02-22T13:52:46Z</time>
      </trkpt>
      <trkpt lat="42.89913" lon="0.73472">
        <ele>1402.7</ele>
        <time>2020-02-22T13:52:56Z</time>
      </trkpt>
      <trkpt lat="42.89917" lon="0.73457">
        <ele>1398.9</ele>
        <time>2020-02-22T13:53:06Z</time>
      </trkpt>
      <trkpt lat="42.89921" lon="0.73441">
        <ele>1396.2</ele>
        <time>2020-02-22T13:53:18Z</time>
      </trkpt>
      <trkpt lat="42.89924" lon="0.73424">
        <ele>1392.4</ele>
        <time>2020-02-22T13:53:31Z</time>
      </trkpt>
      <trkpt lat="42.89929" lon="0.73406">
        <ele>1388.9</ele>
        <time>2020-02-22T13:53:44Z</time>
      </trkpt>
      <trkpt lat="42.89939" lon="0.73394">
        <ele>1387.1</ele>
        <time>2020-02-22T13:53:56Z</time>
      </trkpt>
      <trkpt lat="42.89951" lon="0.73382">
        <ele>1384.3</ele>
        <time>2020-02-22T13:54:06Z</time>
      </trkpt>
      <trkpt lat="42.89958" lon="0.73371">
        <ele>1383.6</ele>
        <time>2020-02-22T13:54:16Z</time>
      </trkpt>
      <trkpt lat="42.89963" lon="0.73359">
        <ele>1381.9</ele>
        <time>2020-02-22T13:54:26Z</time>
      </trkpt>
      <trkpt lat="42.89964" lon="0.73344">
        <ele>1381.1</ele>
        <time>2020-02-22T13:54:37Z</time>
      </trkpt>
      <trkpt lat="42.89965" lon="0.73327">
        <ele>1379.5</ele>
        <time>2020-02-22T13:54:49Z</time>
      </trkpt>
      <trkpt lat="42.89969" lon="0.73305">
        <ele>1378.6</ele>
        <time>2020-02-22T13:55:00Z</time>
      </trkpt>
      <trkpt lat="42.89974" lon="0.73284">
        <ele>1377.5</ele>
        <time>2020-02-22T13:55:11Z</time>
      </trkpt>
      <trkpt lat="42.89983" lon="0.73265">
        <ele>1377.4</ele>
        <time>2020-02-22T13:55:21Z</time>
      </trkpt>
      <trkpt lat="42.89989" lon="0.7325">
        <ele>1376.5</ele>
        <time>2020-02-22T13:55:30Z</time>
      </trkpt>
      <trkpt lat="42.89995" lon="0.73236">
        <ele>1375.7</ele>
        <time>2020-02-22T13:55:39Z</time>
      </trkpt>
      <trkpt lat="42.89996" lon="0.73221">
        <ele>1374.8</ele>
        <time>2020-02-22T13:55:49Z</time>
      </trkpt>
      <trkpt lat="42.89997" lon="0.73203">
        <ele>1373</ele>
        <time>2020-02-22T13:56:01Z</time>
      </trkpt>
      <trkpt lat="42.90001" lon="0.73185">
        <ele>1371</ele>
        <time>2020-02-22T13:56:10Z</time>
      </trkpt>
      <trkpt lat="42.90008" lon="0.73168">
        <ele>1369.4</ele>
        <time>2020-02-22T13:56:19Z</time>
      </trkpt>
      <trkpt lat="42.90013" lon="0.73152">
        <ele>1368.4</ele>
        <time>2020-02-22T13:56:27Z</time>
      </trkpt>
      <trkpt lat="42.90018" lon="0.73135">
        <ele>1368.4</ele>
        <time>2020-02-22T13:56:36Z</time>
      </trkpt>
      <trkpt lat="42.90024" lon="0.73121">
        <ele>1367.3</ele>
        <time>2020-02-22T13:56:45Z</time>
      </trkpt>
      <trkpt lat="42.90026" lon="0.73106">
        <ele>1368.5</ele>
        <time>2020-02-22T13:56:55Z</time>
      </trkpt>
      <trkpt lat="42.90025" lon="0.73101">
        <ele>1366.3</ele>
        <time>2020-02-22T13:57:23Z</time>
      </trkpt>
      <trkpt lat="42.9003" lon="0.73097">
        <ele>1364.7</ele>
        <time>2020-02-22T13:59:17Z</time>
      </trkpt>
      <trkpt lat="42.90034" lon="0.73077">
        <ele>1362.2</ele>
        <time>2020-02-22T13:59:29Z</time>
      </trkpt>
      <trkpt lat="42.9004" lon="0.73061">
        <ele>1361.4</ele>
        <time>2020-02-22T13:59:40Z</time>
      </trkpt>
      <trkpt lat="42.90044" lon="0.73048">
        <ele>1360.4</ele>
        <time>2020-02-22T14:00:02Z</time>
      </trkpt>
      <trkpt lat="42.90044" lon="0.73033">
        <ele>1358.7</ele>
        <time>2020-02-22T14:00:15Z</time>
      </trkpt>
      <trkpt lat="42.90049" lon="0.73017">
        <ele>1356</ele>
        <time>2020-02-22T14:00:29Z</time>
      </trkpt>
      <trkpt lat="42.90057" lon="0.73003">
        <ele>1351.4</ele>
        <time>2020-02-22T14:00:40Z</time>
      </trkpt>
      <trkpt lat="42.90067" lon="0.72992">
        <ele>1349.5</ele>
        <time>2020-02-22T14:00:49Z</time>
      </trkpt>
      <trkpt lat="42.90072" lon="0.72977">
        <ele>1348.7</ele>
        <time>2020-02-22T14:01:00Z</time>
      </trkpt>
      <trkpt lat="42.90072" lon="0.72962">
        <ele>1347.7</ele>
        <time>2020-02-22T14:01:13Z</time>
      </trkpt>
      <trkpt lat="42.90074" lon="0.7295">
        <ele>1344.9</ele>
        <time>2020-02-22T14:01:25Z</time>
      </trkpt>
      <trkpt lat="42.90075" lon="0.72935">
        <ele>1341.3</ele>
        <time>2020-02-22T14:01:45Z</time>
      </trkpt>
      <trkpt lat="42.90074" lon="0.7292">
        <ele>1338.1</ele>
        <time>2020-02-22T14:01:57Z</time>
      </trkpt>
      <trkpt lat="42.90081" lon="0.72898">
        <ele>1335.3</ele>
        <time>2020-02-22T14:02:10Z</time>
      </trkpt>
      <trkpt lat="42.90091" lon="0.72884">
        <ele>1333.5</ele>
        <time>2020-02-22T14:02:20Z</time>
      </trkpt>
      <trkpt lat="42.90102" lon="0.72875">
        <ele>1331.6</ele>
        <time>2020-02-22T14:02:30Z</time>
      </trkpt>
      <trkpt lat="42.90111" lon="0.72865">
        <ele>1329</ele>
        <time>2020-02-22T14:02:41Z</time>
      </trkpt>
      <trkpt lat="42.9012" lon="0.72855">
        <ele>1325.8</ele>
        <time>2020-02-22T14:02:53Z</time>
      </trkpt>
      <trkpt lat="42.90133" lon="0.72858">
        <ele>1324.2</ele>
        <time>2020-02-22T14:03:07Z</time>
      </trkpt>
      <trkpt lat="42.90139" lon="0.72873">
        <ele>1324.1</ele>
        <time>2020-02-22T14:03:19Z</time>
      </trkpt>
      <trkpt lat="42.90143" lon="0.72887">
        <ele>1324.1</ele>
        <time>2020-02-22T14:03:29Z</time>
      </trkpt>
      <trkpt lat="42.90149" lon="0.72902">
        <ele>1324</ele>
        <time>2020-02-22T14:03:39Z</time>
      </trkpt>
      <trkpt lat="42.90156" lon="0.72919">
        <ele>1326.2</ele>
        <time>2020-02-22T14:03:50Z</time>
      </trkpt>
      <trkpt lat="42.90161" lon="0.72935">
        <ele>1327.8</ele>
        <time>2020-02-22T14:04:01Z</time>
      </trkpt>
      <trkpt lat="42.9017" lon="0.72954">
        <ele>1330.5</ele>
        <time>2020-02-22T14:04:15Z</time>
      </trkpt>
      <trkpt lat="42.90173" lon="0.72966">
        <ele>1330.2</ele>
        <time>2020-02-22T14:04:26Z</time>
      </trkpt>
      <trkpt lat="42.90176" lon="0.7298">
        <ele>1330</ele>
        <time>2020-02-22T14:04:37Z</time>
      </trkpt>
      <trkpt lat="42.90181" lon="0.72994">
        <ele>1330</ele>
        <time>2020-02-22T14:04:48Z</time>
      </trkpt>
      <trkpt lat="42.90182" lon="0.73011">
        <ele>1329.9</ele>
        <time>2020-02-22T14:04:58Z</time>
      </trkpt>
      <trkpt lat="42.90182" lon="0.73026">
        <ele>1329.7</ele>
        <time>2020-02-22T14:05:10Z</time>
      </trkpt>
      <trkpt lat="42.90178" lon="0.73044">
        <ele>1329.6</ele>
        <time>2020-02-22T14:05:23Z</time>
      </trkpt>
      <trkpt lat="42.90177" lon="0.73062">
        <ele>1329.5</ele>
        <time>2020-02-22T14:05:33Z</time>
      </trkpt>
      <trkpt lat="42.90177" lon="0.7308">
        <ele>1329.4</ele>
        <time>2020-02-22T14:05:44Z</time>
      </trkpt>
      <trkpt lat="42.90173" lon="0.73098">
        <ele>1329.3</ele>
        <time>2020-02-22T14:05:55Z</time>
      </trkpt>
      <trkpt lat="42.90173" lon="0.7312">
        <ele>1329.2</ele>
        <time>2020-02-22T14:06:08Z</time>
      </trkpt>
      <trkpt lat="42.90171" lon="0.7314">
        <ele>1329.1</ele>
        <time>2020-02-22T14:06:19Z</time>
      </trkpt>
      <trkpt lat="42.90171" lon="0.73161">
        <ele>1329.1</ele>
        <time>2020-02-22T14:06:30Z</time>
      </trkpt>
      <trkpt lat="42.90169" lon="0.73178">
        <ele>1329.1</ele>
        <time>2020-02-22T14:06:42Z</time>
      </trkpt>
      <trkpt lat="42.90165" lon="0.73198">
        <ele>1330.7</ele>
        <time>2020-02-22T14:06:54Z</time>
      </trkpt>
      <trkpt lat="42.90167" lon="0.73216">
        <ele>1331.3</ele>
        <time>2020-02-22T14:07:07Z</time>
      </trkpt>
      <trkpt lat="42.9017" lon="0.7323">
        <ele>1331.2</ele>
        <time>2020-02-22T14:07:16Z</time>
      </trkpt>
      <trkpt lat="42.90174" lon="0.73244">
        <ele>1331.2</ele>
        <time>2020-02-22T14:07:26Z</time>
      </trkpt>
      <trkpt lat="42.90176" lon="0.73257">
        <ele>1331.1</ele>
        <time>2020-02-22T14:07:37Z</time>
      </trkpt>
      <trkpt lat="42.90179" lon="0.73275">
        <ele>1331.1</ele>
        <time>2020-02-22T14:07:48Z</time>
      </trkpt>
      <trkpt lat="42.90182" lon="0.73293">
        <ele>1331.2</ele>
        <time>2020-02-22T14:07:58Z</time>
      </trkpt>
      <trkpt lat="42.90186" lon="0.73311">
        <ele>1332</ele>
        <time>2020-02-22T14:08:11Z</time>
      </trkpt>
      <trkpt lat="42.90192" lon="0.73326">
        <ele>1332</ele>
        <time>2020-02-22T14:08:23Z</time>
      </trkpt>
      <trkpt lat="42.90199" lon="0.73342">
        <ele>1332.8</ele>
        <time>2020-02-22T14:08:34Z</time>
      </trkpt>
      <trkpt lat="42.90208" lon="0.73356">
        <ele>1332.7</ele>
        <time>2020-02-22T14:08:45Z</time>
      </trkpt>
      <trkpt lat="42.90218" lon="0.73368">
        <ele>1333.5</ele>
        <time>2020-02-22T14:08:55Z</time>
      </trkpt>
      <trkpt lat="42.90224" lon="0.73381">
        <ele>1333.5</ele>
        <time>2020-02-22T14:09:05Z</time>
      </trkpt>
      <trkpt lat="42.90232" lon="0.73393">
        <ele>1334.3</ele>
        <time>2020-02-22T14:09:14Z</time>
      </trkpt>
      <trkpt lat="42.90241" lon="0.73405">
        <ele>1334.3</ele>
        <time>2020-02-22T14:09:24Z</time>
      </trkpt>
      <trkpt lat="42.9025" lon="0.73416">
        <ele>1335.2</ele>
        <time>2020-02-22T14:09:35Z</time>
      </trkpt>
      <trkpt lat="42.9026" lon="0.73427">
        <ele>1336.1</ele>
        <time>2020-02-22T14:09:47Z</time>
      </trkpt>
      <trkpt lat="42.90266" lon="0.73439">
        <ele>1337.8</ele>
        <time>2020-02-22T14:10:00Z</time>
      </trkpt>
      <trkpt lat="42.90272" lon="0.73449">
        <ele>1339.5</ele>
        <time>2020-02-22T14:10:12Z</time>
      </trkpt>
      <trkpt lat="42.90282" lon="0.7346">
        <ele>1339.5</ele>
        <time>2020-02-22T14:10:24Z</time>
      </trkpt>
      <trkpt lat="42.9029" lon="0.73473">
        <ele>1340.3</ele>
        <time>2020-02-22T14:10:36Z</time>
      </trkpt>
      <trkpt lat="42.90298" lon="0.73486">
        <ele>1340.2</ele>
        <time>2020-02-22T14:10:47Z</time>
      </trkpt>
      <trkpt lat="42.90308" lon="0.73499">
        <ele>1341</ele>
        <time>2020-02-22T14:10:58Z</time>
      </trkpt>
      <trkpt lat="42.90316" lon="0.73512">
        <ele>1341.8</ele>
        <time>2020-02-22T14:11:09Z</time>
      </trkpt>
      <trkpt lat="42.90321" lon="0.73527">
        <ele>1342.6</ele>
        <time>2020-02-22T14:11:20Z</time>
      </trkpt>
      <trkpt lat="42.90327" lon="0.7354">
        <ele>1343.4</ele>
        <time>2020-02-22T14:11:32Z</time>
      </trkpt>
      <trkpt lat="42.90333" lon="0.73555">
        <ele>1345</ele>
        <time>2020-02-22T14:11:43Z</time>
      </trkpt>
      <trkpt lat="42.90333" lon="0.7357">
        <ele>1345</ele>
        <time>2020-02-22T14:11:54Z</time>
      </trkpt>
      <trkpt lat="42.90336" lon="0.73587">
        <ele>1344.9</ele>
        <time>2020-02-22T14:12:04Z</time>
      </trkpt>
      <trkpt lat="42.90335" lon="0.736">
        <ele>1345.7</ele>
        <time>2020-02-22T14:12:18Z</time>
      </trkpt>
      <trkpt lat="42.90328" lon="0.73617">
        <ele>1347.3</ele>
        <time>2020-02-22T14:12:33Z</time>
      </trkpt>
      <trkpt lat="42.90323" lon="0.73636">
        <ele>1348.9</ele>
        <time>2020-02-22T14:12:47Z</time>
      </trkpt>
      <trkpt lat="42.90323" lon="0.73656">
        <ele>1349.7</ele>
        <time>2020-02-22T14:13:02Z</time>
      </trkpt>
      <trkpt lat="42.90319" lon="0.73675">
        <ele>1350.3</ele>
        <time>2020-02-22T14:13:14Z</time>
      </trkpt>
      <trkpt lat="42.90322" lon="0.73693">
        <ele>1351.1</ele>
        <time>2020-02-22T14:13:28Z</time>
      </trkpt>
      <trkpt lat="42.90324" lon="0.73709">
        <ele>1351.9</ele>
        <time>2020-02-22T14:13:40Z</time>
      </trkpt>
      <trkpt lat="42.90327" lon="0.73727">
        <ele>1354.8</ele>
        <time>2020-02-22T14:13:55Z</time>
      </trkpt>
      <trkpt lat="42.90327" lon="0.73741">
        <ele>1356.4</ele>
        <time>2020-02-22T14:14:08Z</time>
      </trkpt>
      <trkpt lat="42.90328" lon="0.73759">
        <ele>1357.1</ele>
        <time>2020-02-22T14:14:21Z</time>
      </trkpt>
      <trkpt lat="42.90328" lon="0.7378">
        <ele>1358.6</ele>
        <time>2020-02-22T14:14:33Z</time>
      </trkpt>
      <trkpt lat="42.90328" lon="0.73798">
        <ele>1360.3</ele>
        <time>2020-02-22T14:14:46Z</time>
      </trkpt>
      <trkpt lat="42.90327" lon="0.73815">
        <ele>1361.9</ele>
        <time>2020-02-22T14:14:59Z</time>
      </trkpt>
      <trkpt lat="42.90326" lon="0.73835">
        <ele>1362.8</ele>
        <time>2020-02-22T14:15:12Z</time>
      </trkpt>
      <trkpt lat="42.90324" lon="0.73857">
        <ele>1363.5</ele>
        <time>2020-02-22T14:15:27Z</time>
      </trkpt>
      <trkpt lat="42.90321" lon="0.73876">
        <ele>1364.2</ele>
        <time>2020-02-22T14:15:41Z</time>
      </trkpt>
      <trkpt lat="42.90318" lon="0.73895">
        <ele>1365</ele>
        <time>2020-02-22T14:15:55Z</time>
      </trkpt>
      <trkpt lat="42.9031" lon="0.73909">
        <ele>1365.7</ele>
        <time>2020-02-22T14:16:07Z</time>
      </trkpt>
      <trkpt lat="42.90303" lon="0.73922">
        <ele>1365.7</ele>
        <time>2020-02-22T14:16:19Z</time>
      </trkpt>
      <trkpt lat="42.90299" lon="0.73937">
        <ele>1365.5</ele>
        <time>2020-02-22T14:16:30Z</time>
      </trkpt>
      <trkpt lat="42.90301" lon="0.73954">
        <ele>1365.4</ele>
        <time>2020-02-22T14:16:40Z</time>
      </trkpt>
      <trkpt lat="42.90299" lon="0.73972">
        <ele>1366.2</ele>
        <time>2020-02-22T14:16:51Z</time>
      </trkpt>
      <trkpt lat="42.90297" lon="0.73989">
        <ele>1366.2</ele>
        <time>2020-02-22T14:17:02Z</time>
      </trkpt>
      <trkpt lat="42.90298" lon="0.74004">
        <ele>1367</ele>
        <time>2020-02-22T14:17:14Z</time>
      </trkpt>
      <trkpt lat="42.90294" lon="0.74027">
        <ele>1367.8</ele>
        <time>2020-02-22T14:17:27Z</time>
      </trkpt>
      <trkpt lat="42.90292" lon="0.74044">
        <ele>1368.5</ele>
        <time>2020-02-22T14:17:38Z</time>
      </trkpt>
      <trkpt lat="42.90291" lon="0.74057">
        <ele>1369.2</ele>
        <time>2020-02-22T14:17:47Z</time>
      </trkpt>
      <trkpt lat="42.90294" lon="0.74076">
        <ele>1369.9</ele>
        <time>2020-02-22T14:18:00Z</time>
      </trkpt>
      <trkpt lat="42.90296" lon="0.74093">
        <ele>1369.8</ele>
        <time>2020-02-22T14:18:14Z</time>
      </trkpt>
      <trkpt lat="42.90296" lon="0.74113">
        <ele>1370.5</ele>
        <time>2020-02-22T14:18:28Z</time>
      </trkpt>
      <trkpt lat="42.90296" lon="0.74133">
        <ele>1371.1</ele>
        <time>2020-02-22T14:18:41Z</time>
      </trkpt>
      <trkpt lat="42.903" lon="0.7415">
        <ele>1371.7</ele>
        <time>2020-02-22T14:18:53Z</time>
      </trkpt>
      <trkpt lat="42.90303" lon="0.7417">
        <ele>1372.4</ele>
        <time>2020-02-22T14:19:06Z</time>
      </trkpt>
      <trkpt lat="42.90308" lon="0.74189">
        <ele>1373</ele>
        <time>2020-02-22T14:19:19Z</time>
      </trkpt>
      <trkpt lat="42.90313" lon="0.74206">
        <ele>1373.7</ele>
        <time>2020-02-22T14:19:31Z</time>
      </trkpt>
      <trkpt lat="42.90316" lon="0.74221">
        <ele>1374.3</ele>
        <time>2020-02-22T14:19:44Z</time>
      </trkpt>
      <trkpt lat="42.90324" lon="0.74238">
        <ele>1375</ele>
        <time>2020-02-22T14:19:55Z</time>
      </trkpt>
      <trkpt lat="42.90331" lon="0.74254">
        <ele>1375.7</ele>
        <time>2020-02-22T14:20:06Z</time>
      </trkpt>
      <trkpt lat="42.90337" lon="0.74267">
        <ele>1376.4</ele>
        <time>2020-02-22T14:20:16Z</time>
      </trkpt>
      <trkpt lat="42.90344" lon="0.74279">
        <ele>1377.1</ele>
        <time>2020-02-22T14:20:26Z</time>
      </trkpt>
      <trkpt lat="42.9035" lon="0.74294">
        <ele>1377.8</ele>
        <time>2020-02-22T14:20:38Z</time>
      </trkpt>
      <trkpt lat="42.90355" lon="0.74308">
        <ele>1378.6</ele>
        <time>2020-02-22T14:20:50Z</time>
      </trkpt>
      <trkpt lat="42.90361" lon="0.74322">
        <ele>1379.6</ele>
        <time>2020-02-22T14:21:02Z</time>
      </trkpt>
      <trkpt lat="42.90364" lon="0.74339">
        <ele>1381.2</ele>
        <time>2020-02-22T14:21:15Z</time>
      </trkpt>
      <trkpt lat="42.90368" lon="0.74361">
        <ele>1382</ele>
        <time>2020-02-22T14:21:27Z</time>
      </trkpt>
      <trkpt lat="42.90371" lon="0.74376">
        <ele>1382.7</ele>
        <time>2020-02-22T14:21:38Z</time>
      </trkpt>
      <trkpt lat="42.90374" lon="0.74391">
        <ele>1382.7</ele>
        <time>2020-02-22T14:21:48Z</time>
      </trkpt>
      <trkpt lat="42.90376" lon="0.74406">
        <ele>1382.7</ele>
        <time>2020-02-22T14:21:58Z</time>
      </trkpt>
      <trkpt lat="42.90377" lon="0.74422">
        <ele>1382.7</ele>
        <time>2020-02-22T14:22:08Z</time>
      </trkpt>
      <trkpt lat="42.90376" lon="0.74438">
        <ele>1382.7</ele>
        <time>2020-02-22T14:22:18Z</time>
      </trkpt>
      <trkpt lat="42.90373" lon="0.74454">
        <ele>1383.4</ele>
        <time>2020-02-22T14:22:30Z</time>
      </trkpt>
      <trkpt lat="42.90372" lon="0.74472">
        <ele>1384.2</ele>
        <time>2020-02-22T14:22:42Z</time>
      </trkpt>
      <trkpt lat="42.90374" lon="0.74487">
        <ele>1385.8</ele>
        <time>2020-02-22T14:22:53Z</time>
      </trkpt>
      <trkpt lat="42.90374" lon="0.74503">
        <ele>1386.6</ele>
        <time>2020-02-22T14:23:05Z</time>
      </trkpt>
      <trkpt lat="42.90375" lon="0.74524">
        <ele>1387.4</ele>
        <time>2020-02-22T14:23:19Z</time>
      </trkpt>
      <trkpt lat="42.90373" lon="0.74543">
        <ele>1389.8</ele>
        <time>2020-02-22T14:23:31Z</time>
      </trkpt>
      <trkpt lat="42.90374" lon="0.7456">
        <ele>1390.8</ele>
        <time>2020-02-22T14:23:43Z</time>
      </trkpt>
      <trkpt lat="42.90378" lon="0.74574">
        <ele>1391.5</ele>
        <time>2020-02-22T14:23:54Z</time>
      </trkpt>
      <trkpt lat="42.90379" lon="0.74589">
        <ele>1391.5</ele>
        <time>2020-02-22T14:24:05Z</time>
      </trkpt>
      <trkpt lat="42.90383" lon="0.74606">
        <ele>1392.3</ele>
        <time>2020-02-22T14:24:15Z</time>
      </trkpt>
      <trkpt lat="42.90383" lon="0.74621">
        <ele>1393.2</ele>
        <time>2020-02-22T14:24:26Z</time>
      </trkpt>
      <trkpt lat="42.90382" lon="0.74637">
        <ele>1394.1</ele>
        <time>2020-02-22T14:24:37Z</time>
      </trkpt>
      <trkpt lat="42.90385" lon="0.74653">
        <ele>1395</ele>
        <time>2020-02-22T14:24:49Z</time>
      </trkpt>
      <trkpt lat="42.90387" lon="0.74675">
        <ele>1396.5</ele>
        <time>2020-02-22T14:25:03Z</time>
      </trkpt>
      <trkpt lat="42.90385" lon="0.74693">
        <ele>1398.3</ele>
        <time>2020-02-22T14:25:16Z</time>
      </trkpt>
      <trkpt lat="42.9038" lon="0.74708">
        <ele>1400.7</ele>
        <time>2020-02-22T14:25:30Z</time>
      </trkpt>
      <trkpt lat="42.90374" lon="0.74726">
        <ele>1401.5</ele>
        <time>2020-02-22T14:25:43Z</time>
      </trkpt>
      <trkpt lat="42.90367" lon="0.74741">
        <ele>1402.2</ele>
        <time>2020-02-22T14:25:58Z</time>
      </trkpt>
      <trkpt lat="42.90356" lon="0.74751">
        <ele>1402.1</ele>
        <time>2020-02-22T14:26:11Z</time>
      </trkpt>
      <trkpt lat="42.90344" lon="0.74765">
        <ele>1402.1</ele>
        <time>2020-02-22T14:26:23Z</time>
      </trkpt>
      <trkpt lat="42.90333" lon="0.74779">
        <ele>1399.7</ele>
        <time>2020-02-22T14:26:36Z</time>
      </trkpt>
      <trkpt lat="42.90323" lon="0.7479">
        <ele>1398.8</ele>
        <time>2020-02-22T14:26:46Z</time>
      </trkpt>
      <trkpt lat="42.90312" lon="0.748">
        <ele>1398.7</ele>
        <time>2020-02-22T14:26:59Z</time>
      </trkpt>
      <trkpt lat="42.90301" lon="0.74815">
        <ele>1398.6</ele>
        <time>2020-02-22T14:27:11Z</time>
      </trkpt>
      <trkpt lat="42.90293" lon="0.74834">
        <ele>1398.4</ele>
        <time>2020-02-22T14:27:23Z</time>
      </trkpt>
      <trkpt lat="42.90296" lon="0.74853">
        <ele>1398.3</ele>
        <time>2020-02-22T14:27:34Z</time>
      </trkpt>
      <trkpt lat="42.90299" lon="0.74871">
        <ele>1398.3</ele>
        <time>2020-02-22T14:27:44Z</time>
      </trkpt>
      <trkpt lat="42.90304" lon="0.74885">
        <ele>1398.2</ele>
        <time>2020-02-22T14:27:53Z</time>
      </trkpt>
      <trkpt lat="42.90307" lon="0.74899">
        <ele>1397.2</ele>
        <time>2020-02-22T14:28:03Z</time>
      </trkpt>
      <trkpt lat="42.90311" lon="0.74912">
        <ele>1396.3</ele>
        <time>2020-02-22T14:28:13Z</time>
      </trkpt>
      <trkpt lat="42.90316" lon="0.74927">
        <ele>1396.3</ele>
        <time>2020-02-22T14:28:23Z</time>
      </trkpt>
      <trkpt lat="42.90321" lon="0.74941">
        <ele>1396.5</ele>
        <time>2020-02-22T14:28:34Z</time>
      </trkpt>
      <trkpt lat="42.90327" lon="0.74954">
        <ele>1395.1</ele>
        <time>2020-02-22T14:28:45Z</time>
      </trkpt>
      <trkpt lat="42.90334" lon="0.74965">
        <ele>1395</ele>
        <time>2020-02-22T14:28:56Z</time>
      </trkpt>
      <trkpt lat="42.9034" lon="0.74978">
        <ele>1397.4</ele>
        <time>2020-02-22T14:29:07Z</time>
      </trkpt>
      <trkpt lat="42.90345" lon="0.74991">
        <ele>1398.1</ele>
        <time>2020-02-22T14:29:19Z</time>
      </trkpt>
      <trkpt lat="42.90352" lon="0.75007">
        <ele>1398.1</ele>
        <time>2020-02-22T14:29:31Z</time>
      </trkpt>
      <trkpt lat="42.90357" lon="0.75018">
        <ele>1399.6</ele>
        <time>2020-02-22T14:29:42Z</time>
      </trkpt>
      <trkpt lat="42.90363" lon="0.75028">
        <ele>1400.5</ele>
        <time>2020-02-22T14:30:12Z</time>
      </trkpt>
      <trkpt lat="42.90369" lon="0.75036">
        <ele>1400.5</ele>
        <time>2020-02-22T14:30:27Z</time>
      </trkpt>
      <trkpt lat="42.90368" lon="0.75036">
        <ele>1400.6</ele>
        <time>2020-02-22T14:30:59Z</time>
      </trkpt>
      <trkpt lat="42.90372" lon="0.75044">
        <ele>1401.7</ele>
        <time>2020-02-22T14:31:30Z</time>
      </trkpt>
      <trkpt lat="42.90376" lon="0.75058">
        <ele>1402.7</ele>
        <time>2020-02-22T14:31:44Z</time>
      </trkpt>
      <trkpt lat="42.90381" lon="0.75069">
        <ele>1403.6</ele>
        <time>2020-02-22T14:31:55Z</time>
      </trkpt>
      <trkpt lat="42.90384" lon="0.75082">
        <ele>1404.5</ele>
        <time>2020-02-22T14:32:07Z</time>
      </trkpt>
      <trkpt lat="42.90387" lon="0.75097">
        <ele>1404.6</ele>
        <time>2020-02-22T14:32:18Z</time>
      </trkpt>
      <trkpt lat="42.90389" lon="0.75112">
        <ele>1404.6</ele>
        <time>2020-02-22T14:32:30Z</time>
      </trkpt>
      <trkpt lat="42.90387" lon="0.75129">
        <ele>1405.6</ele>
        <time>2020-02-22T14:32:43Z</time>
      </trkpt>
      <trkpt lat="42.90379" lon="0.75141">
        <ele>1405.6</ele>
        <time>2020-02-22T14:32:57Z</time>
      </trkpt>
      <trkpt lat="42.90375" lon="0.75158">
        <ele>1406.5</ele>
        <time>2020-02-22T14:33:08Z</time>
      </trkpt>
      <trkpt lat="42.9037" lon="0.75177">
        <ele>1406.6</ele>
        <time>2020-02-22T14:33:19Z</time>
      </trkpt>
      <trkpt lat="42.90369" lon="0.75192">
        <ele>1406.6</ele>
        <time>2020-02-22T14:33:27Z</time>
      </trkpt>
      <trkpt lat="42.9037" lon="0.75208">
        <ele>1406.6</ele>
        <time>2020-02-22T14:33:36Z</time>
      </trkpt>
      <trkpt lat="42.90366" lon="0.75222">
        <ele>1406.6</ele>
        <time>2020-02-22T14:33:45Z</time>
      </trkpt>
      <trkpt lat="42.90361" lon="0.75239">
        <ele>1406.7</ele>
        <time>2020-02-22T14:33:54Z</time>
      </trkpt>
      <trkpt lat="42.90359" lon="0.75254">
        <ele>1406.7</ele>
        <time>2020-02-22T14:34:02Z</time>
      </trkpt>
      <trkpt lat="42.90358" lon="0.75267">
        <ele>1406.7</ele>
        <time>2020-02-22T14:34:11Z</time>
      </trkpt>
      <trkpt lat="42.90354" lon="0.75287">
        <ele>1406.7</ele>
        <time>2020-02-22T14:34:23Z</time>
      </trkpt>
      <trkpt lat="42.90358" lon="0.75299">
        <ele>1406.7</ele>
        <time>2020-02-22T14:34:38Z</time>
      </trkpt>
      <trkpt lat="42.90357" lon="0.75303">
        <ele>1406.7</ele>
        <time>2020-02-22T14:35:02Z</time>
      </trkpt>
      <trkpt lat="42.90362" lon="0.75298">
        <ele>1406.6</ele>
        <time>2020-02-22T14:35:31Z</time>
      </trkpt>
      <trkpt lat="42.90358" lon="0.75299">
        <ele>1406.6</ele>
        <time>2020-02-22T14:36:07Z</time>
      </trkpt>
      <trkpt lat="42.90355" lon="0.75318">
        <ele>1406.6</ele>
        <time>2020-02-22T14:36:21Z</time>
      </trkpt>
      <trkpt lat="42.9035" lon="0.75337">
        <ele>1404.3</ele>
        <time>2020-02-22T14:36:32Z</time>
      </trkpt>
      <trkpt lat="42.90355" lon="0.75351">
        <ele>1404.3</ele>
        <time>2020-02-22T14:36:44Z</time>
      </trkpt>
      <trkpt lat="42.90363" lon="0.75363">
        <ele>1404.3</ele>
        <time>2020-02-22T14:36:55Z</time>
      </trkpt>
      <trkpt lat="42.90371" lon="0.75376">
        <ele>1406.6</ele>
        <time>2020-02-22T14:37:07Z</time>
      </trkpt>
      <trkpt lat="42.90378" lon="0.75384">
        <ele>1407.6</ele>
        <time>2020-02-22T14:37:17Z</time>
      </trkpt>
      <trkpt lat="42.90389" lon="0.75396">
        <ele>1409.2</ele>
        <time>2020-02-22T14:37:31Z</time>
      </trkpt>
      <trkpt lat="42.90396" lon="0.75407">
        <ele>1410.1</ele>
        <time>2020-02-22T14:37:43Z</time>
      </trkpt>
      <trkpt lat="42.90402" lon="0.75417">
        <ele>1411.9</ele>
        <time>2020-02-22T14:37:54Z</time>
      </trkpt>
      <trkpt lat="42.9041" lon="0.75431">
        <ele>1413.4</ele>
        <time>2020-02-22T14:38:08Z</time>
      </trkpt>
      <trkpt lat="42.90419" lon="0.75439">
        <ele>1416.4</ele>
        <time>2020-02-22T14:38:25Z</time>
      </trkpt>
      <trkpt lat="42.9043" lon="0.75446">
        <ele>1418</ele>
        <time>2020-02-22T14:38:38Z</time>
      </trkpt>
      <trkpt lat="42.90442" lon="0.75456">
        <ele>1418.7</ele>
        <time>2020-02-22T14:38:50Z</time>
      </trkpt>
      <trkpt lat="42.90457" lon="0.75465">
        <ele>1420.1</ele>
        <time>2020-02-22T14:39:06Z</time>
      </trkpt>
      <trkpt lat="42.90462" lon="0.75473">
        <ele>1420.8</ele>
        <time>2020-02-22T14:39:21Z</time>
      </trkpt>
      <trkpt lat="42.9047" lon="0.75481">
        <ele>1421.5</ele>
        <time>2020-02-22T14:39:34Z</time>
      </trkpt>
      <trkpt lat="42.90481" lon="0.7549">
        <ele>1421.4</ele>
        <time>2020-02-22T14:39:46Z</time>
      </trkpt>
      <trkpt lat="42.90493" lon="0.75495">
        <ele>1421.4</ele>
        <time>2020-02-22T14:39:57Z</time>
      </trkpt>
      <trkpt lat="42.905" lon="0.75505">
        <ele>1421.3</ele>
        <time>2020-02-22T14:40:08Z</time>
      </trkpt>
      <trkpt lat="42.90508" lon="0.75519">
        <ele>1421.3</ele>
        <time>2020-02-22T14:40:20Z</time>
      </trkpt>
      <trkpt lat="42.90514" lon="0.75532">
        <ele>1422.1</ele>
        <time>2020-02-22T14:40:33Z</time>
      </trkpt>
      <trkpt lat="42.90523" lon="0.75545">
        <ele>1422.9</ele>
        <time>2020-02-22T14:40:46Z</time>
      </trkpt>
      <trkpt lat="42.90532" lon="0.75558">
        <ele>1424.5</ele>
        <time>2020-02-22T14:40:58Z</time>
      </trkpt>
      <trkpt lat="42.90541" lon="0.7557">
        <ele>1425.2</ele>
        <time>2020-02-22T14:41:10Z</time>
      </trkpt>
      <trkpt lat="42.90551" lon="0.75583">
        <ele>1425.1</ele>
        <time>2020-02-22T14:41:21Z</time>
      </trkpt>
      <trkpt lat="42.90558" lon="0.75594">
        <ele>1425.8</ele>
        <time>2020-02-22T14:41:31Z</time>
      </trkpt>
      <trkpt lat="42.90565" lon="0.75606">
        <ele>1425.8</ele>
        <time>2020-02-22T14:41:42Z</time>
      </trkpt>
      <trkpt lat="42.90571" lon="0.75622">
        <ele>1426.5</ele>
        <time>2020-02-22T14:41:53Z</time>
      </trkpt>
      <trkpt lat="42.90579" lon="0.75637">
        <ele>1426.4</ele>
        <time>2020-02-22T14:42:06Z</time>
      </trkpt>
      <trkpt lat="42.90589" lon="0.75653">
        <ele>1426.3</ele>
        <time>2020-02-22T14:42:18Z</time>
      </trkpt>
      <trkpt lat="42.90595" lon="0.75665">
        <ele>1427.1</ele>
        <time>2020-02-22T14:42:30Z</time>
      </trkpt>
      <trkpt lat="42.90608" lon="0.75676">
        <ele>1428.6</ele>
        <time>2020-02-22T14:42:42Z</time>
      </trkpt>
      <trkpt lat="42.9062" lon="0.75684">
        <ele>1429.3</ele>
        <time>2020-02-22T14:42:53Z</time>
      </trkpt>
      <trkpt lat="42.90627" lon="0.75696">
        <ele>1430</ele>
        <time>2020-02-22T14:43:04Z</time>
      </trkpt>
      <trkpt lat="42.90636" lon="0.75708">
        <ele>1430.9</ele>
        <time>2020-02-22T14:43:16Z</time>
      </trkpt>
      <trkpt lat="42.90646" lon="0.7572">
        <ele>1431.6</ele>
        <time>2020-02-22T14:43:28Z</time>
      </trkpt>
      <trkpt lat="42.90656" lon="0.75732">
        <ele>1432.3</ele>
        <time>2020-02-22T14:43:40Z</time>
      </trkpt>
      <trkpt lat="42.90664" lon="0.75739">
        <ele>1432.3</ele>
        <time>2020-02-22T14:43:48Z</time>
      </trkpt>
      <trkpt lat="42.90671" lon="0.75743">
        <ele>1432.2</ele>
        <time>2020-02-22T14:43:58Z</time>
      </trkpt>
      <trkpt lat="42.90675" lon="0.75756">
        <ele>1432.3</ele>
        <time>2020-02-22T14:44:09Z</time>
      </trkpt>
      <trkpt lat="42.90675" lon="0.75777">
        <ele>1432.2</ele>
        <time>2020-02-22T14:44:21Z</time>
      </trkpt>
      <trkpt lat="42.90684" lon="0.75799">
        <ele>1427.8</ele>
        <time>2020-02-22T14:44:35Z</time>
      </trkpt>
      <trkpt lat="42.90695" lon="0.75813">
        <ele>1427</ele>
        <time>2020-02-22T14:44:50Z</time>
      </trkpt>
      <trkpt lat="42.90704" lon="0.75819">
        <ele>1427</ele>
        <time>2020-02-22T14:45:01Z</time>
      </trkpt>
      <trkpt lat="42.9071" lon="0.75833">
        <ele>1426.9</ele>
        <time>2020-02-22T14:45:14Z</time>
      </trkpt>
      <trkpt lat="42.90716" lon="0.75843">
        <ele>1426.7</ele>
        <time>2020-02-22T14:45:24Z</time>
      </trkpt>
      <trkpt lat="42.90726" lon="0.75856">
        <ele>1426.9</ele>
        <time>2020-02-22T14:45:35Z</time>
      </trkpt>
      <trkpt lat="42.90736" lon="0.75864">
        <ele>1429</ele>
        <time>2020-02-22T14:45:44Z</time>
      </trkpt>
      <trkpt lat="42.90743" lon="0.75874">
        <ele>1429</ele>
        <time>2020-02-22T14:45:54Z</time>
      </trkpt>
      <trkpt lat="42.90752" lon="0.75884">
        <ele>1429</ele>
        <time>2020-02-22T14:46:04Z</time>
      </trkpt>
      <trkpt lat="42.90763" lon="0.75894">
        <ele>1429.1</ele>
        <time>2020-02-22T14:46:15Z</time>
      </trkpt>
      <trkpt lat="42.90768" lon="0.75907">
        <ele>1430</ele>
        <time>2020-02-22T14:46:25Z</time>
      </trkpt>
      <trkpt lat="42.90776" lon="0.75915">
        <ele>1429.9</ele>
        <time>2020-02-22T14:46:33Z</time>
      </trkpt>
      <trkpt lat="42.90784" lon="0.75928">
        <ele>1429.8</ele>
        <time>2020-02-22T14:46:45Z</time>
      </trkpt>
      <trkpt lat="42.90795" lon="0.75947">
        <ele>1431.6</ele>
        <time>2020-02-22T14:46:59Z</time>
      </trkpt>
      <trkpt lat="42.90801" lon="0.75967">
        <ele>1434.2</ele>
        <time>2020-02-22T14:47:17Z</time>
      </trkpt>
      <trkpt lat="42.90811" lon="0.75981">
        <ele>1435</ele>
        <time>2020-02-22T14:47:29Z</time>
      </trkpt>
      <trkpt lat="42.90822" lon="0.75989">
        <ele>1434.8</ele>
        <time>2020-02-22T14:47:39Z</time>
      </trkpt>
      <trkpt lat="42.9083" lon="0.75997">
        <ele>1434.7</ele>
        <time>2020-02-22T14:47:50Z</time>
      </trkpt>
      <trkpt lat="42.90838" lon="0.76012">
        <ele>1432.2</ele>
        <time>2020-02-22T14:48:01Z</time>
      </trkpt>
      <trkpt lat="42.90846" lon="0.76027">
        <ele>1430.4</ele>
        <time>2020-02-22T14:48:11Z</time>
      </trkpt>
      <trkpt lat="42.90855" lon="0.76043">
        <ele>1427.9</ele>
        <time>2020-02-22T14:48:22Z</time>
      </trkpt>
      <trkpt lat="42.9086" lon="0.76058">
        <ele>1425.9</ele>
        <time>2020-02-22T14:48:34Z</time>
      </trkpt>
      <trkpt lat="42.90864" lon="0.7608">
        <ele>1423.1</ele>
        <time>2020-02-22T14:48:49Z</time>
      </trkpt>
      <trkpt lat="42.90867" lon="0.7609">
        <ele>1421.9</ele>
        <time>2020-02-22T14:49:08Z</time>
      </trkpt>
      <trkpt lat="42.90877" lon="0.76089">
        <ele>1421.6</ele>
        <time>2020-02-22T14:49:46Z</time>
      </trkpt>
      <trkpt lat="42.90881" lon="0.76101">
        <ele>1420.5</ele>
        <time>2020-02-22T14:50:09Z</time>
      </trkpt>
      <trkpt lat="42.90884" lon="0.76113">
        <ele>1419.5</ele>
        <time>2020-02-22T14:50:19Z</time>
      </trkpt>
      <trkpt lat="42.9089" lon="0.76126">
        <ele>1417.6</ele>
        <time>2020-02-22T14:50:29Z</time>
      </trkpt>
      <trkpt lat="42.90896" lon="0.76136">
        <ele>1415.8</ele>
        <time>2020-02-22T14:50:39Z</time>
      </trkpt>
      <trkpt lat="42.90899" lon="0.76157">
        <ele>1412.9</ele>
        <time>2020-02-22T14:50:53Z</time>
      </trkpt>
      <trkpt lat="42.909" lon="0.76176">
        <ele>1412.7</ele>
        <time>2020-02-22T14:51:04Z</time>
      </trkpt>
      <trkpt lat="42.90903" lon="0.76191">
        <ele>1411.9</ele>
        <time>2020-02-22T14:51:15Z</time>
      </trkpt>
      <trkpt lat="42.90906" lon="0.76208">
        <ele>1411</ele>
        <time>2020-02-22T14:51:25Z</time>
      </trkpt>
      <trkpt lat="42.90911" lon="0.76227">
        <ele>1410</ele>
        <time>2020-02-22T14:51:36Z</time>
      </trkpt>
      <trkpt lat="42.90917" lon="0.76242">
        <ele>1410</ele>
        <time>2020-02-22T14:51:46Z</time>
      </trkpt>
      <trkpt lat="42.90924" lon="0.76254">
        <ele>1409.9</ele>
        <time>2020-02-22T14:51:55Z</time>
      </trkpt>
      <trkpt lat="42.90927" lon="0.76271">
        <ele>1409.8</ele>
        <time>2020-02-22T14:52:08Z</time>
      </trkpt>
      <trkpt lat="42.90921" lon="0.76289">
        <ele>1409.4</ele>
        <time>2020-02-22T14:52:43Z</time>
      </trkpt>
      <trkpt lat="42.90911" lon="0.76302">
        <ele>1411.6</ele>
        <time>2020-02-22T14:52:59Z</time>
      </trkpt>
      <trkpt lat="42.9091" lon="0.76322">
        <ele>1411.5</ele>
        <time>2020-02-22T14:53:11Z</time>
      </trkpt>
      <trkpt lat="42.90908" lon="0.76342">
        <ele>1411.4</ele>
        <time>2020-02-22T14:53:23Z</time>
      </trkpt>
      <trkpt lat="42.90912" lon="0.7636">
        <ele>1409</ele>
        <time>2020-02-22T14:53:34Z</time>
      </trkpt>
      <trkpt lat="42.90916" lon="0.76379">
        <ele>1408.9</ele>
        <time>2020-02-22T14:53:47Z</time>
      </trkpt>
      <trkpt lat="42.90917" lon="0.76397">
        <ele>1410.9</ele>
        <time>2020-02-22T14:53:59Z</time>
      </trkpt>
      <trkpt lat="42.90919" lon="0.76415">
        <ele>1411.5</ele>
        <time>2020-02-22T14:54:10Z</time>
      </trkpt>
      <trkpt lat="42.90926" lon="0.76433">
        <ele>1412.2</ele>
        <time>2020-02-22T14:54:21Z</time>
      </trkpt>
      <trkpt lat="42.90936" lon="0.76443">
        <ele>1412.8</ele>
        <time>2020-02-22T14:54:31Z</time>
      </trkpt>
      <trkpt lat="42.90945" lon="0.76454">
        <ele>1413.5</ele>
        <time>2020-02-22T14:54:40Z</time>
      </trkpt>
      <trkpt lat="42.90952" lon="0.76467">
        <ele>1414.1</ele>
        <time>2020-02-22T14:54:49Z</time>
      </trkpt>
      <trkpt lat="42.90972" lon="0.76477">
        <ele>1415.8</ele>
        <time>2020-02-22T14:54:59Z</time>
      </trkpt>
      <trkpt lat="42.9098" lon="0.76489">
        <ele>1416.5</ele>
        <time>2020-02-22T14:55:09Z</time>
      </trkpt>
      <trkpt lat="42.90987" lon="0.76498">
        <ele>1418.1</ele>
        <time>2020-02-22T14:55:19Z</time>
      </trkpt>
      <trkpt lat="42.90988" lon="0.76508">
        <ele>1418.8</ele>
        <time>2020-02-22T14:55:29Z</time>
      </trkpt>
      <trkpt lat="42.90991" lon="0.76521">
        <ele>1419.6</ele>
        <time>2020-02-22T14:55:37Z</time>
      </trkpt>
      <trkpt lat="42.90995" lon="0.76534">
        <ele>1420.4</ele>
        <time>2020-02-22T14:55:45Z</time>
      </trkpt>
      <trkpt lat="42.90999" lon="0.76545">
        <ele>1422</ele>
        <time>2020-02-22T14:55:54Z</time>
      </trkpt>
      <trkpt lat="42.91003" lon="0.76555">
        <ele>1422</ele>
        <time>2020-02-22T14:56:02Z</time>
      </trkpt>
      <trkpt lat="42.91011" lon="0.76558">
        <ele>1422.7</ele>
        <time>2020-02-22T14:56:10Z</time>
      </trkpt>
      <trkpt lat="42.91019" lon="0.76559">
        <ele>1423.5</ele>
        <time>2020-02-22T14:56:19Z</time>
      </trkpt>
      <trkpt lat="42.91029" lon="0.76557">
        <ele>1424.4</ele>
        <time>2020-02-22T14:56:27Z</time>
      </trkpt>
      <trkpt lat="42.91038" lon="0.76558">
        <ele>1425.2</ele>
        <time>2020-02-22T14:56:35Z</time>
      </trkpt>
      <trkpt lat="42.91048" lon="0.76558">
        <ele>1426</ele>
        <time>2020-02-22T14:56:43Z</time>
      </trkpt>
      <trkpt lat="42.91058" lon="0.7656">
        <ele>1426.8</ele>
        <time>2020-02-22T14:56:51Z</time>
      </trkpt>
      <trkpt lat="42.91069" lon="0.76562">
        <ele>1428.4</ele>
        <time>2020-02-22T14:57:00Z</time>
      </trkpt>
      <trkpt lat="42.91078" lon="0.76562">
        <ele>1429.2</ele>
        <time>2020-02-22T14:57:09Z</time>
      </trkpt>
      <trkpt lat="42.91089" lon="0.76561">
        <ele>1430.2</ele>
        <time>2020-02-22T14:57:18Z</time>
      </trkpt>
      <trkpt lat="42.911" lon="0.76561">
        <ele>1431.9</ele>
        <time>2020-02-22T14:57:27Z</time>
      </trkpt>
      <trkpt lat="42.91109" lon="0.76561">
        <ele>1432.8</ele>
        <time>2020-02-22T14:57:36Z</time>
      </trkpt>
      <trkpt lat="42.9112" lon="0.7656">
        <ele>1436.3</ele>
        <time>2020-02-22T14:57:48Z</time>
      </trkpt>
      <trkpt lat="42.91129" lon="0.76561">
        <ele>1439.3</ele>
        <time>2020-02-22T14:58:03Z</time>
      </trkpt>
      <trkpt lat="42.91135" lon="0.76563">
        <ele>1439.4</ele>
        <time>2020-02-22T14:58:23Z</time>
      </trkpt>
      <trkpt lat="42.91135" lon="0.76565">
        <ele>1439.6</ele>
        <time>2020-02-22T14:58:42Z</time>
      </trkpt>
      <trkpt lat="42.91136" lon="0.7656">
        <ele>1439.9</ele>
        <time>2020-02-22T14:59:15Z</time>
      </trkpt>
      <trkpt lat="42.91146" lon="0.76565">
        <ele>1440</ele>
        <time>2020-02-22T14:59:25Z</time>
      </trkpt>
      <trkpt lat="42.91155" lon="0.7657">
        <ele>1440</ele>
        <time>2020-02-22T14:59:34Z</time>
      </trkpt>
      <trkpt lat="42.91163" lon="0.76579">
        <ele>1440.1</ele>
        <time>2020-02-22T14:59:43Z</time>
      </trkpt>
      <trkpt lat="42.91169" lon="0.76591">
        <ele>1440.2</ele>
        <time>2020-02-22T14:59:52Z</time>
      </trkpt>
      <trkpt lat="42.9117" lon="0.76605">
        <ele>1440.2</ele>
        <time>2020-02-22T15:00:01Z</time>
      </trkpt>
      <trkpt lat="42.91169" lon="0.76618">
        <ele>1440.2</ele>
        <time>2020-02-22T15:00:10Z</time>
      </trkpt>
      <trkpt lat="42.91169" lon="0.76633">
        <ele>1440.3</ele>
        <time>2020-02-22T15:00:19Z</time>
      </trkpt>
      <trkpt lat="42.91171" lon="0.76645">
        <ele>1440.4</ele>
        <time>2020-02-22T15:00:27Z</time>
      </trkpt>
      <trkpt lat="42.91172" lon="0.76658">
        <ele>1440.4</ele>
        <time>2020-02-22T15:00:35Z</time>
      </trkpt>
      <trkpt lat="42.91174" lon="0.7667">
        <ele>1440.4</ele>
        <time>2020-02-22T15:00:43Z</time>
      </trkpt>
      <trkpt lat="42.91177" lon="0.76682">
        <ele>1438.2</ele>
        <time>2020-02-22T15:00:51Z</time>
      </trkpt>
      <trkpt lat="42.9118" lon="0.76694">
        <ele>1437.4</ele>
        <time>2020-02-22T15:00:59Z</time>
      </trkpt>
      <trkpt lat="42.91182" lon="0.76706">
        <ele>1437.5</ele>
        <time>2020-02-22T15:01:07Z</time>
      </trkpt>
      <trkpt lat="42.91187" lon="0.76719">
        <ele>1436.6</ele>
        <time>2020-02-22T15:01:15Z</time>
      </trkpt>
      <trkpt lat="42.91189" lon="0.76732">
        <ele>1436.7</ele>
        <time>2020-02-22T15:01:23Z</time>
      </trkpt>
      <trkpt lat="42.91191" lon="0.76746">
        <ele>1435.9</ele>
        <time>2020-02-22T15:01:31Z</time>
      </trkpt>
      <trkpt lat="42.91194" lon="0.76759">
        <ele>1435.9</ele>
        <time>2020-02-22T15:01:39Z</time>
      </trkpt>
      <trkpt lat="42.91197" lon="0.76772">
        <ele>1435.1</ele>
        <time>2020-02-22T15:01:47Z</time>
      </trkpt>
      <trkpt lat="42.91201" lon="0.76785">
        <ele>1434.3</ele>
        <time>2020-02-22T15:01:56Z</time>
      </trkpt>
      <trkpt lat="42.91206" lon="0.76796">
        <ele>1432.7</ele>
        <time>2020-02-22T15:02:06Z</time>
      </trkpt>
      <trkpt lat="42.91211" lon="0.76812">
        <ele>1432</ele>
        <time>2020-02-22T15:02:15Z</time>
      </trkpt>
      <trkpt lat="42.91219" lon="0.76824">
        <ele>1432</ele>
        <time>2020-02-22T15:02:24Z</time>
      </trkpt>
      <trkpt lat="42.91224" lon="0.76835">
        <ele>1431.2</ele>
        <time>2020-02-22T15:02:32Z</time>
      </trkpt>
      <trkpt lat="42.9123" lon="0.76846">
        <ele>1430.4</ele>
        <time>2020-02-22T15:02:41Z</time>
      </trkpt>
      <trkpt lat="42.91235" lon="0.76859">
        <ele>1430.4</ele>
        <time>2020-02-22T15:02:50Z</time>
      </trkpt>
      <trkpt lat="42.91239" lon="0.7687">
        <ele>1429.7</ele>
        <time>2020-02-22T15:02:58Z</time>
      </trkpt>
      <trkpt lat="42.91241" lon="0.76883">
        <ele>1428.9</ele>
        <time>2020-02-22T15:03:06Z</time>
      </trkpt>
      <trkpt lat="42.91243" lon="0.76896">
        <ele>1428.1</ele>
        <time>2020-02-22T15:03:14Z</time>
      </trkpt>
      <trkpt lat="42.91244" lon="0.76908">
        <ele>1427.3</ele>
        <time>2020-02-22T15:03:21Z</time>
      </trkpt>
      <trkpt lat="42.91244" lon="0.76922">
        <ele>1427.4</ele>
        <time>2020-02-22T15:03:29Z</time>
      </trkpt>
      <trkpt lat="42.91242" lon="0.76935">
        <ele>1426.6</ele>
        <time>2020-02-22T15:03:37Z</time>
      </trkpt>
      <trkpt lat="42.91241" lon="0.76948">
        <ele>1426.6</ele>
        <time>2020-02-22T15:03:45Z</time>
      </trkpt>
      <trkpt lat="42.91246" lon="0.7696">
        <ele>1425.8</ele>
        <time>2020-02-22T15:03:54Z</time>
      </trkpt>
      <trkpt lat="42.91253" lon="0.76968">
        <ele>1423.2</ele>
        <time>2020-02-22T15:04:03Z</time>
      </trkpt>
      <trkpt lat="42.91259" lon="0.76977">
        <ele>1423.3</ele>
        <time>2020-02-22T15:04:11Z</time>
      </trkpt>
      <trkpt lat="42.91262" lon="0.7699">
        <ele>1423.3</ele>
        <time>2020-02-22T15:04:22Z</time>
      </trkpt>
      <trkpt lat="42.91272" lon="0.7699">
        <ele>1420.7</ele>
        <time>2020-02-22T15:04:32Z</time>
      </trkpt>
      <trkpt lat="42.91281" lon="0.7699">
        <ele>1416.5</ele>
        <time>2020-02-22T15:04:41Z</time>
      </trkpt>
      <trkpt lat="42.91282" lon="0.76996">
        <ele>1414.6</ele>
        <time>2020-02-22T15:04:49Z</time>
      </trkpt>
      <trkpt lat="42.9128" lon="0.77008">
        <ele>1413.8</ele>
        <time>2020-02-22T15:04:56Z</time>
      </trkpt>
      <trkpt lat="42.91279" lon="0.77019">
        <ele>1412.9</ele>
        <time>2020-02-22T15:05:03Z</time>
      </trkpt>
      <trkpt lat="42.91282" lon="0.77035">
        <ele>1413</ele>
        <time>2020-02-22T15:05:11Z</time>
      </trkpt>
      <trkpt lat="42.91283" lon="0.77046">
        <ele>1412.2</ele>
        <time>2020-02-22T15:05:19Z</time>
      </trkpt>
      <trkpt lat="42.91282" lon="0.77059">
        <ele>1412.3</ele>
        <time>2020-02-22T15:05:27Z</time>
      </trkpt>
      <trkpt lat="42.91282" lon="0.77073">
        <ele>1412.3</ele>
        <time>2020-02-22T15:05:35Z</time>
      </trkpt>
      <trkpt lat="42.9128" lon="0.77086">
        <ele>1412.4</ele>
        <time>2020-02-22T15:05:44Z</time>
      </trkpt>
      <trkpt lat="42.91277" lon="0.77095">
        <ele>1412.4</ele>
        <time>2020-02-22T15:05:54Z</time>
      </trkpt>
    </trkseg>
  </trk>
</gpx>